<?xml version="1.0" encoding="UTF-8" standalone="no" ?>
<gpx xmlns="http://www.topografix.com/GPX/1/1" creator="https://MapMagic.app" xmlns:xsi="http://www.w3.org/2001/XMLSchema-instance" xsi:schemaLocation="http://www.topografix.com/GPX/1/1 http://www.topografix.com/GPX/1/1/gpx.xsd" version="1.1">
	<wpt lat="54.939419" lon="20.147739">
		<name>КП 1</name>
		<desc>КП 1</desc>
		<type>Generic</type>
	</wpt>
	<wpt lat="54.959178" lon="20.472408">
		<name>КП 2</name>
		<desc>КП 2</desc>
		<type>Generic</type>
	</wpt>
	<trk>
		<name>200_Самбийский_узел_2026</name>
		<desc>200_Самбийский_узел_2026</desc>
		<trkseg>
			<trkpt lat="54.760040" lon="20.440560"><ele>31.3</ele><time>2026-07-23T06:44:42Z</time></trkpt>
			<trkpt lat="54.760040" lon="20.440560"><ele>31.3</ele><time>2026-07-23T06:44:47Z</time></trkpt>
			<trkpt lat="54.759320" lon="20.439320"><ele>31.1</ele><time>2026-07-23T06:44:51Z</time></trkpt>
			<trkpt lat="54.759300" lon="20.439190"><ele>31.1</ele><time>2026-07-23T06:44:55Z</time></trkpt>
			<trkpt lat="54.759310" lon="20.439090"><ele>31.0</ele><time>2026-07-23T06:44:59Z</time></trkpt>
			<trkpt lat="54.760160" lon="20.437550"><ele>30.0</ele><time>2026-07-23T06:45:03Z</time></trkpt>
			<trkpt lat="54.760640" lon="20.436760"><ele>29.0</ele><time>2026-07-23T06:45:08Z</time></trkpt>
			<trkpt lat="54.760640" lon="20.436760"><ele>29.0</ele><time>2026-07-23T06:45:15Z</time></trkpt>
			<trkpt lat="54.760730" lon="20.436600"><ele>28.8</ele><time>2026-07-23T06:45:22Z</time></trkpt>
			<trkpt lat="54.760760" lon="20.436560"><ele>28.7</ele><time>2026-07-23T06:45:30Z</time></trkpt>
			<trkpt lat="54.761210" lon="20.435760"><ele>28.0</ele><time>2026-07-23T06:45:37Z</time></trkpt>
			<trkpt lat="54.761330" lon="20.435570"><ele>28.0</ele><time>2026-07-23T06:45:44Z</time></trkpt>
			<trkpt lat="54.762290" lon="20.434100"><ele>27.8</ele><time>2026-07-23T06:45:52Z</time></trkpt>
			<trkpt lat="54.762560" lon="20.433690"><ele>27.8</ele><time>2026-07-23T06:45:59Z</time></trkpt>
			<trkpt lat="54.762610" lon="20.433610"><ele>27.8</ele><time>2026-07-23T06:46:06Z</time></trkpt>
			<trkpt lat="54.762650" lon="20.433540"><ele>27.8</ele><time>2026-07-23T06:46:14Z</time></trkpt>
			<trkpt lat="54.762950" lon="20.433060"><ele>27.9</ele><time>2026-07-23T06:46:21Z</time></trkpt>
			<trkpt lat="54.763350" lon="20.432400"><ele>28.0</ele><time>2026-07-23T06:46:28Z</time></trkpt>
			<trkpt lat="54.763420" lon="20.432150"><ele>28.0</ele><time>2026-07-23T06:46:36Z</time></trkpt>
			<trkpt lat="54.763410" lon="20.431830"><ele>28.1</ele><time>2026-07-23T06:46:43Z</time></trkpt>
			<trkpt lat="54.763320" lon="20.431330"><ele>28.0</ele><time>2026-07-23T06:46:50Z</time></trkpt>
			<trkpt lat="54.762110" lon="20.425030"><ele>28.3</ele><time>2026-07-23T06:46:58Z</time></trkpt>
			<trkpt lat="54.760680" lon="20.418090"><ele>28.1</ele><time>2026-07-23T06:47:05Z</time></trkpt>
			<trkpt lat="54.759890" lon="20.415220"><ele>27.7</ele><time>2026-07-23T06:47:12Z</time></trkpt>
			<trkpt lat="54.759640" lon="20.414200"><ele>28.0</ele><time>2026-07-23T06:47:20Z</time></trkpt>
			<trkpt lat="54.759440" lon="20.413020"><ele>28.0</ele><time>2026-07-23T06:47:27Z</time></trkpt>
			<trkpt lat="54.759370" lon="20.412330"><ele>28.0</ele><time>2026-07-23T06:47:34Z</time></trkpt>
			<trkpt lat="54.759350" lon="20.411590"><ele>28.0</ele><time>2026-07-23T06:47:42Z</time></trkpt>
			<trkpt lat="54.759370" lon="20.411040"><ele>28.0</ele><time>2026-07-23T06:47:49Z</time></trkpt>
			<trkpt lat="54.759380" lon="20.410590"><ele>28.3</ele><time>2026-07-23T06:47:56Z</time></trkpt>
			<trkpt lat="54.759470" lon="20.407860"><ele>30.4</ele><time>2026-07-23T06:48:04Z</time></trkpt>
			<trkpt lat="54.759580" lon="20.404310"><ele>30.5</ele><time>2026-07-23T06:48:11Z</time></trkpt>
			<trkpt lat="54.759760" lon="20.398550"><ele>28.8</ele><time>2026-07-23T06:48:18Z</time></trkpt>
			<trkpt lat="54.759790" lon="20.396810"><ele>27.5</ele><time>2026-07-23T06:48:26Z</time></trkpt>
			<trkpt lat="54.759780" lon="20.396010"><ele>26.8</ele><time>2026-07-23T06:48:33Z</time></trkpt>
			<trkpt lat="54.759760" lon="20.395760"><ele>26.6</ele><time>2026-07-23T06:48:41Z</time></trkpt>
			<trkpt lat="54.759710" lon="20.395240"><ele>26.2</ele><time>2026-07-23T06:48:48Z</time></trkpt>
			<trkpt lat="54.759600" lon="20.394510"><ele>26.2</ele><time>2026-07-23T06:48:55Z</time></trkpt>
			<trkpt lat="54.759500" lon="20.393970"><ele>26.1</ele><time>2026-07-23T06:49:03Z</time></trkpt>
			<trkpt lat="54.759300" lon="20.393030"><ele>26.1</ele><time>2026-07-23T06:49:10Z</time></trkpt>
			<trkpt lat="54.757400" lon="20.383630"><ele>28.3</ele><time>2026-07-23T06:49:17Z</time></trkpt>
			<trkpt lat="54.756720" lon="20.380310"><ele>26.6</ele><time>2026-07-23T06:49:25Z</time></trkpt>
			<trkpt lat="54.756480" lon="20.379140"><ele>27.4</ele><time>2026-07-23T06:49:32Z</time></trkpt>
			<trkpt lat="54.756280" lon="20.378030"><ele>28.1</ele><time>2026-07-23T06:49:39Z</time></trkpt>
			<trkpt lat="54.756220" lon="20.377290"><ele>28.9</ele><time>2026-07-23T06:49:47Z</time></trkpt>
			<trkpt lat="54.755930" lon="20.368140"><ele>27.9</ele><time>2026-07-23T06:49:54Z</time></trkpt>
			<trkpt lat="54.755730" lon="20.363120"><ele>28.0</ele><time>2026-07-23T06:50:01Z</time></trkpt>
			<trkpt lat="54.755730" lon="20.362540"><ele>27.7</ele><time>2026-07-23T06:50:09Z</time></trkpt>
			<trkpt lat="54.755590" lon="20.358420"><ele>25.3</ele><time>2026-07-23T06:50:16Z</time></trkpt>
			<trkpt lat="54.755450" lon="20.353030"><ele>26.4</ele><time>2026-07-23T06:50:23Z</time></trkpt>
			<trkpt lat="54.755250" lon="20.347580"><ele>28.7</ele><time>2026-07-23T06:50:31Z</time></trkpt>
			<trkpt lat="54.755230" lon="20.346590"><ele>30.4</ele><time>2026-07-23T06:50:38Z</time></trkpt>
			<trkpt lat="54.755310" lon="20.345840"><ele>32.0</ele><time>2026-07-23T06:50:45Z</time></trkpt>
			<trkpt lat="54.755900" lon="20.342580"><ele>35.9</ele><time>2026-07-23T06:50:53Z</time></trkpt>
			<trkpt lat="54.756000" lon="20.341900"><ele>33.1</ele><time>2026-07-23T06:51:00Z</time></trkpt>
			<trkpt lat="54.756190" lon="20.340320"><ele>26.7</ele><time>2026-07-23T06:51:07Z</time></trkpt>
			<trkpt lat="54.756490" lon="20.338520"><ele>32.1</ele><time>2026-07-23T06:51:15Z</time></trkpt>
			<trkpt lat="54.756530" lon="20.338280"><ele>32.9</ele><time>2026-07-23T06:51:22Z</time></trkpt>
			<trkpt lat="54.756580" lon="20.338120"><ele>33.5</ele><time>2026-07-23T06:51:29Z</time></trkpt>
			<trkpt lat="54.756710" lon="20.337830"><ele>34.7</ele><time>2026-07-23T06:51:37Z</time></trkpt>
			<trkpt lat="54.757580" lon="20.336060"><ele>35.3</ele><time>2026-07-23T06:51:44Z</time></trkpt>
			<trkpt lat="54.758440" lon="20.334300"><ele>33.0</ele><time>2026-07-23T06:51:51Z</time></trkpt>
			<trkpt lat="54.761140" lon="20.328890"><ele>28.4</ele><time>2026-07-23T06:51:59Z</time></trkpt>
			<trkpt lat="54.757080" lon="20.320110"><ele>25.7</ele><time>2026-07-23T06:52:06Z</time></trkpt>
			<trkpt lat="54.749570" lon="20.303840"><ele>9.5</ele><time>2026-07-23T06:52:13Z</time></trkpt>
			<trkpt lat="54.749010" lon="20.302620"><ele>9.0</ele><time>2026-07-23T06:52:21Z</time></trkpt>
			<trkpt lat="54.748940" lon="20.302270"><ele>9.0</ele><time>2026-07-23T06:52:28Z</time></trkpt>
			<trkpt lat="54.748980" lon="20.300990"><ele>8.9</ele><time>2026-07-23T06:52:35Z</time></trkpt>
			<trkpt lat="54.749030" lon="20.300580"><ele>8.9</ele><time>2026-07-23T06:52:43Z</time></trkpt>
			<trkpt lat="54.749110" lon="20.300330"><ele>8.9</ele><time>2026-07-23T06:52:50Z</time></trkpt>
			<trkpt lat="54.749320" lon="20.299810"><ele>8.9</ele><time>2026-07-23T06:52:58Z</time></trkpt>
			<trkpt lat="54.749400" lon="20.299530"><ele>8.8</ele><time>2026-07-23T06:53:05Z</time></trkpt>
			<trkpt lat="54.749480" lon="20.299100"><ele>8.8</ele><time>2026-07-23T06:53:12Z</time></trkpt>
			<trkpt lat="54.749490" lon="20.298660"><ele>8.8</ele><time>2026-07-23T06:53:20Z</time></trkpt>
			<trkpt lat="54.749410" lon="20.296700"><ele>8.4</ele><time>2026-07-23T06:53:27Z</time></trkpt>
			<trkpt lat="54.749410" lon="20.296340"><ele>8.3</ele><time>2026-07-23T06:53:34Z</time></trkpt>
			<trkpt lat="54.749390" lon="20.295870"><ele>8.1</ele><time>2026-07-23T06:53:42Z</time></trkpt>
			<trkpt lat="54.749250" lon="20.295240"><ele>7.8</ele><time>2026-07-23T06:53:49Z</time></trkpt>
			<trkpt lat="54.749050" lon="20.294510"><ele>7.6</ele><time>2026-07-23T06:53:56Z</time></trkpt>
			<trkpt lat="54.749010" lon="20.294240"><ele>7.6</ele><time>2026-07-23T06:54:04Z</time></trkpt>
			<trkpt lat="54.749010" lon="20.293910"><ele>7.7</ele><time>2026-07-23T06:54:11Z</time></trkpt>
			<trkpt lat="54.749130" lon="20.292110"><ele>8.0</ele><time>2026-07-23T06:54:18Z</time></trkpt>
			<trkpt lat="54.749130" lon="20.291600"><ele>8.0</ele><time>2026-07-23T06:54:26Z</time></trkpt>
			<trkpt lat="54.749090" lon="20.291180"><ele>8.4</ele><time>2026-07-23T06:54:33Z</time></trkpt>
			<trkpt lat="54.748950" lon="20.290060"><ele>9.7</ele><time>2026-07-23T06:54:40Z</time></trkpt>
			<trkpt lat="54.748260" lon="20.284820"><ele>11.1</ele><time>2026-07-23T06:54:48Z</time></trkpt>
			<trkpt lat="54.748160" lon="20.284050"><ele>10.5</ele><time>2026-07-23T06:54:55Z</time></trkpt>
			<trkpt lat="54.747910" lon="20.282030"><ele>9.6</ele><time>2026-07-23T06:55:02Z</time></trkpt>
			<trkpt lat="54.747830" lon="20.281510"><ele>10.1</ele><time>2026-07-23T06:55:10Z</time></trkpt>
			<trkpt lat="54.747770" lon="20.281220"><ele>10.3</ele><time>2026-07-23T06:55:17Z</time></trkpt>
			<trkpt lat="54.747690" lon="20.280970"><ele>10.6</ele><time>2026-07-23T06:55:24Z</time></trkpt>
			<trkpt lat="54.747020" lon="20.279220"><ele>11.6</ele><time>2026-07-23T06:55:32Z</time></trkpt>
			<trkpt lat="54.746400" lon="20.277500"><ele>9.0</ele><time>2026-07-23T06:55:39Z</time></trkpt>
			<trkpt lat="54.746170" lon="20.276860"><ele>8.2</ele><time>2026-07-23T06:55:46Z</time></trkpt>
			<trkpt lat="54.746000" lon="20.276460"><ele>8.3</ele><time>2026-07-23T06:55:54Z</time></trkpt>
			<trkpt lat="54.745750" lon="20.275770"><ele>8.4</ele><time>2026-07-23T06:56:01Z</time></trkpt>
			<trkpt lat="54.745660" lon="20.275460"><ele>8.4</ele><time>2026-07-23T06:56:08Z</time></trkpt>
			<trkpt lat="54.745440" lon="20.273630"><ele>9.3</ele><time>2026-07-23T06:56:16Z</time></trkpt>
			<trkpt lat="54.745310" lon="20.272310"><ele>11.1</ele><time>2026-07-23T06:56:23Z</time></trkpt>
			<trkpt lat="54.745090" lon="20.270480"><ele>13.3</ele><time>2026-07-23T06:56:30Z</time></trkpt>
			<trkpt lat="54.744750" lon="20.267350"><ele>15.6</ele><time>2026-07-23T06:56:38Z</time></trkpt>
			<trkpt lat="54.744610" lon="20.266260"><ele>15.6</ele><time>2026-07-23T06:56:45Z</time></trkpt>
			<trkpt lat="54.744100" lon="20.261670"><ele>18.9</ele><time>2026-07-23T06:56:52Z</time></trkpt>
			<trkpt lat="54.743940" lon="20.259850"><ele>20.3</ele><time>2026-07-23T06:57:00Z</time></trkpt>
			<trkpt lat="54.743910" lon="20.259440"><ele>20.6</ele><time>2026-07-23T06:57:07Z</time></trkpt>
			<trkpt lat="54.743900" lon="20.259280"><ele>20.8</ele><time>2026-07-23T06:57:15Z</time></trkpt>
			<trkpt lat="54.743800" lon="20.258860"><ele>21.1</ele><time>2026-07-23T06:57:22Z</time></trkpt>
			<trkpt lat="54.743420" lon="20.258280"><ele>21.1</ele><time>2026-07-23T06:57:29Z</time></trkpt>
			<trkpt lat="54.742920" lon="20.257590"><ele>21.1</ele><time>2026-07-23T06:57:37Z</time></trkpt>
			<trkpt lat="54.742840" lon="20.257350"><ele>21.0</ele><time>2026-07-23T06:57:44Z</time></trkpt>
			<trkpt lat="54.742770" lon="20.257070"><ele>21.0</ele><time>2026-07-23T06:57:51Z</time></trkpt>
			<trkpt lat="54.742730" lon="20.256640"><ele>21.0</ele><time>2026-07-23T06:57:59Z</time></trkpt>
			<trkpt lat="54.742620" lon="20.253680"><ele>23.5</ele><time>2026-07-23T06:58:06Z</time></trkpt>
			<trkpt lat="54.742600" lon="20.252600"><ele>24.3</ele><time>2026-07-23T06:58:13Z</time></trkpt>
			<trkpt lat="54.742660" lon="20.252150"><ele>24.6</ele><time>2026-07-23T06:58:21Z</time></trkpt>
			<trkpt lat="54.744140" lon="20.247400"><ele>25.6</ele><time>2026-07-23T06:58:28Z</time></trkpt>
			<trkpt lat="54.744310" lon="20.246850"><ele>25.3</ele><time>2026-07-23T06:58:35Z</time></trkpt>
			<trkpt lat="54.744720" lon="20.245350"><ele>24.3</ele><time>2026-07-23T06:58:43Z</time></trkpt>
			<trkpt lat="54.746430" lon="20.239760"><ele>25.3</ele><time>2026-07-23T06:58:50Z</time></trkpt>
			<trkpt lat="54.747270" lon="20.237030"><ele>25.6</ele><time>2026-07-23T06:58:57Z</time></trkpt>
			<trkpt lat="54.747420" lon="20.236500"><ele>25.5</ele><time>2026-07-23T06:59:05Z</time></trkpt>
			<trkpt lat="54.747670" lon="20.235760"><ele>22.9</ele><time>2026-07-23T06:59:12Z</time></trkpt>
			<trkpt lat="54.747770" lon="20.235340"><ele>21.5</ele><time>2026-07-23T06:59:19Z</time></trkpt>
			<trkpt lat="54.747830" lon="20.234820"><ele>20.0</ele><time>2026-07-23T06:59:27Z</time></trkpt>
			<trkpt lat="54.748210" lon="20.230850"><ele>13.4</ele><time>2026-07-23T06:59:34Z</time></trkpt>
			<trkpt lat="54.748740" lon="20.225260"><ele>10.8</ele><time>2026-07-23T06:59:41Z</time></trkpt>
			<trkpt lat="54.749140" lon="20.221220"><ele>13.9</ele><time>2026-07-23T06:59:49Z</time></trkpt>
			<trkpt lat="54.749280" lon="20.219520"><ele>13.6</ele><time>2026-07-23T06:59:56Z</time></trkpt>
			<trkpt lat="54.749350" lon="20.218330"><ele>13.4</ele><time>2026-07-23T07:00:03Z</time></trkpt>
			<trkpt lat="54.749410" lon="20.216980"><ele>13.7</ele><time>2026-07-23T07:00:11Z</time></trkpt>
			<trkpt lat="54.749470" lon="20.215410"><ele>14.2</ele><time>2026-07-23T07:00:18Z</time></trkpt>
			<trkpt lat="54.749720" lon="20.209550"><ele>16.4</ele><time>2026-07-23T07:00:25Z</time></trkpt>
			<trkpt lat="54.749890" lon="20.205790"><ele>17.0</ele><time>2026-07-23T07:00:33Z</time></trkpt>
			<trkpt lat="54.750250" lon="20.197460"><ele>18.9</ele><time>2026-07-23T07:00:40Z</time></trkpt>
			<trkpt lat="54.750290" lon="20.196220"><ele>18.9</ele><time>2026-07-23T07:00:47Z</time></trkpt>
			<trkpt lat="54.750300" lon="20.196050"><ele>19.0</ele><time>2026-07-23T07:00:55Z</time></trkpt>
			<trkpt lat="54.750360" lon="20.194340"><ele>20.1</ele><time>2026-07-23T07:01:02Z</time></trkpt>
			<trkpt lat="54.750440" lon="20.192230"><ele>20.8</ele><time>2026-07-23T07:01:09Z</time></trkpt>
			<trkpt lat="54.750450" lon="20.192100"><ele>20.8</ele><time>2026-07-23T07:01:17Z</time></trkpt>
			<trkpt lat="54.750500" lon="20.192000"><ele>20.8</ele><time>2026-07-23T07:01:24Z</time></trkpt>
			<trkpt lat="54.750560" lon="20.191960"><ele>20.8</ele><time>2026-07-23T07:01:32Z</time></trkpt>
			<trkpt lat="54.750620" lon="20.191970"><ele>20.8</ele><time>2026-07-23T07:01:39Z</time></trkpt>
			<trkpt lat="54.750720" lon="20.192070"><ele>20.8</ele><time>2026-07-23T07:01:46Z</time></trkpt>
			<trkpt lat="54.752380" lon="20.194060"><ele>18.3</ele><time>2026-07-23T07:01:54Z</time></trkpt>
			<trkpt lat="54.752450" lon="20.194140"><ele>18.1</ele><time>2026-07-23T07:02:01Z</time></trkpt>
			<trkpt lat="54.752450" lon="20.194130"><ele>18.1</ele><time>2026-07-23T07:02:10Z</time></trkpt>
			<trkpt lat="54.753560" lon="20.195410"><ele>17.9</ele><time>2026-07-23T07:02:19Z</time></trkpt>
			<trkpt lat="54.754270" lon="20.196240"><ele>19.2</ele><time>2026-07-23T07:02:29Z</time></trkpt>
			<trkpt lat="54.760050" lon="20.203080"><ele>33.9</ele><time>2026-07-23T07:02:38Z</time></trkpt>
			<trkpt lat="54.761970" lon="20.205420"><ele>34.4</ele><time>2026-07-23T07:02:47Z</time></trkpt>
			<trkpt lat="54.763090" lon="20.206730"><ele>37.6</ele><time>2026-07-23T07:02:57Z</time></trkpt>
			<trkpt lat="54.764060" lon="20.207850"><ele>36.8</ele><time>2026-07-23T07:03:06Z</time></trkpt>
			<trkpt lat="54.764140" lon="20.207900"><ele>36.7</ele><time>2026-07-23T07:03:15Z</time></trkpt>
			<trkpt lat="54.765160" lon="20.208600"><ele>34.3</ele><time>2026-07-23T07:03:24Z</time></trkpt>
			<trkpt lat="54.765240" lon="20.208770"><ele>33.8</ele><time>2026-07-23T07:03:34Z</time></trkpt>
			<trkpt lat="54.765400" lon="20.209270"><ele>32.7</ele><time>2026-07-23T07:03:43Z</time></trkpt>
			<trkpt lat="54.765790" lon="20.210600"><ele>29.7</ele><time>2026-07-23T07:03:52Z</time></trkpt>
			<trkpt lat="54.766000" lon="20.211100"><ele>29.1</ele><time>2026-07-23T07:04:02Z</time></trkpt>
			<trkpt lat="54.766250" lon="20.211330"><ele>30.7</ele><time>2026-07-23T07:04:11Z</time></trkpt>
			<trkpt lat="54.766410" lon="20.211520"><ele>31.8</ele><time>2026-07-23T07:04:20Z</time></trkpt>
			<trkpt lat="54.766540" lon="20.211780"><ele>32.9</ele><time>2026-07-23T07:04:30Z</time></trkpt>
			<trkpt lat="54.766720" lon="20.212450"><ele>35.4</ele><time>2026-07-23T07:04:39Z</time></trkpt>
			<trkpt lat="54.766750" lon="20.212580"><ele>35.8</ele><time>2026-07-23T07:04:48Z</time></trkpt>
			<trkpt lat="54.766890" lon="20.212960"><ele>37.3</ele><time>2026-07-23T07:04:57Z</time></trkpt>
			<trkpt lat="54.767090" lon="20.213150"><ele>38.6</ele><time>2026-07-23T07:05:07Z</time></trkpt>
			<trkpt lat="54.767340" lon="20.213260"><ele>39.1</ele><time>2026-07-23T07:05:16Z</time></trkpt>
			<trkpt lat="54.767670" lon="20.213290"><ele>39.2</ele><time>2026-07-23T07:05:25Z</time></trkpt>
			<trkpt lat="54.768350" lon="20.213270"><ele>39.6</ele><time>2026-07-23T07:05:35Z</time></trkpt>
			<trkpt lat="54.771950" lon="20.213210"><ele>37.8</ele><time>2026-07-23T07:05:44Z</time></trkpt>
			<trkpt lat="54.773260" lon="20.213260"><ele>40.1</ele><time>2026-07-23T07:05:53Z</time></trkpt>
			<trkpt lat="54.773960" lon="20.213340"><ele>44.0</ele><time>2026-07-23T07:06:02Z</time></trkpt>
			<trkpt lat="54.774630" lon="20.213160"><ele>47.3</ele><time>2026-07-23T07:06:12Z</time></trkpt>
			<trkpt lat="54.776040" lon="20.212980"><ele>52.5</ele><time>2026-07-23T07:06:21Z</time></trkpt>
			<trkpt lat="54.776570" lon="20.213000"><ele>52.7</ele><time>2026-07-23T07:06:30Z</time></trkpt>
			<trkpt lat="54.777650" lon="20.213290"><ele>51.8</ele><time>2026-07-23T07:06:40Z</time></trkpt>
			<trkpt lat="54.778410" lon="20.213450"><ele>50.6</ele><time>2026-07-23T07:06:49Z</time></trkpt>
			<trkpt lat="54.780470" lon="20.214000"><ele>43.4</ele><time>2026-07-23T07:06:58Z</time></trkpt>
			<trkpt lat="54.780750" lon="20.214010"><ele>41.9</ele><time>2026-07-23T07:07:07Z</time></trkpt>
			<trkpt lat="54.781080" lon="20.213850"><ele>40.0</ele><time>2026-07-23T07:07:17Z</time></trkpt>
			<trkpt lat="54.781370" lon="20.213580"><ele>38.2</ele><time>2026-07-23T07:07:26Z</time></trkpt>
			<trkpt lat="54.781810" lon="20.213150"><ele>38.1</ele><time>2026-07-23T07:07:35Z</time></trkpt>
			<trkpt lat="54.782960" lon="20.211810"><ele>40.4</ele><time>2026-07-23T07:07:45Z</time></trkpt>
			<trkpt lat="54.783330" lon="20.211410"><ele>40.6</ele><time>2026-07-23T07:07:54Z</time></trkpt>
			<trkpt lat="54.785630" lon="20.208770"><ele>45.0</ele><time>2026-07-23T07:08:03Z</time></trkpt>
			<trkpt lat="54.786880" lon="20.207290"><ele>52.2</ele><time>2026-07-23T07:08:12Z</time></trkpt>
			<trkpt lat="54.788490" lon="20.205460"><ele>59.4</ele><time>2026-07-23T07:08:22Z</time></trkpt>
			<trkpt lat="54.789830" lon="20.203930"><ele>61.2</ele><time>2026-07-23T07:08:31Z</time></trkpt>
			<trkpt lat="54.790520" lon="20.203140"><ele>61.3</ele><time>2026-07-23T07:08:40Z</time></trkpt>
			<trkpt lat="54.790890" lon="20.202670"><ele>60.1</ele><time>2026-07-23T07:08:50Z</time></trkpt>
			<trkpt lat="54.790990" lon="20.202550"><ele>59.8</ele><time>2026-07-23T07:08:59Z</time></trkpt>
			<trkpt lat="54.791140" lon="20.202170"><ele>59.1</ele><time>2026-07-23T07:09:08Z</time></trkpt>
			<trkpt lat="54.791210" lon="20.201920"><ele>58.7</ele><time>2026-07-23T07:09:17Z</time></trkpt>
			<trkpt lat="54.791360" lon="20.200810"><ele>56.9</ele><time>2026-07-23T07:09:27Z</time></trkpt>
			<trkpt lat="54.791500" lon="20.200020"><ele>55.0</ele><time>2026-07-23T07:09:36Z</time></trkpt>
			<trkpt lat="54.791710" lon="20.199720"><ele>53.8</ele><time>2026-07-23T07:09:45Z</time></trkpt>
			<trkpt lat="54.793340" lon="20.198790"><ele>47.7</ele><time>2026-07-23T07:09:55Z</time></trkpt>
			<trkpt lat="54.794230" lon="20.198170"><ele>46.7</ele><time>2026-07-23T07:10:04Z</time></trkpt>
			<trkpt lat="54.795360" lon="20.196930"><ele>43.5</ele><time>2026-07-23T07:10:13Z</time></trkpt>
			<trkpt lat="54.796310" lon="20.195840"><ele>40.6</ele><time>2026-07-23T07:10:22Z</time></trkpt>
			<trkpt lat="54.797990" lon="20.193830"><ele>37.3</ele><time>2026-07-23T07:10:32Z</time></trkpt>
			<trkpt lat="54.799550" lon="20.192240"><ele>34.4</ele><time>2026-07-23T07:10:41Z</time></trkpt>
			<trkpt lat="54.805080" lon="20.187370"><ele>27.7</ele><time>2026-07-23T07:10:50Z</time></trkpt>
			<trkpt lat="54.808360" lon="20.184310"><ele>28.8</ele><time>2026-07-23T07:11:00Z</time></trkpt>
			<trkpt lat="54.809360" lon="20.183400"><ele>29.7</ele><time>2026-07-23T07:11:09Z</time></trkpt>
			<trkpt lat="54.811310" lon="20.181700"><ele>30.3</ele><time>2026-07-23T07:11:18Z</time></trkpt>
			<trkpt lat="54.811360" lon="20.181660"><ele>30.3</ele><time>2026-07-23T07:11:27Z</time></trkpt>
			<trkpt lat="54.814210" lon="20.179090"><ele>27.4</ele><time>2026-07-23T07:11:37Z</time></trkpt>
			<trkpt lat="54.814630" lon="20.178770"><ele>28.4</ele><time>2026-07-23T07:11:46Z</time></trkpt>
			<trkpt lat="54.814710" lon="20.178760"><ele>28.6</ele><time>2026-07-23T07:11:55Z</time></trkpt>
			<trkpt lat="54.814790" lon="20.174080"><ele>30.0</ele><time>2026-07-23T07:12:05Z</time></trkpt>
			<trkpt lat="54.814880" lon="20.169990"><ele>22.9</ele><time>2026-07-23T07:12:14Z</time></trkpt>
			<trkpt lat="54.814890" lon="20.166850"><ele>21.2</ele><time>2026-07-23T07:12:23Z</time></trkpt>
			<trkpt lat="54.814890" lon="20.166460"><ele>21.0</ele><time>2026-07-23T07:12:33Z</time></trkpt>
			<trkpt lat="54.814880" lon="20.165800"><ele>20.8</ele><time>2026-07-23T07:12:42Z</time></trkpt>
			<trkpt lat="54.814760" lon="20.164510"><ele>22.4</ele><time>2026-07-23T07:12:51Z</time></trkpt>
			<trkpt lat="54.814070" lon="20.156840"><ele>24.9</ele><time>2026-07-23T07:13:00Z</time></trkpt>
			<trkpt lat="54.813490" lon="20.150450"><ele>32.8</ele><time>2026-07-23T07:13:10Z</time></trkpt>
			<trkpt lat="54.813100" lon="20.147610"><ele>36.1</ele><time>2026-07-23T07:13:19Z</time></trkpt>
			<trkpt lat="54.812990" lon="20.146570"><ele>37.0</ele><time>2026-07-23T07:13:28Z</time></trkpt>
			<trkpt lat="54.812970" lon="20.144340"><ele>38.1</ele><time>2026-07-23T07:13:38Z</time></trkpt>
			<trkpt lat="54.812890" lon="20.134190"><ele>42.2</ele><time>2026-07-23T07:13:47Z</time></trkpt>
			<trkpt lat="54.812820" lon="20.125600"><ele>46.9</ele><time>2026-07-23T07:13:56Z</time></trkpt>
			<trkpt lat="54.813020" lon="20.119150"><ele>46.8</ele><time>2026-07-23T07:14:05Z</time></trkpt>
			<trkpt lat="54.813140" lon="20.116300"><ele>45.1</ele><time>2026-07-23T07:14:15Z</time></trkpt>
			<trkpt lat="54.813400" lon="20.108000"><ele>42.7</ele><time>2026-07-23T07:14:24Z</time></trkpt>
			<trkpt lat="54.813450" lon="20.106140"><ele>46.6</ele><time>2026-07-23T07:14:33Z</time></trkpt>
			<trkpt lat="54.813610" lon="20.100490"><ele>42.1</ele><time>2026-07-23T07:14:43Z</time></trkpt>
			<trkpt lat="54.813640" lon="20.099610"><ele>42.3</ele><time>2026-07-23T07:14:52Z</time></trkpt>
			<trkpt lat="54.813770" lon="20.095300"><ele>39.3</ele><time>2026-07-23T07:15:01Z</time></trkpt>
			<trkpt lat="54.813830" lon="20.092930"><ele>36.6</ele><time>2026-07-23T07:15:10Z</time></trkpt>
			<trkpt lat="54.813740" lon="20.092440"><ele>36.9</ele><time>2026-07-23T07:15:20Z</time></trkpt>
			<trkpt lat="54.812790" lon="20.087270"><ele>39.7</ele><time>2026-07-23T07:15:29Z</time></trkpt>
			<trkpt lat="54.811350" lon="20.079530"><ele>34.0</ele><time>2026-07-23T07:15:38Z</time></trkpt>
			<trkpt lat="54.809190" lon="20.067540"><ele>27.8</ele><time>2026-07-23T07:15:48Z</time></trkpt>
			<trkpt lat="54.809060" lon="20.066900"><ele>27.8</ele><time>2026-07-23T07:15:57Z</time></trkpt>
			<trkpt lat="54.808900" lon="20.066400"><ele>27.8</ele><time>2026-07-23T07:16:06Z</time></trkpt>
			<trkpt lat="54.808730" lon="20.066070"><ele>27.8</ele><time>2026-07-23T07:16:15Z</time></trkpt>
			<trkpt lat="54.805650" lon="20.061720"><ele>27.9</ele><time>2026-07-23T07:16:25Z</time></trkpt>
			<trkpt lat="54.804230" lon="20.059690"><ele>33.1</ele><time>2026-07-23T07:16:34Z</time></trkpt>
			<trkpt lat="54.803640" lon="20.058830"><ele>35.2</ele><time>2026-07-23T07:16:43Z</time></trkpt>
			<trkpt lat="54.803040" lon="20.058010"><ele>32.8</ele><time>2026-07-23T07:16:53Z</time></trkpt>
			<trkpt lat="54.802960" lon="20.057730"><ele>31.9</ele><time>2026-07-23T07:17:02Z</time></trkpt>
			<trkpt lat="54.802610" lon="20.055740"><ele>27.1</ele><time>2026-07-23T07:17:11Z</time></trkpt>
			<trkpt lat="54.803680" lon="20.054700"><ele>29.9</ele><time>2026-07-23T07:17:20Z</time></trkpt>
			<trkpt lat="54.804290" lon="20.054070"><ele>32.3</ele><time>2026-07-23T07:17:30Z</time></trkpt>
			<trkpt lat="54.804730" lon="20.053520"><ele>35.0</ele><time>2026-07-23T07:17:39Z</time></trkpt>
			<trkpt lat="54.805660" lon="20.052280"><ele>39.7</ele><time>2026-07-23T07:17:48Z</time></trkpt>
			<trkpt lat="54.808090" lon="20.049030"><ele>34.5</ele><time>2026-07-23T07:17:58Z</time></trkpt>
			<trkpt lat="54.809690" lon="20.046400"><ele>30.6</ele><time>2026-07-23T07:18:07Z</time></trkpt>
			<trkpt lat="54.810030" lon="20.045820"><ele>30.7</ele><time>2026-07-23T07:18:16Z</time></trkpt>
			<trkpt lat="54.810030" lon="20.045820"><ele>30.7</ele><time>2026-07-23T07:18:22Z</time></trkpt>
			<trkpt lat="54.810110" lon="20.045680"><ele>30.7</ele><time>2026-07-23T07:18:29Z</time></trkpt>
			<trkpt lat="54.812160" lon="20.042310"><ele>30.9</ele><time>2026-07-23T07:18:35Z</time></trkpt>
			<trkpt lat="54.815760" lon="20.037010"><ele>30.0</ele><time>2026-07-23T07:18:41Z</time></trkpt>
			<trkpt lat="54.817270" lon="20.034790"><ele>27.7</ele><time>2026-07-23T07:18:48Z</time></trkpt>
			<trkpt lat="54.818340" lon="20.033530"><ele>27.3</ele><time>2026-07-23T07:18:54Z</time></trkpt>
			<trkpt lat="54.819120" lon="20.032460"><ele>27.8</ele><time>2026-07-23T07:19:00Z</time></trkpt>
			<trkpt lat="54.820250" lon="20.030790"><ele>28.7</ele><time>2026-07-23T07:19:06Z</time></trkpt>
			<trkpt lat="54.820770" lon="20.029960"><ele>28.8</ele><time>2026-07-23T07:19:13Z</time></trkpt>
			<trkpt lat="54.820900" lon="20.029690"><ele>28.5</ele><time>2026-07-23T07:19:19Z</time></trkpt>
			<trkpt lat="54.823030" lon="20.025420"><ele>24.3</ele><time>2026-07-23T07:19:25Z</time></trkpt>
			<trkpt lat="54.823420" lon="20.024300"><ele>24.8</ele><time>2026-07-23T07:19:32Z</time></trkpt>
			<trkpt lat="54.824200" lon="20.021620"><ele>25.0</ele><time>2026-07-23T07:19:38Z</time></trkpt>
			<trkpt lat="54.824450" lon="20.020690"><ele>24.7</ele><time>2026-07-23T07:19:44Z</time></trkpt>
			<trkpt lat="54.824730" lon="20.019830"><ele>24.3</ele><time>2026-07-23T07:19:50Z</time></trkpt>
			<trkpt lat="54.825040" lon="20.018950"><ele>23.2</ele><time>2026-07-23T07:19:57Z</time></trkpt>
			<trkpt lat="54.825590" lon="20.017750"><ele>21.6</ele><time>2026-07-23T07:20:03Z</time></trkpt>
			<trkpt lat="54.826060" lon="20.016810"><ele>22.2</ele><time>2026-07-23T07:20:09Z</time></trkpt>
			<trkpt lat="54.827690" lon="20.013730"><ele>28.3</ele><time>2026-07-23T07:20:15Z</time></trkpt>
			<trkpt lat="54.828530" lon="20.012130"><ele>30.8</ele><time>2026-07-23T07:20:22Z</time></trkpt>
			<trkpt lat="54.829140" lon="20.010970"><ele>31.7</ele><time>2026-07-23T07:20:28Z</time></trkpt>
			<trkpt lat="54.829200" lon="20.010920"><ele>31.8</ele><time>2026-07-23T07:20:34Z</time></trkpt>
			<trkpt lat="54.829240" lon="20.010880"><ele>31.8</ele><time>2026-07-23T07:20:41Z</time></trkpt>
			<trkpt lat="54.829400" lon="20.010740"><ele>32.0</ele><time>2026-07-23T07:20:47Z</time></trkpt>
			<trkpt lat="54.829680" lon="20.010620"><ele>31.5</ele><time>2026-07-23T07:20:53Z</time></trkpt>
			<trkpt lat="54.829950" lon="20.010550"><ele>30.5</ele><time>2026-07-23T07:20:59Z</time></trkpt>
			<trkpt lat="54.831660" lon="20.010420"><ele>25.7</ele><time>2026-07-23T07:21:06Z</time></trkpt>
			<trkpt lat="54.832430" lon="20.010350"><ele>26.5</ele><time>2026-07-23T07:21:12Z</time></trkpt>
			<trkpt lat="54.832920" lon="20.010330"><ele>27.1</ele><time>2026-07-23T07:21:18Z</time></trkpt>
			<trkpt lat="54.833620" lon="20.010180"><ele>26.2</ele><time>2026-07-23T07:21:25Z</time></trkpt>
			<trkpt lat="54.833830" lon="20.010100"><ele>25.7</ele><time>2026-07-23T07:21:31Z</time></trkpt>
			<trkpt lat="54.833930" lon="20.010070"><ele>25.5</ele><time>2026-07-23T07:21:37Z</time></trkpt>
			<trkpt lat="54.834570" lon="20.009820"><ele>24.1</ele><time>2026-07-23T07:21:43Z</time></trkpt>
			<trkpt lat="54.834820" lon="20.009710"><ele>23.6</ele><time>2026-07-23T07:21:50Z</time></trkpt>
			<trkpt lat="54.835420" lon="20.009440"><ele>23.9</ele><time>2026-07-23T07:21:56Z</time></trkpt>
			<trkpt lat="54.835740" lon="20.009200"><ele>24.2</ele><time>2026-07-23T07:22:02Z</time></trkpt>
			<trkpt lat="54.839750" lon="20.006150"><ele>28.1</ele><time>2026-07-23T07:22:09Z</time></trkpt>
			<trkpt lat="54.839800" lon="20.006060"><ele>28.2</ele><time>2026-07-23T07:22:15Z</time></trkpt>
			<trkpt lat="54.839830" lon="20.005940"><ele>28.3</ele><time>2026-07-23T07:22:21Z</time></trkpt>
			<trkpt lat="54.839870" lon="20.005660"><ele>29.0</ele><time>2026-07-23T07:22:27Z</time></trkpt>
			<trkpt lat="54.840170" lon="20.002460"><ele>34.9</ele><time>2026-07-23T07:22:34Z</time></trkpt>
			<trkpt lat="54.840880" lon="19.995050"><ele>26.9</ele><time>2026-07-23T07:22:40Z</time></trkpt>
			<trkpt lat="54.840970" lon="19.994640"><ele>26.7</ele><time>2026-07-23T07:22:46Z</time></trkpt>
			<trkpt lat="54.841510" lon="19.993130"><ele>26.8</ele><time>2026-07-23T07:22:52Z</time></trkpt>
			<trkpt lat="54.843410" lon="19.987750"><ele>31.7</ele><time>2026-07-23T07:22:59Z</time></trkpt>
			<trkpt lat="54.844600" lon="19.984610"><ele>32.3</ele><time>2026-07-23T07:23:05Z</time></trkpt>
			<trkpt lat="54.844890" lon="19.983640"><ele>31.7</ele><time>2026-07-23T07:23:11Z</time></trkpt>
			<trkpt lat="54.845220" lon="19.982400"><ele>30.7</ele><time>2026-07-23T07:23:18Z</time></trkpt>
			<trkpt lat="54.845530" lon="19.981070"><ele>29.5</ele><time>2026-07-23T07:23:24Z</time></trkpt>
			<trkpt lat="54.845800" lon="19.979740"><ele>28.4</ele><time>2026-07-23T07:23:30Z</time></trkpt>
			<trkpt lat="54.846050" lon="19.978190"><ele>27.6</ele><time>2026-07-23T07:23:36Z</time></trkpt>
			<trkpt lat="54.846080" lon="19.978040"><ele>27.5</ele><time>2026-07-23T07:23:43Z</time></trkpt>
			<trkpt lat="54.846370" lon="19.976220"><ele>25.8</ele><time>2026-07-23T07:23:49Z</time></trkpt>
			<trkpt lat="54.846540" lon="19.975130"><ele>24.3</ele><time>2026-07-23T07:23:55Z</time></trkpt>
			<trkpt lat="54.846690" lon="19.974160"><ele>23.0</ele><time>2026-07-23T07:24:02Z</time></trkpt>
			<trkpt lat="54.846990" lon="19.972220"><ele>24.7</ele><time>2026-07-23T07:24:08Z</time></trkpt>
			<trkpt lat="54.847700" lon="19.967140"><ele>23.1</ele><time>2026-07-23T07:24:14Z</time></trkpt>
			<trkpt lat="54.847900" lon="19.966220"><ele>22.7</ele><time>2026-07-23T07:24:20Z</time></trkpt>
			<trkpt lat="54.847920" lon="19.966190"><ele>22.7</ele><time>2026-07-23T07:24:27Z</time></trkpt>
			<trkpt lat="54.848180" lon="19.965350"><ele>22.3</ele><time>2026-07-23T07:24:33Z</time></trkpt>
			<trkpt lat="54.848950" lon="19.963310"><ele>22.5</ele><time>2026-07-23T07:24:39Z</time></trkpt>
			<trkpt lat="54.850320" lon="19.960290"><ele>22.6</ele><time>2026-07-23T07:24:46Z</time></trkpt>
			<trkpt lat="54.850430" lon="19.960060"><ele>22.6</ele><time>2026-07-23T07:24:52Z</time></trkpt>
			<trkpt lat="54.852220" lon="19.956300"><ele>21.4</ele><time>2026-07-23T07:24:58Z</time></trkpt>
			<trkpt lat="54.853120" lon="19.954480"><ele>21.4</ele><time>2026-07-23T07:25:04Z</time></trkpt>
			<trkpt lat="54.854110" lon="19.952380"><ele>21.1</ele><time>2026-07-23T07:25:11Z</time></trkpt>
			<trkpt lat="54.854290" lon="19.952060"><ele>21.0</ele><time>2026-07-23T07:25:17Z</time></trkpt>
			<trkpt lat="54.854560" lon="19.951600"><ele>20.8</ele><time>2026-07-23T07:25:23Z</time></trkpt>
			<trkpt lat="54.854810" lon="19.951230"><ele>20.6</ele><time>2026-07-23T07:25:29Z</time></trkpt>
			<trkpt lat="54.854810" lon="19.951230"><ele>20.6</ele><time>2026-07-23T07:25:35Z</time></trkpt>
			<trkpt lat="54.855470" lon="19.950260"><ele>20.5</ele><time>2026-07-23T07:25:40Z</time></trkpt>
			<trkpt lat="54.855620" lon="19.949890"><ele>20.6</ele><time>2026-07-23T07:25:45Z</time></trkpt>
			<trkpt lat="54.855730" lon="19.949320"><ele>20.7</ele><time>2026-07-23T07:25:50Z</time></trkpt>
			<trkpt lat="54.855920" lon="19.947870"><ele>21.0</ele><time>2026-07-23T07:25:55Z</time></trkpt>
			<trkpt lat="54.855910" lon="19.947770"><ele>21.0</ele><time>2026-07-23T07:26:01Z</time></trkpt>
			<trkpt lat="54.856020" lon="19.947540"><ele>20.9</ele><time>2026-07-23T07:26:06Z</time></trkpt>
			<trkpt lat="54.856510" lon="19.946320"><ele>20.7</ele><time>2026-07-23T07:26:11Z</time></trkpt>
			<trkpt lat="54.856940" lon="19.945320"><ele>20.5</ele><time>2026-07-23T07:26:16Z</time></trkpt>
			<trkpt lat="54.857090" lon="19.944910"><ele>20.8</ele><time>2026-07-23T07:26:21Z</time></trkpt>
			<trkpt lat="54.857140" lon="19.944800"><ele>20.9</ele><time>2026-07-23T07:26:26Z</time></trkpt>
			<trkpt lat="54.857580" lon="19.943770"><ele>21.5</ele><time>2026-07-23T07:26:32Z</time></trkpt>
			<trkpt lat="54.857690" lon="19.943610"><ele>21.6</ele><time>2026-07-23T07:26:37Z</time></trkpt>
			<trkpt lat="54.857830" lon="19.943490"><ele>21.8</ele><time>2026-07-23T07:26:42Z</time></trkpt>
			<trkpt lat="54.858820" lon="19.942830"><ele>23.1</ele><time>2026-07-23T07:26:47Z</time></trkpt>
			<trkpt lat="54.861090" lon="19.941210"><ele>24.2</ele><time>2026-07-23T07:26:52Z</time></trkpt>
			<trkpt lat="54.862030" lon="19.940630"><ele>23.9</ele><time>2026-07-23T07:26:57Z</time></trkpt>
			<trkpt lat="54.863170" lon="19.939850"><ele>23.9</ele><time>2026-07-23T07:27:03Z</time></trkpt>
			<trkpt lat="54.863440" lon="19.939670"><ele>24.0</ele><time>2026-07-23T07:27:08Z</time></trkpt>
			<trkpt lat="54.865270" lon="19.938370"><ele>25.9</ele><time>2026-07-23T07:27:13Z</time></trkpt>
			<trkpt lat="54.865520" lon="19.938260"><ele>26.5</ele><time>2026-07-23T07:27:18Z</time></trkpt>
			<trkpt lat="54.865610" lon="19.938260"><ele>26.8</ele><time>2026-07-23T07:27:23Z</time></trkpt>
			<trkpt lat="54.866180" lon="19.938510"><ele>28.2</ele><time>2026-07-23T07:27:29Z</time></trkpt>
			<trkpt lat="54.866480" lon="19.938690"><ele>28.9</ele><time>2026-07-23T07:27:34Z</time></trkpt>
			<trkpt lat="54.866870" lon="19.938930"><ele>29.1</ele><time>2026-07-23T07:27:39Z</time></trkpt>
			<trkpt lat="54.867190" lon="19.939030"><ele>28.7</ele><time>2026-07-23T07:27:44Z</time></trkpt>
			<trkpt lat="54.867210" lon="19.939040"><ele>28.7</ele><time>2026-07-23T07:27:49Z</time></trkpt>
			<trkpt lat="54.867740" lon="19.938710"><ele>28.2</ele><time>2026-07-23T07:27:54Z</time></trkpt>
			<trkpt lat="54.867860" lon="19.938680"><ele>28.0</ele><time>2026-07-23T07:28:00Z</time></trkpt>
			<trkpt lat="54.868260" lon="19.938760"><ele>27.6</ele><time>2026-07-23T07:28:05Z</time></trkpt>
			<trkpt lat="54.868520" lon="19.938750"><ele>27.5</ele><time>2026-07-23T07:28:10Z</time></trkpt>
			<trkpt lat="54.868900" lon="19.938690"><ele>27.4</ele><time>2026-07-23T07:28:15Z</time></trkpt>
			<trkpt lat="54.869070" lon="19.938660"><ele>27.3</ele><time>2026-07-23T07:28:20Z</time></trkpt>
			<trkpt lat="54.869530" lon="19.939310"><ele>27.2</ele><time>2026-07-23T07:28:25Z</time></trkpt>
			<trkpt lat="54.870420" lon="19.940620"><ele>27.5</ele><time>2026-07-23T07:28:31Z</time></trkpt>
			<trkpt lat="54.871040" lon="19.941520"><ele>28.1</ele><time>2026-07-23T07:28:36Z</time></trkpt>
			<trkpt lat="54.871210" lon="19.941760"><ele>28.2</ele><time>2026-07-23T07:28:41Z</time></trkpt>
			<trkpt lat="54.871890" lon="19.942830"><ele>29.1</ele><time>2026-07-23T07:28:46Z</time></trkpt>
			<trkpt lat="54.874230" lon="19.946270"><ele>35.7</ele><time>2026-07-23T07:28:51Z</time></trkpt>
			<trkpt lat="54.874410" lon="19.946590"><ele>35.7</ele><time>2026-07-23T07:28:57Z</time></trkpt>
			<trkpt lat="54.874420" lon="19.946740"><ele>35.7</ele><time>2026-07-23T07:29:02Z</time></trkpt>
			<trkpt lat="54.874410" lon="19.946940"><ele>35.7</ele><time>2026-07-23T07:29:07Z</time></trkpt>
			<trkpt lat="54.874350" lon="19.947330"><ele>35.7</ele><time>2026-07-23T07:29:12Z</time></trkpt>
			<trkpt lat="54.874320" lon="19.947550"><ele>35.7</ele><time>2026-07-23T07:29:17Z</time></trkpt>
			<trkpt lat="54.874310" lon="19.947800"><ele>35.7</ele><time>2026-07-23T07:29:22Z</time></trkpt>
			<trkpt lat="54.874310" lon="19.948150"><ele>35.7</ele><time>2026-07-23T07:29:28Z</time></trkpt>
			<trkpt lat="54.874370" lon="19.948500"><ele>35.7</ele><time>2026-07-23T07:29:33Z</time></trkpt>
			<trkpt lat="54.875090" lon="19.950010"><ele>34.9</ele><time>2026-07-23T07:29:38Z</time></trkpt>
			<trkpt lat="54.875250" lon="19.950390"><ele>34.7</ele><time>2026-07-23T07:29:43Z</time></trkpt>
			<trkpt lat="54.875410" lon="19.950880"><ele>34.4</ele><time>2026-07-23T07:29:48Z</time></trkpt>
			<trkpt lat="54.875690" lon="19.952100"><ele>34.4</ele><time>2026-07-23T07:29:54Z</time></trkpt>
			<trkpt lat="54.875940" lon="19.953210"><ele>34.9</ele><time>2026-07-23T07:29:59Z</time></trkpt>
			<trkpt lat="54.876900" lon="19.957630"><ele>36.1</ele><time>2026-07-23T07:30:04Z</time></trkpt>
			<trkpt lat="54.878320" lon="19.964130"><ele>36.8</ele><time>2026-07-23T07:30:09Z</time></trkpt>
			<trkpt lat="54.879210" lon="19.968460"><ele>38.4</ele><time>2026-07-23T07:30:14Z</time></trkpt>
			<trkpt lat="54.879350" lon="19.969040"><ele>38.3</ele><time>2026-07-23T07:30:19Z</time></trkpt>
			<trkpt lat="54.879430" lon="19.969250"><ele>38.1</ele><time>2026-07-23T07:30:25Z</time></trkpt>
			<trkpt lat="54.879570" lon="19.969530"><ele>37.8</ele><time>2026-07-23T07:30:30Z</time></trkpt>
			<trkpt lat="54.879760" lon="19.969770"><ele>37.4</ele><time>2026-07-23T07:30:35Z</time></trkpt>
			<trkpt lat="54.880150" lon="19.970070"><ele>36.8</ele><time>2026-07-23T07:30:40Z</time></trkpt>
			<trkpt lat="54.881880" lon="19.971420"><ele>35.9</ele><time>2026-07-23T07:30:45Z</time></trkpt>
			<trkpt lat="54.883450" lon="19.972840"><ele>34.9</ele><time>2026-07-23T07:30:50Z</time></trkpt>
			<trkpt lat="54.883930" lon="19.973230"><ele>34.4</ele><time>2026-07-23T07:30:56Z</time></trkpt>
			<trkpt lat="54.884000" lon="19.973310"><ele>34.3</ele><time>2026-07-23T07:31:01Z</time></trkpt>
			<trkpt lat="54.884150" lon="19.973520"><ele>34.2</ele><time>2026-07-23T07:31:06Z</time></trkpt>
			<trkpt lat="54.884900" lon="19.975580"><ele>33.9</ele><time>2026-07-23T07:31:11Z</time></trkpt>
			<trkpt lat="54.887440" lon="19.983260"><ele>37.3</ele><time>2026-07-23T07:31:16Z</time></trkpt>
			<trkpt lat="54.887610" lon="19.984000"><ele>37.9</ele><time>2026-07-23T07:31:22Z</time></trkpt>
			<trkpt lat="54.888140" lon="19.988300"><ele>41.5</ele><time>2026-07-23T07:31:27Z</time></trkpt>
			<trkpt lat="54.888540" lon="19.991520"><ele>43.8</ele><time>2026-07-23T07:31:32Z</time></trkpt>
			<trkpt lat="54.888660" lon="19.992110"><ele>44.1</ele><time>2026-07-23T07:31:37Z</time></trkpt>
			<trkpt lat="54.888830" lon="19.992890"><ele>44.5</ele><time>2026-07-23T07:31:42Z</time></trkpt>
			<trkpt lat="54.889270" lon="19.993980"><ele>45.1</ele><time>2026-07-23T07:31:47Z</time></trkpt>
			<trkpt lat="54.889620" lon="19.994860"><ele>45.5</ele><time>2026-07-23T07:31:53Z</time></trkpt>
			<trkpt lat="54.890090" lon="19.995950"><ele>46.0</ele><time>2026-07-23T07:31:58Z</time></trkpt>
			<trkpt lat="54.891580" lon="19.999210"><ele>47.2</ele><time>2026-07-23T07:32:03Z</time></trkpt>
			<trkpt lat="54.892750" lon="20.001860"><ele>51.3</ele><time>2026-07-23T07:32:08Z</time></trkpt>
			<trkpt lat="54.892870" lon="20.001760"><ele>51.5</ele><time>2026-07-23T07:32:13Z</time></trkpt>
			<trkpt lat="54.893030" lon="20.001740"><ele>51.7</ele><time>2026-07-23T07:32:18Z</time></trkpt>
			<trkpt lat="54.893090" lon="20.001780"><ele>51.8</ele><time>2026-07-23T07:32:24Z</time></trkpt>
			<trkpt lat="54.893080" lon="20.001780"><ele>51.8</ele><time>2026-07-23T07:32:29Z</time></trkpt>
			<trkpt lat="54.893030" lon="20.001740"><ele>51.9</ele><time>2026-07-23T07:32:35Z</time></trkpt>
			<trkpt lat="54.892870" lon="20.001760"><ele>52.1</ele><time>2026-07-23T07:32:41Z</time></trkpt>
			<trkpt lat="54.892750" lon="20.001860"><ele>52.3</ele><time>2026-07-23T07:32:47Z</time></trkpt>
			<trkpt lat="54.893780" lon="20.004250"><ele>53.7</ele><time>2026-07-23T07:32:53Z</time></trkpt>
			<trkpt lat="54.894330" lon="20.005530"><ele>53.7</ele><time>2026-07-23T07:32:59Z</time></trkpt>
			<trkpt lat="54.894570" lon="20.006220"><ele>53.5</ele><time>2026-07-23T07:33:05Z</time></trkpt>
			<trkpt lat="54.894690" lon="20.006610"><ele>53.4</ele><time>2026-07-23T07:33:10Z</time></trkpt>
			<trkpt lat="54.894780" lon="20.007170"><ele>53.2</ele><time>2026-07-23T07:33:16Z</time></trkpt>
			<trkpt lat="54.895780" lon="20.015980"><ele>59.7</ele><time>2026-07-23T07:33:22Z</time></trkpt>
			<trkpt lat="54.895920" lon="20.017210"><ele>61.3</ele><time>2026-07-23T07:33:28Z</time></trkpt>
			<trkpt lat="54.895990" lon="20.017670"><ele>61.3</ele><time>2026-07-23T07:33:34Z</time></trkpt>
			<trkpt lat="54.896120" lon="20.018430"><ele>61.4</ele><time>2026-07-23T07:33:40Z</time></trkpt>
			<trkpt lat="54.896180" lon="20.018730"><ele>61.4</ele><time>2026-07-23T07:33:46Z</time></trkpt>
			<trkpt lat="54.897750" lon="20.016330"><ele>62.4</ele><time>2026-07-23T07:33:51Z</time></trkpt>
			<trkpt lat="54.898480" lon="20.015180"><ele>63.9</ele><time>2026-07-23T07:33:57Z</time></trkpt>
			<trkpt lat="54.900090" lon="20.012680"><ele>68.7</ele><time>2026-07-23T07:34:03Z</time></trkpt>
			<trkpt lat="54.901450" lon="20.010630"><ele>66.3</ele><time>2026-07-23T07:34:09Z</time></trkpt>
			<trkpt lat="54.901680" lon="20.010390"><ele>65.0</ele><time>2026-07-23T07:34:15Z</time></trkpt>
			<trkpt lat="54.901720" lon="20.010350"><ele>64.7</ele><time>2026-07-23T07:34:21Z</time></trkpt>
			<trkpt lat="54.901760" lon="20.010310"><ele>64.5</ele><time>2026-07-23T07:34:26Z</time></trkpt>
			<trkpt lat="54.904770" lon="20.008600"><ele>57.7</ele><time>2026-07-23T07:34:32Z</time></trkpt>
			<trkpt lat="54.907310" lon="20.007110"><ele>51.9</ele><time>2026-07-23T07:34:38Z</time></trkpt>
			<trkpt lat="54.908860" lon="20.006210"><ele>50.7</ele><time>2026-07-23T07:34:44Z</time></trkpt>
			<trkpt lat="54.909180" lon="20.006020"><ele>50.3</ele><time>2026-07-23T07:34:50Z</time></trkpt>
			<trkpt lat="54.909660" lon="20.005790"><ele>48.7</ele><time>2026-07-23T07:34:56Z</time></trkpt>
			<trkpt lat="54.909910" lon="20.005760"><ele>47.9</ele><time>2026-07-23T07:35:02Z</time></trkpt>
			<trkpt lat="54.910240" lon="20.005730"><ele>46.9</ele><time>2026-07-23T07:35:07Z</time></trkpt>
			<trkpt lat="54.911050" lon="20.005750"><ele>44.5</ele><time>2026-07-23T07:35:13Z</time></trkpt>
			<trkpt lat="54.911360" lon="20.005750"><ele>43.7</ele><time>2026-07-23T07:35:19Z</time></trkpt>
			<trkpt lat="54.911760" lon="20.005610"><ele>42.7</ele><time>2026-07-23T07:35:25Z</time></trkpt>
			<trkpt lat="54.912640" lon="20.005440"><ele>40.5</ele><time>2026-07-23T07:35:31Z</time></trkpt>
			<trkpt lat="54.913920" lon="20.005140"><ele>40.1</ele><time>2026-07-23T07:35:37Z</time></trkpt>
			<trkpt lat="54.913940" lon="20.005140"><ele>40.1</ele><time>2026-07-23T07:35:43Z</time></trkpt>
			<trkpt lat="54.914390" lon="20.005010"><ele>40.0</ele><time>2026-07-23T07:35:48Z</time></trkpt>
			<trkpt lat="54.918070" lon="20.004150"><ele>40.0</ele><time>2026-07-23T07:35:54Z</time></trkpt>
			<trkpt lat="54.918390" lon="20.004070"><ele>40.1</ele><time>2026-07-23T07:36:00Z</time></trkpt>
			<trkpt lat="54.919300" lon="20.003850"><ele>40.6</ele><time>2026-07-23T07:36:06Z</time></trkpt>
			<trkpt lat="54.920960" lon="20.003510"><ele>39.7</ele><time>2026-07-23T07:36:12Z</time></trkpt>
			<trkpt lat="54.921830" lon="20.003300"><ele>39.1</ele><time>2026-07-23T07:36:18Z</time></trkpt>
			<trkpt lat="54.922490" lon="20.003150"><ele>39.1</ele><time>2026-07-23T07:36:23Z</time></trkpt>
			<trkpt lat="54.924190" lon="20.002740"><ele>39.5</ele><time>2026-07-23T07:36:29Z</time></trkpt>
			<trkpt lat="54.925300" lon="20.002500"><ele>39.9</ele><time>2026-07-23T07:36:35Z</time></trkpt>
			<trkpt lat="54.926710" lon="20.002160"><ele>38.4</ele><time>2026-07-23T07:36:41Z</time></trkpt>
			<trkpt lat="54.927320" lon="20.002020"><ele>37.6</ele><time>2026-07-23T07:36:47Z</time></trkpt>
			<trkpt lat="54.927410" lon="20.002000"><ele>37.5</ele><time>2026-07-23T07:36:53Z</time></trkpt>
			<trkpt lat="54.927490" lon="20.001990"><ele>37.4</ele><time>2026-07-23T07:36:59Z</time></trkpt>
			<trkpt lat="54.927940" lon="20.002010"><ele>36.7</ele><time>2026-07-23T07:37:04Z</time></trkpt>
			<trkpt lat="54.928480" lon="20.002250"><ele>35.9</ele><time>2026-07-23T07:37:10Z</time></trkpt>
			<trkpt lat="54.928750" lon="20.002440"><ele>35.4</ele><time>2026-07-23T07:37:16Z</time></trkpt>
			<trkpt lat="54.928870" lon="20.002620"><ele>35.4</ele><time>2026-07-23T07:37:22Z</time></trkpt>
			<trkpt lat="54.929110" lon="20.003290"><ele>35.6</ele><time>2026-07-23T07:37:28Z</time></trkpt>
			<trkpt lat="54.929550" lon="20.004780"><ele>36.0</ele><time>2026-07-23T07:37:34Z</time></trkpt>
			<trkpt lat="54.929650" lon="20.005410"><ele>36.3</ele><time>2026-07-23T07:37:40Z</time></trkpt>
			<trkpt lat="54.929730" lon="20.006140"><ele>37.3</ele><time>2026-07-23T07:37:45Z</time></trkpt>
			<trkpt lat="54.929830" lon="20.008180"><ele>40.0</ele><time>2026-07-23T07:37:51Z</time></trkpt>
			<trkpt lat="54.929870" lon="20.008730"><ele>40.7</ele><time>2026-07-23T07:37:57Z</time></trkpt>
			<trkpt lat="54.929930" lon="20.008990"><ele>41.0</ele><time>2026-07-23T07:38:03Z</time></trkpt>
			<trkpt lat="54.929990" lon="20.009260"><ele>41.4</ele><time>2026-07-23T07:38:09Z</time></trkpt>
			<trkpt lat="54.931000" lon="20.011490"><ele>44.9</ele><time>2026-07-23T07:38:15Z</time></trkpt>
			<trkpt lat="54.936210" lon="20.022480"><ele>47.5</ele><time>2026-07-23T07:38:20Z</time></trkpt>
			<trkpt lat="54.936200" lon="20.022480"><ele>47.5</ele><time>2026-07-23T07:38:26Z</time></trkpt>
			<trkpt lat="54.937690" lon="20.025530"><ele>45.8</ele><time>2026-07-23T07:38:31Z</time></trkpt>
			<trkpt lat="54.937820" lon="20.025820"><ele>46.0</ele><time>2026-07-23T07:38:36Z</time></trkpt>
			<trkpt lat="54.938110" lon="20.026420"><ele>46.3</ele><time>2026-07-23T07:38:41Z</time></trkpt>
			<trkpt lat="54.938790" lon="20.027860"><ele>47.0</ele><time>2026-07-23T07:38:47Z</time></trkpt>
			<trkpt lat="54.938990" lon="20.028290"><ele>47.2</ele><time>2026-07-23T07:38:52Z</time></trkpt>
			<trkpt lat="54.939960" lon="20.030430"><ele>48.4</ele><time>2026-07-23T07:38:57Z</time></trkpt>
			<trkpt lat="54.940130" lon="20.030930"><ele>48.4</ele><time>2026-07-23T07:39:02Z</time></trkpt>
			<trkpt lat="54.940390" lon="20.032250"><ele>48.3</ele><time>2026-07-23T07:39:07Z</time></trkpt>
			<trkpt lat="54.940660" lon="20.033640"><ele>48.2</ele><time>2026-07-23T07:39:13Z</time></trkpt>
			<trkpt lat="54.941210" lon="20.036070"><ele>47.3</ele><time>2026-07-23T07:39:18Z</time></trkpt>
			<trkpt lat="54.941880" lon="20.039330"><ele>48.3</ele><time>2026-07-23T07:39:23Z</time></trkpt>
			<trkpt lat="54.941930" lon="20.040010"><ele>47.9</ele><time>2026-07-23T07:39:28Z</time></trkpt>
			<trkpt lat="54.941950" lon="20.040200"><ele>47.9</ele><time>2026-07-23T07:39:33Z</time></trkpt>
			<trkpt lat="54.942060" lon="20.042450"><ele>46.9</ele><time>2026-07-23T07:39:39Z</time></trkpt>
			<trkpt lat="54.942100" lon="20.043030"><ele>46.9</ele><time>2026-07-23T07:39:44Z</time></trkpt>
			<trkpt lat="54.942140" lon="20.043790"><ele>46.8</ele><time>2026-07-23T07:39:49Z</time></trkpt>
			<trkpt lat="54.942290" lon="20.046400"><ele>46.2</ele><time>2026-07-23T07:39:54Z</time></trkpt>
			<trkpt lat="54.942370" lon="20.047670"><ele>45.6</ele><time>2026-07-23T07:40:00Z</time></trkpt>
			<trkpt lat="54.942440" lon="20.048910"><ele>45.2</ele><time>2026-07-23T07:40:05Z</time></trkpt>
			<trkpt lat="54.942530" lon="20.050440"><ele>45.7</ele><time>2026-07-23T07:40:10Z</time></trkpt>
			<trkpt lat="54.942560" lon="20.050960"><ele>45.8</ele><time>2026-07-23T07:40:15Z</time></trkpt>
			<trkpt lat="54.942810" lon="20.055470"><ele>48.7</ele><time>2026-07-23T07:40:20Z</time></trkpt>
			<trkpt lat="54.942990" lon="20.058660"><ele>52.0</ele><time>2026-07-23T07:40:26Z</time></trkpt>
			<trkpt lat="54.943040" lon="20.059410"><ele>52.3</ele><time>2026-07-23T07:40:31Z</time></trkpt>
			<trkpt lat="54.943180" lon="20.062040"><ele>53.0</ele><time>2026-07-23T07:40:36Z</time></trkpt>
			<trkpt lat="54.943280" lon="20.063720"><ele>53.0</ele><time>2026-07-23T07:40:41Z</time></trkpt>
			<trkpt lat="54.943420" lon="20.066110"><ele>53.1</ele><time>2026-07-23T07:40:46Z</time></trkpt>
			<trkpt lat="54.943420" lon="20.066270"><ele>53.1</ele><time>2026-07-23T07:40:52Z</time></trkpt>
			<trkpt lat="54.943520" lon="20.068180"><ele>52.9</ele><time>2026-07-23T07:40:57Z</time></trkpt>
			<trkpt lat="54.943580" lon="20.069340"><ele>52.6</ele><time>2026-07-23T07:41:02Z</time></trkpt>
			<trkpt lat="54.943980" lon="20.075540"><ele>51.7</ele><time>2026-07-23T07:41:07Z</time></trkpt>
			<trkpt lat="54.944080" lon="20.076960"><ele>50.0</ele><time>2026-07-23T07:41:13Z</time></trkpt>
			<trkpt lat="54.944090" lon="20.077270"><ele>50.0</ele><time>2026-07-23T07:41:18Z</time></trkpt>
			<trkpt lat="54.944090" lon="20.077810"><ele>50.0</ele><time>2026-07-23T07:41:23Z</time></trkpt>
			<trkpt lat="54.944060" lon="20.078280"><ele>50.1</ele><time>2026-07-23T07:41:28Z</time></trkpt>
			<trkpt lat="54.944030" lon="20.078820"><ele>50.1</ele><time>2026-07-23T07:41:33Z</time></trkpt>
			<trkpt lat="54.943800" lon="20.079590"><ele>50.1</ele><time>2026-07-23T07:41:39Z</time></trkpt>
			<trkpt lat="54.943590" lon="20.079960"><ele>50.3</ele><time>2026-07-23T07:41:44Z</time></trkpt>
			<trkpt lat="54.943230" lon="20.080470"><ele>50.8</ele><time>2026-07-23T07:41:49Z</time></trkpt>
			<trkpt lat="54.942800" lon="20.080860"><ele>51.3</ele><time>2026-07-23T07:41:54Z</time></trkpt>
			<trkpt lat="54.942170" lon="20.081330"><ele>52.0</ele><time>2026-07-23T07:41:59Z</time></trkpt>
			<trkpt lat="54.941110" lon="20.082200"><ele>53.3</ele><time>2026-07-23T07:42:05Z</time></trkpt>
			<trkpt lat="54.940680" lon="20.082750"><ele>53.9</ele><time>2026-07-23T07:42:10Z</time></trkpt>
			<trkpt lat="54.940280" lon="20.083330"><ele>54.1</ele><time>2026-07-23T07:42:15Z</time></trkpt>
			<trkpt lat="54.940210" lon="20.083460"><ele>54.1</ele><time>2026-07-23T07:42:20Z</time></trkpt>
			<trkpt lat="54.940140" lon="20.083620"><ele>54.2</ele><time>2026-07-23T07:42:25Z</time></trkpt>
			<trkpt lat="54.940090" lon="20.083840"><ele>54.2</ele><time>2026-07-23T07:42:31Z</time></trkpt>
			<trkpt lat="54.939610" lon="20.088920"><ele>57.2</ele><time>2026-07-23T07:42:36Z</time></trkpt>
			<trkpt lat="54.939600" lon="20.089290"><ele>57.3</ele><time>2026-07-23T07:42:41Z</time></trkpt>
			<trkpt lat="54.939620" lon="20.089800"><ele>57.4</ele><time>2026-07-23T07:42:46Z</time></trkpt>
			<trkpt lat="54.939710" lon="20.090470"><ele>57.6</ele><time>2026-07-23T07:42:52Z</time></trkpt>
			<trkpt lat="54.939810" lon="20.091030"><ele>57.7</ele><time>2026-07-23T07:42:57Z</time></trkpt>
			<trkpt lat="54.939930" lon="20.091450"><ele>57.8</ele><time>2026-07-23T07:43:02Z</time></trkpt>
			<trkpt lat="54.940270" lon="20.092110"><ele>57.9</ele><time>2026-07-23T07:43:07Z</time></trkpt>
			<trkpt lat="54.940900" lon="20.093380"><ele>57.9</ele><time>2026-07-23T07:43:12Z</time></trkpt>
			<trkpt lat="54.940990" lon="20.093650"><ele>58.0</ele><time>2026-07-23T07:43:18Z</time></trkpt>
			<trkpt lat="54.941070" lon="20.093950"><ele>58.0</ele><time>2026-07-23T07:43:23Z</time></trkpt>
			<trkpt lat="54.941320" lon="20.095160"><ele>57.3</ele><time>2026-07-23T07:43:28Z</time></trkpt>
			<trkpt lat="54.941630" lon="20.096550"><ele>56.4</ele><time>2026-07-23T07:43:33Z</time></trkpt>
			<trkpt lat="54.941730" lon="20.097130"><ele>56.0</ele><time>2026-07-23T07:43:38Z</time></trkpt>
			<trkpt lat="54.941770" lon="20.097730"><ele>55.3</ele><time>2026-07-23T07:43:44Z</time></trkpt>
			<trkpt lat="54.941780" lon="20.097860"><ele>55.2</ele><time>2026-07-23T07:43:49Z</time></trkpt>
			<trkpt lat="54.941780" lon="20.098430"><ele>54.5</ele><time>2026-07-23T07:43:54Z</time></trkpt>
			<trkpt lat="54.941600" lon="20.101150"><ele>52.1</ele><time>2026-07-23T07:43:59Z</time></trkpt>
			<trkpt lat="54.941590" lon="20.101270"><ele>52.0</ele><time>2026-07-23T07:44:05Z</time></trkpt>
			<trkpt lat="54.941490" lon="20.102710"><ele>51.5</ele><time>2026-07-23T07:44:10Z</time></trkpt>
			<trkpt lat="54.941380" lon="20.104150"><ele>51.0</ele><time>2026-07-23T07:44:15Z</time></trkpt>
			<trkpt lat="54.941340" lon="20.104640"><ele>50.9</ele><time>2026-07-23T07:44:20Z</time></trkpt>
			<trkpt lat="54.941230" lon="20.105930"><ele>50.5</ele><time>2026-07-23T07:44:25Z</time></trkpt>
			<trkpt lat="54.941220" lon="20.106050"><ele>50.5</ele><time>2026-07-23T07:44:31Z</time></trkpt>
			<trkpt lat="54.941150" lon="20.106880"><ele>49.8</ele><time>2026-07-23T07:44:36Z</time></trkpt>
			<trkpt lat="54.941110" lon="20.107390"><ele>49.0</ele><time>2026-07-23T07:44:41Z</time></trkpt>
			<trkpt lat="54.941050" lon="20.108010"><ele>48.1</ele><time>2026-07-23T07:44:46Z</time></trkpt>
			<trkpt lat="54.940970" lon="20.108850"><ele>46.9</ele><time>2026-07-23T07:44:51Z</time></trkpt>
			<trkpt lat="54.940910" lon="20.109510"><ele>45.9</ele><time>2026-07-23T07:44:57Z</time></trkpt>
			<trkpt lat="54.940880" lon="20.109840"><ele>45.9</ele><time>2026-07-23T07:45:02Z</time></trkpt>
			<trkpt lat="54.940860" lon="20.110080"><ele>46.0</ele><time>2026-07-23T07:45:07Z</time></trkpt>
			<trkpt lat="54.940790" lon="20.110710"><ele>46.3</ele><time>2026-07-23T07:45:12Z</time></trkpt>
			<trkpt lat="54.940690" lon="20.111660"><ele>46.8</ele><time>2026-07-23T07:45:17Z</time></trkpt>
			<trkpt lat="54.940660" lon="20.112120"><ele>47.0</ele><time>2026-07-23T07:45:23Z</time></trkpt>
			<trkpt lat="54.940620" lon="20.112430"><ele>47.2</ele><time>2026-07-23T07:45:28Z</time></trkpt>
			<trkpt lat="54.940570" lon="20.112670"><ele>47.3</ele><time>2026-07-23T07:45:33Z</time></trkpt>
			<trkpt lat="54.940300" lon="20.113500"><ele>45.4</ele><time>2026-07-23T07:45:38Z</time></trkpt>
			<trkpt lat="54.940100" lon="20.114190"><ele>43.9</ele><time>2026-07-23T07:45:44Z</time></trkpt>
			<trkpt lat="54.940010" lon="20.114510"><ele>43.1</ele><time>2026-07-23T07:45:49Z</time></trkpt>
			<trkpt lat="54.939970" lon="20.115480"><ele>41.2</ele><time>2026-07-23T07:45:54Z</time></trkpt>
			<trkpt lat="54.939950" lon="20.116190"><ele>42.5</ele><time>2026-07-23T07:45:59Z</time></trkpt>
			<trkpt lat="54.939920" lon="20.116400"><ele>43.1</ele><time>2026-07-23T07:46:04Z</time></trkpt>
			<trkpt lat="54.939850" lon="20.116600"><ele>43.7</ele><time>2026-07-23T07:46:10Z</time></trkpt>
			<trkpt lat="54.939760" lon="20.116800"><ele>44.3</ele><time>2026-07-23T07:46:15Z</time></trkpt>
			<trkpt lat="54.939700" lon="20.116930"><ele>44.8</ele><time>2026-07-23T07:46:20Z</time></trkpt>
			<trkpt lat="54.939450" lon="20.117830"><ele>47.3</ele><time>2026-07-23T07:46:25Z</time></trkpt>
			<trkpt lat="54.939300" lon="20.118770"><ele>49.7</ele><time>2026-07-23T07:46:30Z</time></trkpt>
			<trkpt lat="54.939060" lon="20.120810"><ele>53.8</ele><time>2026-07-23T07:46:36Z</time></trkpt>
			<trkpt lat="54.939020" lon="20.121850"><ele>55.3</ele><time>2026-07-23T07:46:41Z</time></trkpt>
			<trkpt lat="54.939090" lon="20.123090"><ele>55.4</ele><time>2026-07-23T07:46:46Z</time></trkpt>
			<trkpt lat="54.939210" lon="20.123800"><ele>55.5</ele><time>2026-07-23T07:46:51Z</time></trkpt>
			<trkpt lat="54.939710" lon="20.125380"><ele>51.8</ele><time>2026-07-23T07:46:57Z</time></trkpt>
			<trkpt lat="54.939820" lon="20.126160"><ele>48.6</ele><time>2026-07-23T07:47:02Z</time></trkpt>
			<trkpt lat="54.939930" lon="20.126950"><ele>45.3</ele><time>2026-07-23T07:47:07Z</time></trkpt>
			<trkpt lat="54.939980" lon="20.127280"><ele>44.0</ele><time>2026-07-23T07:47:12Z</time></trkpt>
			<trkpt lat="54.940150" lon="20.128080"><ele>42.8</ele><time>2026-07-23T07:47:17Z</time></trkpt>
			<trkpt lat="54.940410" lon="20.129140"><ele>42.5</ele><time>2026-07-23T07:47:23Z</time></trkpt>
			<trkpt lat="54.940740" lon="20.130420"><ele>42.2</ele><time>2026-07-23T07:47:28Z</time></trkpt>
			<trkpt lat="54.941140" lon="20.131790"><ele>40.7</ele><time>2026-07-23T07:47:33Z</time></trkpt>
			<trkpt lat="54.941220" lon="20.132060"><ele>40.4</ele><time>2026-07-23T07:47:38Z</time></trkpt>
			<trkpt lat="54.941750" lon="20.133920"><ele>38.7</ele><time>2026-07-23T07:47:43Z</time></trkpt>
			<trkpt lat="54.941860" lon="20.134400"><ele>38.4</ele><time>2026-07-23T07:47:49Z</time></trkpt>
			<trkpt lat="54.941870" lon="20.134590"><ele>38.2</ele><time>2026-07-23T07:47:54Z</time></trkpt>
			<trkpt lat="54.941860" lon="20.134900"><ele>38.1</ele><time>2026-07-23T07:47:59Z</time></trkpt>
			<trkpt lat="54.941810" lon="20.135240"><ele>37.9</ele><time>2026-07-23T07:48:04Z</time></trkpt>
			<trkpt lat="54.941780" lon="20.135410"><ele>37.8</ele><time>2026-07-23T07:48:09Z</time></trkpt>
			<trkpt lat="54.941770" lon="20.135440"><ele>37.7</ele><time>2026-07-23T07:48:15Z</time></trkpt>
			<trkpt lat="54.941815" lon="20.135772"><ele>37.5</ele><time>2026-07-23T07:48:42Z</time></trkpt>
			<trkpt lat="54.943306" lon="20.142307"><ele>41.3</ele><time>2026-07-23T07:58:03Z</time></trkpt>
			<trkpt lat="54.943429" lon="20.143208"><ele>41.9</ele><time>2026-07-23T07:59:17Z</time></trkpt>
			<trkpt lat="54.943712" lon="20.145515"><ele>43.2</ele><time>2026-07-23T08:02:25Z</time></trkpt>
			<trkpt lat="54.944203" lon="20.149150"><ele>43.9</ele><time>2026-07-23T08:07:23Z</time></trkpt>
			<trkpt lat="54.944147" lon="20.151457"><ele>42.1</ele><time>2026-07-23T08:10:27Z</time></trkpt>
			<trkpt lat="54.943870" lon="20.151425"><ele>41.1</ele><time>2026-07-23T08:11:06Z</time></trkpt>
			<trkpt lat="54.943860" lon="20.151420"><ele>41.0</ele><time>2026-07-23T08:11:12Z</time></trkpt>
			<trkpt lat="54.943790" lon="20.151410"><ele>40.8</ele><time>2026-07-23T08:11:19Z</time></trkpt>
			<trkpt lat="54.943650" lon="20.151340"><ele>40.2</ele><time>2026-07-23T08:11:26Z</time></trkpt>
			<trkpt lat="54.943100" lon="20.150980"><ele>38.1</ele><time>2026-07-23T08:11:33Z</time></trkpt>
			<trkpt lat="54.942710" lon="20.150710"><ele>36.6</ele><time>2026-07-23T08:11:39Z</time></trkpt>
			<trkpt lat="54.941960" lon="20.150140"><ele>31.1</ele><time>2026-07-23T08:11:46Z</time></trkpt>
			<trkpt lat="54.941660" lon="20.149960"><ele>28.6</ele><time>2026-07-23T08:11:53Z</time></trkpt>
			<trkpt lat="54.941020" lon="20.149580"><ele>23.5</ele><time>2026-07-23T08:11:59Z</time></trkpt>
			<trkpt lat="54.940980" lon="20.149560"><ele>23.2</ele><time>2026-07-23T08:12:06Z</time></trkpt>
			<trkpt lat="54.940800" lon="20.149460"><ele>22.1</ele><time>2026-07-23T08:12:13Z</time></trkpt>
			<trkpt lat="54.940580" lon="20.149320"><ele>22.0</ele><time>2026-07-23T08:12:19Z</time></trkpt>
			<trkpt lat="54.940260" lon="20.149270"><ele>21.9</ele><time>2026-07-23T08:12:26Z</time></trkpt>
			<trkpt lat="54.939820" lon="20.149240"><ele>21.7</ele><time>2026-07-23T08:12:33Z</time></trkpt>
			<trkpt lat="54.939600" lon="20.149270"><ele>21.6</ele><time>2026-07-23T08:12:40Z</time></trkpt>
			<trkpt lat="54.939530" lon="20.149280"><ele>21.6</ele><time>2026-07-23T08:12:46Z</time></trkpt>
			<trkpt lat="54.939530" lon="20.149130"><ele>21.6</ele><time>2026-07-23T08:12:53Z</time></trkpt>
			<trkpt lat="54.939500" lon="20.148140"><ele>21.3</ele><time>2026-07-23T08:13:00Z</time></trkpt>
			<trkpt lat="54.939500" lon="20.148090"><ele>21.3</ele><time>2026-07-23T08:13:06Z</time></trkpt>
			<trkpt lat="54.939500" lon="20.148080"><ele>21.3</ele><time>2026-07-23T08:13:08Z</time></trkpt>
			<trkpt lat="54.939510" lon="20.147540"><ele>21.0</ele><time>2026-07-23T08:13:09Z</time></trkpt>
			<trkpt lat="54.939420" lon="20.147510"><ele>21.0</ele><time>2026-07-23T08:13:10Z</time></trkpt>
			<trkpt lat="54.939390" lon="20.147470"><ele>20.9</ele><time>2026-07-23T08:13:12Z</time></trkpt>
			<trkpt lat="54.939280" lon="20.147250"><ele>20.8</ele><time>2026-07-23T08:13:13Z</time></trkpt>
			<trkpt lat="54.939240" lon="20.147090"><ele>20.7</ele><time>2026-07-23T08:13:14Z</time></trkpt>
			<trkpt lat="54.939220" lon="20.146830"><ele>20.6</ele><time>2026-07-23T08:13:16Z</time></trkpt>
			<trkpt lat="54.939170" lon="20.146320"><ele>20.4</ele><time>2026-07-23T08:13:17Z</time></trkpt>
			<trkpt lat="54.939070" lon="20.146020"><ele>20.2</ele><time>2026-07-23T08:13:18Z</time></trkpt>
			<trkpt lat="54.939010" lon="20.145900"><ele>20.1</ele><time>2026-07-23T08:13:20Z</time></trkpt>
			<trkpt lat="54.939010" lon="20.145890"><ele>20.1</ele><time>2026-07-23T08:13:23Z</time></trkpt>
			<trkpt lat="54.938980" lon="20.145840"><ele>20.1</ele><time>2026-07-23T08:13:26Z</time></trkpt>
			<trkpt lat="54.938530" lon="20.145030"><ele>20.1</ele><time>2026-07-23T08:13:29Z</time></trkpt>
			<trkpt lat="54.938280" lon="20.144370"><ele>20.2</ele><time>2026-07-23T08:13:32Z</time></trkpt>
			<trkpt lat="54.938170" lon="20.144150"><ele>20.2</ele><time>2026-07-23T08:13:35Z</time></trkpt>
			<trkpt lat="54.938060" lon="20.143970"><ele>20.3</ele><time>2026-07-23T08:13:38Z</time></trkpt>
			<trkpt lat="54.937920" lon="20.143810"><ele>20.3</ele><time>2026-07-23T08:13:42Z</time></trkpt>
			<trkpt lat="54.937820" lon="20.143740"><ele>20.3</ele><time>2026-07-23T08:13:45Z</time></trkpt>
			<trkpt lat="54.937100" lon="20.143200"><ele>21.0</ele><time>2026-07-23T08:13:48Z</time></trkpt>
			<trkpt lat="54.936920" lon="20.143030"><ele>21.2</ele><time>2026-07-23T08:13:51Z</time></trkpt>
			<trkpt lat="54.936640" lon="20.142710"><ele>21.6</ele><time>2026-07-23T08:13:54Z</time></trkpt>
			<trkpt lat="54.936330" lon="20.142430"><ele>22.0</ele><time>2026-07-23T08:13:57Z</time></trkpt>
			<trkpt lat="54.936040" lon="20.142140"><ele>22.4</ele><time>2026-07-23T08:14:00Z</time></trkpt>
			<trkpt lat="54.935550" lon="20.141690"><ele>22.7</ele><time>2026-07-23T08:14:03Z</time></trkpt>
			<trkpt lat="54.935500" lon="20.141550"><ele>22.7</ele><time>2026-07-23T08:14:06Z</time></trkpt>
			<trkpt lat="54.935430" lon="20.141260"><ele>22.8</ele><time>2026-07-23T08:14:10Z</time></trkpt>
			<trkpt lat="54.935240" lon="20.140870"><ele>23.0</ele><time>2026-07-23T08:14:13Z</time></trkpt>
			<trkpt lat="54.934130" lon="20.140070"><ele>24.2</ele><time>2026-07-23T08:14:16Z</time></trkpt>
			<trkpt lat="54.933530" lon="20.139510"><ele>25.4</ele><time>2026-07-23T08:14:19Z</time></trkpt>
			<trkpt lat="54.932670" lon="20.138520"><ele>26.4</ele><time>2026-07-23T08:14:22Z</time></trkpt>
			<trkpt lat="54.932220" lon="20.138120"><ele>26.4</ele><time>2026-07-23T08:14:25Z</time></trkpt>
			<trkpt lat="54.931670" lon="20.137560"><ele>26.4</ele><time>2026-07-23T08:14:28Z</time></trkpt>
			<trkpt lat="54.930860" lon="20.137150"><ele>24.8</ele><time>2026-07-23T08:14:31Z</time></trkpt>
			<trkpt lat="54.930440" lon="20.137200"><ele>23.6</ele><time>2026-07-23T08:14:34Z</time></trkpt>
			<trkpt lat="54.930270" lon="20.137280"><ele>23.1</ele><time>2026-07-23T08:14:38Z</time></trkpt>
			<trkpt lat="54.930120" lon="20.137260"><ele>22.7</ele><time>2026-07-23T08:14:41Z</time></trkpt>
			<trkpt lat="54.930180" lon="20.137580"><ele>22.2</ele><time>2026-07-23T08:14:44Z</time></trkpt>
			<trkpt lat="54.930190" lon="20.138850"><ele>25.3</ele><time>2026-07-23T08:14:47Z</time></trkpt>
			<trkpt lat="54.930190" lon="20.138840"><ele>25.4</ele><time>2026-07-23T08:14:50Z</time></trkpt>
			<trkpt lat="54.930190" lon="20.139250"><ele>27.4</ele><time>2026-07-23T08:14:54Z</time></trkpt>
			<trkpt lat="54.930220" lon="20.142110"><ele>41.0</ele><time>2026-07-23T08:14:58Z</time></trkpt>
			<trkpt lat="54.930510" lon="20.142870"><ele>45.1</ele><time>2026-07-23T08:15:01Z</time></trkpt>
			<trkpt lat="54.930590" lon="20.143240"><ele>46.8</ele><time>2026-07-23T08:15:05Z</time></trkpt>
			<trkpt lat="54.930650" lon="20.143720"><ele>49.1</ele><time>2026-07-23T08:15:08Z</time></trkpt>
			<trkpt lat="54.930680" lon="20.144230"><ele>51.1</ele><time>2026-07-23T08:15:12Z</time></trkpt>
			<trkpt lat="54.930260" lon="20.149470"><ele>61.7</ele><time>2026-07-23T08:15:16Z</time></trkpt>
			<trkpt lat="54.930250" lon="20.149940"><ele>62.4</ele><time>2026-07-23T08:15:19Z</time></trkpt>
			<trkpt lat="54.930310" lon="20.152290"><ele>63.8</ele><time>2026-07-23T08:15:23Z</time></trkpt>
			<trkpt lat="54.930340" lon="20.152950"><ele>64.0</ele><time>2026-07-23T08:15:26Z</time></trkpt>
			<trkpt lat="54.930340" lon="20.153730"><ele>63.6</ele><time>2026-07-23T08:15:30Z</time></trkpt>
			<trkpt lat="54.930310" lon="20.154530"><ele>61.4</ele><time>2026-07-23T08:15:34Z</time></trkpt>
			<trkpt lat="54.930260" lon="20.155200"><ele>59.6</ele><time>2026-07-23T08:15:37Z</time></trkpt>
			<trkpt lat="54.930010" lon="20.158150"><ele>53.8</ele><time>2026-07-23T08:15:41Z</time></trkpt>
			<trkpt lat="54.929790" lon="20.159640"><ele>52.1</ele><time>2026-07-23T08:15:44Z</time></trkpt>
			<trkpt lat="54.929720" lon="20.160150"><ele>52.9</ele><time>2026-07-23T08:15:48Z</time></trkpt>
			<trkpt lat="54.929700" lon="20.160220"><ele>53.0</ele><time>2026-07-23T08:15:51Z</time></trkpt>
			<trkpt lat="54.929620" lon="20.160470"><ele>53.6</ele><time>2026-07-23T08:15:55Z</time></trkpt>
			<trkpt lat="54.929400" lon="20.161280"><ele>55.3</ele><time>2026-07-23T08:15:59Z</time></trkpt>
			<trkpt lat="54.929190" lon="20.162090"><ele>57.1</ele><time>2026-07-23T08:16:02Z</time></trkpt>
			<trkpt lat="54.929110" lon="20.162690"><ele>58.1</ele><time>2026-07-23T08:16:06Z</time></trkpt>
			<trkpt lat="54.929080" lon="20.163790"><ele>57.2</ele><time>2026-07-23T08:16:09Z</time></trkpt>
			<trkpt lat="54.929010" lon="20.166550"><ele>53.1</ele><time>2026-07-23T08:16:13Z</time></trkpt>
			<trkpt lat="54.929130" lon="20.167170"><ele>51.0</ele><time>2026-07-23T08:16:17Z</time></trkpt>
			<trkpt lat="54.929270" lon="20.167630"><ele>49.4</ele><time>2026-07-23T08:16:20Z</time></trkpt>
			<trkpt lat="54.929210" lon="20.167750"><ele>48.9</ele><time>2026-07-23T08:16:24Z</time></trkpt>
			<trkpt lat="54.929170" lon="20.167920"><ele>48.3</ele><time>2026-07-23T08:16:27Z</time></trkpt>
			<trkpt lat="54.929180" lon="20.168060"><ele>47.8</ele><time>2026-07-23T08:16:31Z</time></trkpt>
			<trkpt lat="54.929210" lon="20.168220"><ele>47.3</ele><time>2026-07-23T08:16:35Z</time></trkpt>
			<trkpt lat="54.929200" lon="20.168550"><ele>46.2</ele><time>2026-07-23T08:16:38Z</time></trkpt>
			<trkpt lat="54.928820" lon="20.169500"><ele>44.9</ele><time>2026-07-23T08:16:42Z</time></trkpt>
			<trkpt lat="54.928530" lon="20.170280"><ele>44.2</ele><time>2026-07-23T08:16:45Z</time></trkpt>
			<trkpt lat="54.928170" lon="20.171160"><ele>43.4</ele><time>2026-07-23T08:16:49Z</time></trkpt>
			<trkpt lat="54.928000" lon="20.171510"><ele>43.5</ele><time>2026-07-23T08:16:52Z</time></trkpt>
			<trkpt lat="54.927850" lon="20.171770"><ele>43.8</ele><time>2026-07-23T08:16:56Z</time></trkpt>
			<trkpt lat="54.927610" lon="20.172140"><ele>44.3</ele><time>2026-07-23T08:17:00Z</time></trkpt>
			<trkpt lat="54.927090" lon="20.172790"><ele>45.2</ele><time>2026-07-23T08:17:03Z</time></trkpt>
			<trkpt lat="54.926650" lon="20.173310"><ele>46.1</ele><time>2026-07-23T08:17:07Z</time></trkpt>
			<trkpt lat="54.926260" lon="20.173730"><ele>47.3</ele><time>2026-07-23T08:17:10Z</time></trkpt>
			<trkpt lat="54.926260" lon="20.173730"><ele>47.3</ele><time>2026-07-23T08:17:14Z</time></trkpt>
			<trkpt lat="54.925670" lon="20.174380"><ele>49.2</ele><time>2026-07-23T08:17:17Z</time></trkpt>
			<trkpt lat="54.923980" lon="20.176530"><ele>51.3</ele><time>2026-07-23T08:17:21Z</time></trkpt>
			<trkpt lat="54.922910" lon="20.177940"><ele>50.7</ele><time>2026-07-23T08:17:24Z</time></trkpt>
			<trkpt lat="54.922030" lon="20.179100"><ele>50.5</ele><time>2026-07-23T08:17:28Z</time></trkpt>
			<trkpt lat="54.920800" lon="20.177870"><ele>51.4</ele><time>2026-07-23T08:17:31Z</time></trkpt>
			<trkpt lat="54.920250" lon="20.177300"><ele>51.6</ele><time>2026-07-23T08:17:35Z</time></trkpt>
			<trkpt lat="54.919730" lon="20.176580"><ele>51.8</ele><time>2026-07-23T08:17:38Z</time></trkpt>
			<trkpt lat="54.919060" lon="20.175760"><ele>53.1</ele><time>2026-07-23T08:17:42Z</time></trkpt>
			<trkpt lat="54.918810" lon="20.175490"><ele>54.4</ele><time>2026-07-23T08:17:45Z</time></trkpt>
			<trkpt lat="54.918000" lon="20.174680"><ele>58.4</ele><time>2026-07-23T08:17:49Z</time></trkpt>
			<trkpt lat="54.917710" lon="20.174500"><ele>59.7</ele><time>2026-07-23T08:17:52Z</time></trkpt>
			<trkpt lat="54.917640" lon="20.174390"><ele>59.8</ele><time>2026-07-23T08:17:55Z</time></trkpt>
			<trkpt lat="54.917480" lon="20.173860"><ele>60.1</ele><time>2026-07-23T08:17:59Z</time></trkpt>
			<trkpt lat="54.917350" lon="20.173670"><ele>60.3</ele><time>2026-07-23T08:18:02Z</time></trkpt>
			<trkpt lat="54.917170" lon="20.173570"><ele>60.4</ele><time>2026-07-23T08:18:06Z</time></trkpt>
			<trkpt lat="54.916940" lon="20.173560"><ele>60.7</ele><time>2026-07-23T08:18:09Z</time></trkpt>
			<trkpt lat="54.916860" lon="20.173490"><ele>60.7</ele><time>2026-07-23T08:18:13Z</time></trkpt>
			<trkpt lat="54.916670" lon="20.173130"><ele>61.0</ele><time>2026-07-23T08:18:16Z</time></trkpt>
			<trkpt lat="54.916580" lon="20.172860"><ele>61.2</ele><time>2026-07-23T08:18:20Z</time></trkpt>
			<trkpt lat="54.916350" lon="20.171670"><ele>61.9</ele><time>2026-07-23T08:18:23Z</time></trkpt>
			<trkpt lat="54.916300" lon="20.171390"><ele>62.1</ele><time>2026-07-23T08:18:27Z</time></trkpt>
			<trkpt lat="54.916090" lon="20.170230"><ele>62.9</ele><time>2026-07-23T08:18:30Z</time></trkpt>
			<trkpt lat="54.916020" lon="20.169900"><ele>63.1</ele><time>2026-07-23T08:18:34Z</time></trkpt>
			<trkpt lat="54.915700" lon="20.169060"><ele>62.8</ele><time>2026-07-23T08:18:37Z</time></trkpt>
			<trkpt lat="54.915580" lon="20.168510"><ele>62.2</ele><time>2026-07-23T08:18:41Z</time></trkpt>
			<trkpt lat="54.915540" lon="20.168120"><ele>61.9</ele><time>2026-07-23T08:18:44Z</time></trkpt>
			<trkpt lat="54.915520" lon="20.167910"><ele>61.7</ele><time>2026-07-23T08:18:47Z</time></trkpt>
			<trkpt lat="54.915490" lon="20.167640"><ele>61.4</ele><time>2026-07-23T08:18:51Z</time></trkpt>
			<trkpt lat="54.915490" lon="20.167630"><ele>61.4</ele><time>2026-07-23T08:18:59Z</time></trkpt>
			<trkpt lat="54.915450" lon="20.167120"><ele>60.9</ele><time>2026-07-23T08:19:07Z</time></trkpt>
			<trkpt lat="54.914920" lon="20.161310"><ele>51.8</ele><time>2026-07-23T08:19:15Z</time></trkpt>
			<trkpt lat="54.914920" lon="20.161280"><ele>51.8</ele><time>2026-07-23T08:19:23Z</time></trkpt>
			<trkpt lat="54.914630" lon="20.158140"><ele>50.0</ele><time>2026-07-23T08:19:30Z</time></trkpt>
			<trkpt lat="54.914450" lon="20.157330"><ele>50.0</ele><time>2026-07-23T08:19:38Z</time></trkpt>
			<trkpt lat="54.913910" lon="20.155870"><ele>50.9</ele><time>2026-07-23T08:19:46Z</time></trkpt>
			<trkpt lat="54.911830" lon="20.150320"><ele>63.1</ele><time>2026-07-23T08:19:54Z</time></trkpt>
			<trkpt lat="54.910700" lon="20.147240"><ele>66.4</ele><time>2026-07-23T08:20:02Z</time></trkpt>
			<trkpt lat="54.910550" lon="20.146860"><ele>66.0</ele><time>2026-07-23T08:20:10Z</time></trkpt>
			<trkpt lat="54.909000" lon="20.142560"><ele>61.8</ele><time>2026-07-23T08:20:18Z</time></trkpt>
			<trkpt lat="54.908210" lon="20.140390"><ele>61.0</ele><time>2026-07-23T08:20:26Z</time></trkpt>
			<trkpt lat="54.907540" lon="20.139220"><ele>60.1</ele><time>2026-07-23T08:20:34Z</time></trkpt>
			<trkpt lat="54.906470" lon="20.137320"><ele>60.8</ele><time>2026-07-23T08:20:42Z</time></trkpt>
			<trkpt lat="54.905230" lon="20.135150"><ele>62.0</ele><time>2026-07-23T08:20:50Z</time></trkpt>
			<trkpt lat="54.903960" lon="20.132940"><ele>60.7</ele><time>2026-07-23T08:20:58Z</time></trkpt>
			<trkpt lat="54.903700" lon="20.132430"><ele>60.3</ele><time>2026-07-23T08:21:05Z</time></trkpt>
			<trkpt lat="54.902830" lon="20.130430"><ele>59.9</ele><time>2026-07-23T08:21:13Z</time></trkpt>
			<trkpt lat="54.902710" lon="20.130110"><ele>59.8</ele><time>2026-07-23T08:21:21Z</time></trkpt>
			<trkpt lat="54.901680" lon="20.127670"><ele>59.2</ele><time>2026-07-23T08:21:29Z</time></trkpt>
			<trkpt lat="54.901550" lon="20.127360"><ele>59.1</ele><time>2026-07-23T08:21:37Z</time></trkpt>
			<trkpt lat="54.901280" lon="20.126730"><ele>59.0</ele><time>2026-07-23T08:21:45Z</time></trkpt>
			<trkpt lat="54.901220" lon="20.126420"><ele>59.0</ele><time>2026-07-23T08:21:53Z</time></trkpt>
			<trkpt lat="54.901120" lon="20.125690"><ele>58.9</ele><time>2026-07-23T08:22:01Z</time></trkpt>
			<trkpt lat="54.901080" lon="20.125440"><ele>58.9</ele><time>2026-07-23T08:22:09Z</time></trkpt>
			<trkpt lat="54.900970" lon="20.124510"><ele>58.8</ele><time>2026-07-23T08:22:17Z</time></trkpt>
			<trkpt lat="54.900950" lon="20.124370"><ele>58.8</ele><time>2026-07-23T08:22:25Z</time></trkpt>
			<trkpt lat="54.900910" lon="20.124200"><ele>58.8</ele><time>2026-07-23T08:22:33Z</time></trkpt>
			<trkpt lat="54.900540" lon="20.123190"><ele>59.6</ele><time>2026-07-23T08:22:40Z</time></trkpt>
			<trkpt lat="54.900420" lon="20.122590"><ele>60.0</ele><time>2026-07-23T08:22:48Z</time></trkpt>
			<trkpt lat="54.900270" lon="20.121840"><ele>60.5</ele><time>2026-07-23T08:22:56Z</time></trkpt>
			<trkpt lat="54.900160" lon="20.121400"><ele>60.8</ele><time>2026-07-23T08:23:04Z</time></trkpt>
			<trkpt lat="54.899590" lon="20.119810"><ele>59.7</ele><time>2026-07-23T08:23:12Z</time></trkpt>
			<trkpt lat="54.898510" lon="20.117040"><ele>55.5</ele><time>2026-07-23T08:23:20Z</time></trkpt>
			<trkpt lat="54.897210" lon="20.113680"><ele>57.8</ele><time>2026-07-23T08:23:28Z</time></trkpt>
			<trkpt lat="54.894840" lon="20.107580"><ele>60.7</ele><time>2026-07-23T08:23:36Z</time></trkpt>
			<trkpt lat="54.894800" lon="20.107490"><ele>60.5</ele><time>2026-07-23T08:23:44Z</time></trkpt>
			<trkpt lat="54.893840" lon="20.104980"><ele>56.7</ele><time>2026-07-23T08:23:52Z</time></trkpt>
			<trkpt lat="54.893770" lon="20.104710"><ele>56.4</ele><time>2026-07-23T08:24:00Z</time></trkpt>
			<trkpt lat="54.891860" lon="20.104990"><ele>53.3</ele><time>2026-07-23T08:24:08Z</time></trkpt>
			<trkpt lat="54.889970" lon="20.105240"><ele>52.6</ele><time>2026-07-23T08:24:15Z</time></trkpt>
			<trkpt lat="54.889450" lon="20.105360"><ele>52.8</ele><time>2026-07-23T08:24:23Z</time></trkpt>
			<trkpt lat="54.887140" lon="20.105740"><ele>52.7</ele><time>2026-07-23T08:24:31Z</time></trkpt>
			<trkpt lat="54.886670" lon="20.105780"><ele>52.7</ele><time>2026-07-23T08:24:39Z</time></trkpt>
			<trkpt lat="54.883850" lon="20.105390"><ele>52.7</ele><time>2026-07-23T08:24:47Z</time></trkpt>
			<trkpt lat="54.882180" lon="20.105230"><ele>50.0</ele><time>2026-07-23T08:24:55Z</time></trkpt>
			<trkpt lat="54.881530" lon="20.104850"><ele>48.5</ele><time>2026-07-23T08:25:03Z</time></trkpt>
			<trkpt lat="54.878500" lon="20.102750"><ele>43.3</ele><time>2026-07-23T08:25:11Z</time></trkpt>
			<trkpt lat="54.878490" lon="20.102750"><ele>43.3</ele><time>2026-07-23T08:25:27Z</time></trkpt>
			<trkpt lat="54.877930" lon="20.102360"><ele>43.3</ele><time>2026-07-23T08:25:44Z</time></trkpt>
			<trkpt lat="54.876020" lon="20.101030"><ele>43.2</ele><time>2026-07-23T08:26:00Z</time></trkpt>
			<trkpt lat="54.875690" lon="20.100760"><ele>43.2</ele><time>2026-07-23T08:26:17Z</time></trkpt>
			<trkpt lat="54.874100" lon="20.099280"><ele>41.3</ele><time>2026-07-23T08:26:33Z</time></trkpt>
			<trkpt lat="54.873630" lon="20.098880"><ele>40.5</ele><time>2026-07-23T08:26:50Z</time></trkpt>
			<trkpt lat="54.873060" lon="20.098390"><ele>41.2</ele><time>2026-07-23T08:27:06Z</time></trkpt>
			<trkpt lat="54.872890" lon="20.098230"><ele>41.5</ele><time>2026-07-23T08:27:23Z</time></trkpt>
			<trkpt lat="54.872390" lon="20.097820"><ele>42.1</ele><time>2026-07-23T08:27:39Z</time></trkpt>
			<trkpt lat="54.872180" lon="20.097770"><ele>42.4</ele><time>2026-07-23T08:27:56Z</time></trkpt>
			<trkpt lat="54.871830" lon="20.097760"><ele>42.6</ele><time>2026-07-23T08:28:12Z</time></trkpt>
			<trkpt lat="54.871560" lon="20.097850"><ele>42.6</ele><time>2026-07-23T08:28:29Z</time></trkpt>
			<trkpt lat="54.870920" lon="20.098500"><ele>42.7</ele><time>2026-07-23T08:28:45Z</time></trkpt>
			<trkpt lat="54.859590" lon="20.110080"><ele>39.6</ele><time>2026-07-23T08:29:02Z</time></trkpt>
			<trkpt lat="54.853800" lon="20.115980"><ele>39.1</ele><time>2026-07-23T08:29:18Z</time></trkpt>
			<trkpt lat="54.847910" lon="20.121990"><ele>42.2</ele><time>2026-07-23T08:29:35Z</time></trkpt>
			<trkpt lat="54.840760" lon="20.129270"><ele>42.0</ele><time>2026-07-23T08:29:51Z</time></trkpt>
			<trkpt lat="54.842230" lon="20.133790"><ele>37.1</ele><time>2026-07-23T08:30:08Z</time></trkpt>
			<trkpt lat="54.842470" lon="20.134560"><ele>37.9</ele><time>2026-07-23T08:30:24Z</time></trkpt>
			<trkpt lat="54.842470" lon="20.134550"><ele>37.9</ele><time>2026-07-23T08:30:33Z</time></trkpt>
			<trkpt lat="54.843110" lon="20.136610"><ele>41.3</ele><time>2026-07-23T08:30:41Z</time></trkpt>
			<trkpt lat="54.845300" lon="20.140570"><ele>39.3</ele><time>2026-07-23T08:30:50Z</time></trkpt>
			<trkpt lat="54.846610" lon="20.142930"><ele>36.5</ele><time>2026-07-23T08:30:58Z</time></trkpt>
			<trkpt lat="54.846800" lon="20.143160"><ele>36.4</ele><time>2026-07-23T08:31:07Z</time></trkpt>
			<trkpt lat="54.847140" lon="20.143870"><ele>36.4</ele><time>2026-07-23T08:31:15Z</time></trkpt>
			<trkpt lat="54.847590" lon="20.144660"><ele>38.3</ele><time>2026-07-23T08:31:23Z</time></trkpt>
			<trkpt lat="54.849040" lon="20.147210"><ele>44.5</ele><time>2026-07-23T08:31:32Z</time></trkpt>
			<trkpt lat="54.850580" lon="20.149940"><ele>46.8</ele><time>2026-07-23T08:31:40Z</time></trkpt>
			<trkpt lat="54.851210" lon="20.151200"><ele>47.4</ele><time>2026-07-23T08:31:49Z</time></trkpt>
			<trkpt lat="54.851360" lon="20.151380"><ele>47.0</ele><time>2026-07-23T08:31:57Z</time></trkpt>
			<trkpt lat="54.852040" lon="20.151810"><ele>45.5</ele><time>2026-07-23T08:32:06Z</time></trkpt>
			<trkpt lat="54.853530" lon="20.152470"><ele>44.1</ele><time>2026-07-23T08:32:14Z</time></trkpt>
			<trkpt lat="54.853610" lon="20.152510"><ele>44.0</ele><time>2026-07-23T08:32:23Z</time></trkpt>
			<trkpt lat="54.853980" lon="20.152820"><ele>44.0</ele><time>2026-07-23T08:32:31Z</time></trkpt>
			<trkpt lat="54.854660" lon="20.153700"><ele>44.0</ele><time>2026-07-23T08:32:39Z</time></trkpt>
			<trkpt lat="54.856770" lon="20.156590"><ele>43.7</ele><time>2026-07-23T08:32:48Z</time></trkpt>
			<trkpt lat="54.857380" lon="20.157390"><ele>43.8</ele><time>2026-07-23T08:32:56Z</time></trkpt>
			<trkpt lat="54.860800" lon="20.162030"><ele>48.5</ele><time>2026-07-23T08:33:05Z</time></trkpt>
			<trkpt lat="54.863150" lon="20.165330"><ele>49.2</ele><time>2026-07-23T08:33:13Z</time></trkpt>
			<trkpt lat="54.866370" lon="20.169350"><ele>54.9</ele><time>2026-07-23T08:33:22Z</time></trkpt>
			<trkpt lat="54.868000" lon="20.171490"><ele>59.1</ele><time>2026-07-23T08:33:30Z</time></trkpt>
			<trkpt lat="54.872440" lon="20.176900"><ele>58.7</ele><time>2026-07-23T08:33:39Z</time></trkpt>
			<trkpt lat="54.874280" lon="20.179140"><ele>58.8</ele><time>2026-07-23T08:33:47Z</time></trkpt>
			<trkpt lat="54.874400" lon="20.179280"><ele>58.9</ele><time>2026-07-23T08:33:56Z</time></trkpt>
			<trkpt lat="54.875370" lon="20.180490"><ele>60.2</ele><time>2026-07-23T08:34:04Z</time></trkpt>
			<trkpt lat="54.878310" lon="20.184230"><ele>63.0</ele><time>2026-07-23T08:34:12Z</time></trkpt>
			<trkpt lat="54.879460" lon="20.185600"><ele>60.0</ele><time>2026-07-23T08:34:21Z</time></trkpt>
			<trkpt lat="54.880450" lon="20.186840"><ele>58.1</ele><time>2026-07-23T08:34:29Z</time></trkpt>
			<trkpt lat="54.880840" lon="20.187500"><ele>57.7</ele><time>2026-07-23T08:34:38Z</time></trkpt>
			<trkpt lat="54.885010" lon="20.195160"><ele>53.6</ele><time>2026-07-23T08:34:46Z</time></trkpt>
			<trkpt lat="54.885200" lon="20.195680"><ele>53.7</ele><time>2026-07-23T08:34:55Z</time></trkpt>
			<trkpt lat="54.885850" lon="20.197870"><ele>54.5</ele><time>2026-07-23T08:35:03Z</time></trkpt>
			<trkpt lat="54.886860" lon="20.201210"><ele>57.0</ele><time>2026-07-23T08:35:12Z</time></trkpt>
			<trkpt lat="54.886930" lon="20.201460"><ele>57.2</ele><time>2026-07-23T08:35:20Z</time></trkpt>
			<trkpt lat="54.886950" lon="20.201600"><ele>57.3</ele><time>2026-07-23T08:35:28Z</time></trkpt>
			<trkpt lat="54.886980" lon="20.201830"><ele>57.3</ele><time>2026-07-23T08:35:37Z</time></trkpt>
			<trkpt lat="54.886910" lon="20.202940"><ele>57.3</ele><time>2026-07-23T08:35:45Z</time></trkpt>
			<trkpt lat="54.886560" lon="20.206110"><ele>56.0</ele><time>2026-07-23T08:35:54Z</time></trkpt>
			<trkpt lat="54.886370" lon="20.207650"><ele>54.5</ele><time>2026-07-23T08:36:02Z</time></trkpt>
			<trkpt lat="54.886340" lon="20.207830"><ele>54.3</ele><time>2026-07-23T08:36:11Z</time></trkpt>
			<trkpt lat="54.886400" lon="20.208960"><ele>54.4</ele><time>2026-07-23T08:36:19Z</time></trkpt>
			<trkpt lat="54.886520" lon="20.211400"><ele>54.9</ele><time>2026-07-23T08:36:28Z</time></trkpt>
			<trkpt lat="54.886590" lon="20.212870"><ele>55.7</ele><time>2026-07-23T08:36:36Z</time></trkpt>
			<trkpt lat="54.886470" lon="20.215090"><ele>53.8</ele><time>2026-07-23T08:36:44Z</time></trkpt>
			<trkpt lat="54.886170" lon="20.216330"><ele>50.1</ele><time>2026-07-23T08:36:53Z</time></trkpt>
			<trkpt lat="54.886030" lon="20.216760"><ele>48.7</ele><time>2026-07-23T08:37:01Z</time></trkpt>
			<trkpt lat="54.885990" lon="20.217540"><ele>49.1</ele><time>2026-07-23T08:37:10Z</time></trkpt>
			<trkpt lat="54.885980" lon="20.217840"><ele>50.1</ele><time>2026-07-23T08:37:18Z</time></trkpt>
			<trkpt lat="54.885980" lon="20.218660"><ele>52.7</ele><time>2026-07-23T08:37:27Z</time></trkpt>
			<trkpt lat="54.885950" lon="20.220160"><ele>57.5</ele><time>2026-07-23T08:37:35Z</time></trkpt>
			<trkpt lat="54.885960" lon="20.221870"><ele>57.8</ele><time>2026-07-23T08:37:44Z</time></trkpt>
			<trkpt lat="54.885970" lon="20.222370"><ele>57.8</ele><time>2026-07-23T08:37:52Z</time></trkpt>
			<trkpt lat="54.886030" lon="20.223480"><ele>57.8</ele><time>2026-07-23T08:38:00Z</time></trkpt>
			<trkpt lat="54.886140" lon="20.225020"><ele>58.0</ele><time>2026-07-23T08:38:09Z</time></trkpt>
			<trkpt lat="54.886530" lon="20.227290"><ele>58.0</ele><time>2026-07-23T08:38:17Z</time></trkpt>
			<trkpt lat="54.886620" lon="20.227490"><ele>57.9</ele><time>2026-07-23T08:38:26Z</time></trkpt>
			<trkpt lat="54.886890" lon="20.227850"><ele>57.8</ele><time>2026-07-23T08:38:34Z</time></trkpt>
			<trkpt lat="54.887540" lon="20.228740"><ele>57.4</ele><time>2026-07-23T08:38:43Z</time></trkpt>
			<trkpt lat="54.885060" lon="20.234530"><ele>64.6</ele><time>2026-07-23T08:38:51Z</time></trkpt>
			<trkpt lat="54.884020" lon="20.236960"><ele>60.3</ele><time>2026-07-23T08:39:00Z</time></trkpt>
			<trkpt lat="54.883680" lon="20.237910"><ele>57.3</ele><time>2026-07-23T08:39:08Z</time></trkpt>
			<trkpt lat="54.883240" lon="20.241250"><ele>46.1</ele><time>2026-07-23T08:39:17Z</time></trkpt>
			<trkpt lat="54.882790" lon="20.244980"><ele>37.9</ele><time>2026-07-23T08:39:25Z</time></trkpt>
			<trkpt lat="54.882230" lon="20.249650"><ele>35.1</ele><time>2026-07-23T08:39:33Z</time></trkpt>
			<trkpt lat="54.882030" lon="20.251070"><ele>36.2</ele><time>2026-07-23T08:39:42Z</time></trkpt>
			<trkpt lat="54.881940" lon="20.251530"><ele>36.2</ele><time>2026-07-23T08:39:50Z</time></trkpt>
			<trkpt lat="54.881840" lon="20.251910"><ele>35.9</ele><time>2026-07-23T08:39:59Z</time></trkpt>
			<trkpt lat="54.881680" lon="20.252400"><ele>35.4</ele><time>2026-07-23T08:40:07Z</time></trkpt>
			<trkpt lat="54.881150" lon="20.253910"><ele>34.0</ele><time>2026-07-23T08:40:16Z</time></trkpt>
			<trkpt lat="54.880780" lon="20.254920"><ele>33.9</ele><time>2026-07-23T08:40:24Z</time></trkpt>
			<trkpt lat="54.880630" lon="20.255390"><ele>34.0</ele><time>2026-07-23T08:40:33Z</time></trkpt>
			<trkpt lat="54.880490" lon="20.255700"><ele>34.0</ele><time>2026-07-23T08:40:41Z</time></trkpt>
			<trkpt lat="54.880440" lon="20.255970"><ele>34.0</ele><time>2026-07-23T08:40:49Z</time></trkpt>
			<trkpt lat="54.880480" lon="20.256350"><ele>34.0</ele><time>2026-07-23T08:40:58Z</time></trkpt>
			<trkpt lat="54.881180" lon="20.257880"><ele>36.0</ele><time>2026-07-23T08:41:06Z</time></trkpt>
			<trkpt lat="54.881350" lon="20.258380"><ele>36.7</ele><time>2026-07-23T08:41:15Z</time></trkpt>
			<trkpt lat="54.881350" lon="20.258370"><ele>36.7</ele><time>2026-07-23T08:41:20Z</time></trkpt>
			<trkpt lat="54.881450" lon="20.258880"><ele>37.4</ele><time>2026-07-23T08:41:25Z</time></trkpt>
			<trkpt lat="54.881670" lon="20.263610"><ele>38.4</ele><time>2026-07-23T08:41:30Z</time></trkpt>
			<trkpt lat="54.881760" lon="20.264630"><ele>37.3</ele><time>2026-07-23T08:41:35Z</time></trkpt>
			<trkpt lat="54.881890" lon="20.265040"><ele>36.7</ele><time>2026-07-23T08:41:40Z</time></trkpt>
			<trkpt lat="54.882230" lon="20.265530"><ele>35.9</ele><time>2026-07-23T08:41:45Z</time></trkpt>
			<trkpt lat="54.883630" lon="20.267180"><ele>33.1</ele><time>2026-07-23T08:41:50Z</time></trkpt>
			<trkpt lat="54.884230" lon="20.267630"><ele>33.2</ele><time>2026-07-23T08:41:55Z</time></trkpt>
			<trkpt lat="54.885220" lon="20.268120"><ele>33.4</ele><time>2026-07-23T08:42:00Z</time></trkpt>
			<trkpt lat="54.885980" lon="20.268580"><ele>32.6</ele><time>2026-07-23T08:42:05Z</time></trkpt>
			<trkpt lat="54.887820" lon="20.270130"><ele>29.8</ele><time>2026-07-23T08:42:10Z</time></trkpt>
			<trkpt lat="54.888760" lon="20.270990"><ele>28.1</ele><time>2026-07-23T08:42:15Z</time></trkpt>
			<trkpt lat="54.889000" lon="20.271250"><ele>27.1</ele><time>2026-07-23T08:42:20Z</time></trkpt>
			<trkpt lat="54.889410" lon="20.271850"><ele>25.3</ele><time>2026-07-23T08:42:24Z</time></trkpt>
			<trkpt lat="54.889640" lon="20.272230"><ele>24.2</ele><time>2026-07-23T08:42:29Z</time></trkpt>
			<trkpt lat="54.890140" lon="20.273520"><ele>22.6</ele><time>2026-07-23T08:42:34Z</time></trkpt>
			<trkpt lat="54.890260" lon="20.273810"><ele>22.6</ele><time>2026-07-23T08:42:39Z</time></trkpt>
			<trkpt lat="54.890400" lon="20.274070"><ele>22.7</ele><time>2026-07-23T08:42:44Z</time></trkpt>
			<trkpt lat="54.890510" lon="20.274200"><ele>22.7</ele><time>2026-07-23T08:42:49Z</time></trkpt>
			<trkpt lat="54.890820" lon="20.274340"><ele>22.7</ele><time>2026-07-23T08:42:54Z</time></trkpt>
			<trkpt lat="54.890990" lon="20.274420"><ele>22.8</ele><time>2026-07-23T08:42:59Z</time></trkpt>
			<trkpt lat="54.891770" lon="20.274720"><ele>24.3</ele><time>2026-07-23T08:43:04Z</time></trkpt>
			<trkpt lat="54.892270" lon="20.274760"><ele>26.1</ele><time>2026-07-23T08:43:09Z</time></trkpt>
			<trkpt lat="54.892820" lon="20.274780"><ele>28.1</ele><time>2026-07-23T08:43:14Z</time></trkpt>
			<trkpt lat="54.893900" lon="20.274930"><ele>31.1</ele><time>2026-07-23T08:43:19Z</time></trkpt>
			<trkpt lat="54.894660" lon="20.275070"><ele>33.0</ele><time>2026-07-23T08:43:24Z</time></trkpt>
			<trkpt lat="54.895150" lon="20.275230"><ele>33.4</ele><time>2026-07-23T08:43:29Z</time></trkpt>
			<trkpt lat="54.895460" lon="20.275360"><ele>32.7</ele><time>2026-07-23T08:43:34Z</time></trkpt>
			<trkpt lat="54.895670" lon="20.275520"><ele>32.3</ele><time>2026-07-23T08:43:39Z</time></trkpt>
			<trkpt lat="54.896050" lon="20.276010"><ele>31.3</ele><time>2026-07-23T08:43:44Z</time></trkpt>
			<trkpt lat="54.896240" lon="20.276230"><ele>30.8</ele><time>2026-07-23T08:43:49Z</time></trkpt>
			<trkpt lat="54.896570" lon="20.276350"><ele>30.1</ele><time>2026-07-23T08:43:54Z</time></trkpt>
			<trkpt lat="54.896670" lon="20.276410"><ele>30.0</ele><time>2026-07-23T08:43:59Z</time></trkpt>
			<trkpt lat="54.896740" lon="20.276510"><ele>29.8</ele><time>2026-07-23T08:44:04Z</time></trkpt>
			<trkpt lat="54.896770" lon="20.276590"><ele>29.7</ele><time>2026-07-23T08:44:09Z</time></trkpt>
			<trkpt lat="54.896780" lon="20.276700"><ele>29.7</ele><time>2026-07-23T08:44:14Z</time></trkpt>
			<trkpt lat="54.896630" lon="20.277870"><ele>28.7</ele><time>2026-07-23T08:44:19Z</time></trkpt>
			<trkpt lat="54.896600" lon="20.278120"><ele>28.4</ele><time>2026-07-23T08:44:24Z</time></trkpt>
			<trkpt lat="54.896600" lon="20.278350"><ele>28.3</ele><time>2026-07-23T08:44:29Z</time></trkpt>
			<trkpt lat="54.896620" lon="20.278510"><ele>28.1</ele><time>2026-07-23T08:44:34Z</time></trkpt>
			<trkpt lat="54.896670" lon="20.278680"><ele>28.0</ele><time>2026-07-23T08:44:39Z</time></trkpt>
			<trkpt lat="54.897190" lon="20.280170"><ele>31.0</ele><time>2026-07-23T08:44:44Z</time></trkpt>
			<trkpt lat="54.897220" lon="20.280260"><ele>31.3</ele><time>2026-07-23T08:44:49Z</time></trkpt>
			<trkpt lat="54.898270" lon="20.283460"><ele>39.1</ele><time>2026-07-23T08:44:54Z</time></trkpt>
			<trkpt lat="54.898760" lon="20.284940"><ele>40.6</ele><time>2026-07-23T08:44:59Z</time></trkpt>
			<trkpt lat="54.899500" lon="20.287160"><ele>41.8</ele><time>2026-07-23T08:45:04Z</time></trkpt>
			<trkpt lat="54.899600" lon="20.287600"><ele>42.0</ele><time>2026-07-23T08:45:09Z</time></trkpt>
			<trkpt lat="54.899690" lon="20.288140"><ele>42.2</ele><time>2026-07-23T08:45:14Z</time></trkpt>
			<trkpt lat="54.900370" lon="20.295170"><ele>42.9</ele><time>2026-07-23T08:45:19Z</time></trkpt>
			<trkpt lat="54.901220" lon="20.303230"><ele>42.0</ele><time>2026-07-23T08:45:24Z</time></trkpt>
			<trkpt lat="54.902340" lon="20.315090"><ele>27.3</ele><time>2026-07-23T08:45:29Z</time></trkpt>
			<trkpt lat="54.903810" lon="20.329080"><ele>25.2</ele><time>2026-07-23T08:45:34Z</time></trkpt>
			<trkpt lat="54.903810" lon="20.329080"><ele>25.2</ele><time>2026-07-23T08:45:39Z</time></trkpt>
			<trkpt lat="54.904700" lon="20.337490"><ele>15.1</ele><time>2026-07-23T08:45:44Z</time></trkpt>
			<trkpt lat="54.904930" lon="20.339640"><ele>11.6</ele><time>2026-07-23T08:45:49Z</time></trkpt>
			<trkpt lat="54.904960" lon="20.339920"><ele>11.1</ele><time>2026-07-23T08:45:54Z</time></trkpt>
			<trkpt lat="54.905390" lon="20.344000"><ele>15.7</ele><time>2026-07-23T08:45:59Z</time></trkpt>
			<trkpt lat="54.905550" lon="20.345310"><ele>16.3</ele><time>2026-07-23T08:46:04Z</time></trkpt>
			<trkpt lat="54.905670" lon="20.346260"><ele>16.8</ele><time>2026-07-23T08:46:09Z</time></trkpt>
			<trkpt lat="54.905730" lon="20.346540"><ele>16.9</ele><time>2026-07-23T08:46:14Z</time></trkpt>
			<trkpt lat="54.906220" lon="20.348780"><ele>18.2</ele><time>2026-07-23T08:46:19Z</time></trkpt>
			<trkpt lat="54.906620" lon="20.350760"><ele>17.4</ele><time>2026-07-23T08:46:24Z</time></trkpt>
			<trkpt lat="54.906860" lon="20.351880"><ele>16.7</ele><time>2026-07-23T08:46:30Z</time></trkpt>
			<trkpt lat="54.906950" lon="20.352720"><ele>15.6</ele><time>2026-07-23T08:46:35Z</time></trkpt>
			<trkpt lat="54.907160" lon="20.360660"><ele>11.7</ele><time>2026-07-23T08:46:40Z</time></trkpt>
			<trkpt lat="54.907220" lon="20.363990"><ele>11.5</ele><time>2026-07-23T08:46:45Z</time></trkpt>
			<trkpt lat="54.907260" lon="20.366110"><ele>11.5</ele><time>2026-07-23T08:46:50Z</time></trkpt>
			<trkpt lat="54.907260" lon="20.366570"><ele>11.6</ele><time>2026-07-23T08:46:55Z</time></trkpt>
			<trkpt lat="54.907230" lon="20.366830"><ele>11.6</ele><time>2026-07-23T08:47:00Z</time></trkpt>
			<trkpt lat="54.907190" lon="20.367050"><ele>11.6</ele><time>2026-07-23T08:47:05Z</time></trkpt>
			<trkpt lat="54.907030" lon="20.368070"><ele>11.9</ele><time>2026-07-23T08:47:10Z</time></trkpt>
			<trkpt lat="54.907000" lon="20.368320"><ele>12.0</ele><time>2026-07-23T08:47:15Z</time></trkpt>
			<trkpt lat="54.906880" lon="20.369040"><ele>12.4</ele><time>2026-07-23T08:47:20Z</time></trkpt>
			<trkpt lat="54.906640" lon="20.370490"><ele>13.1</ele><time>2026-07-23T08:47:25Z</time></trkpt>
			<trkpt lat="54.906510" lon="20.371420"><ele>13.4</ele><time>2026-07-23T08:47:30Z</time></trkpt>
			<trkpt lat="54.906460" lon="20.371850"><ele>13.6</ele><time>2026-07-23T08:47:35Z</time></trkpt>
			<trkpt lat="54.906440" lon="20.372090"><ele>13.6</ele><time>2026-07-23T08:47:41Z</time></trkpt>
			<trkpt lat="54.906430" lon="20.372650"><ele>13.8</ele><time>2026-07-23T08:47:46Z</time></trkpt>
			<trkpt lat="54.906460" lon="20.375450"><ele>12.6</ele><time>2026-07-23T08:47:51Z</time></trkpt>
			<trkpt lat="54.906560" lon="20.378820"><ele>15.8</ele><time>2026-07-23T08:47:56Z</time></trkpt>
			<trkpt lat="54.906600" lon="20.379430"><ele>17.3</ele><time>2026-07-23T08:48:01Z</time></trkpt>
			<trkpt lat="54.907140" lon="20.382810"><ele>16.5</ele><time>2026-07-23T08:48:06Z</time></trkpt>
			<trkpt lat="54.908000" lon="20.388630"><ele>12.2</ele><time>2026-07-23T08:48:11Z</time></trkpt>
			<trkpt lat="54.908780" lon="20.394090"><ele>8.1</ele><time>2026-07-23T08:48:16Z</time></trkpt>
			<trkpt lat="54.908960" lon="20.396570"><ele>5.7</ele><time>2026-07-23T08:48:21Z</time></trkpt>
			<trkpt lat="54.909110" lon="20.399060"><ele>6.1</ele><time>2026-07-23T08:48:26Z</time></trkpt>
			<trkpt lat="54.909210" lon="20.400320"><ele>6.5</ele><time>2026-07-23T08:48:31Z</time></trkpt>
			<trkpt lat="54.909310" lon="20.402010"><ele>6.4</ele><time>2026-07-23T08:48:36Z</time></trkpt>
			<trkpt lat="54.909880" lon="20.401870"><ele>5.5</ele><time>2026-07-23T08:48:41Z</time></trkpt>
			<trkpt lat="54.910940" lon="20.401600"><ele>4.1</ele><time>2026-07-23T08:48:46Z</time></trkpt>
			<trkpt lat="54.911060" lon="20.401560"><ele>4.1</ele><time>2026-07-23T08:48:52Z</time></trkpt>
			<trkpt lat="54.913080" lon="20.400990"><ele>4.8</ele><time>2026-07-23T08:48:57Z</time></trkpt>
			<trkpt lat="54.917280" lon="20.399740"><ele>4.7</ele><time>2026-07-23T08:49:02Z</time></trkpt>
			<trkpt lat="54.920180" lon="20.398940"><ele>4.1</ele><time>2026-07-23T08:49:07Z</time></trkpt>
			<trkpt lat="54.921210" lon="20.398730"><ele>2.2</ele><time>2026-07-23T08:49:12Z</time></trkpt>
			<trkpt lat="54.921860" lon="20.398610"><ele>1.3</ele><time>2026-07-23T08:49:17Z</time></trkpt>
			<trkpt lat="54.921800" lon="20.397810"><ele>0.9</ele><time>2026-07-23T08:49:22Z</time></trkpt>
			<trkpt lat="54.921580" lon="20.394640"><ele>0.2</ele><time>2026-07-23T08:49:27Z</time></trkpt>
			<trkpt lat="54.921580" lon="20.394090"><ele>0.3</ele><time>2026-07-23T08:49:32Z</time></trkpt>
			<trkpt lat="54.921630" lon="20.393780"><ele>0.3</ele><time>2026-07-23T08:49:37Z</time></trkpt>
			<trkpt lat="54.921780" lon="20.393260"><ele>0.4</ele><time>2026-07-23T08:49:42Z</time></trkpt>
			<trkpt lat="54.922030" lon="20.392900"><ele>0.4</ele><time>2026-07-23T08:49:47Z</time></trkpt>
			<trkpt lat="54.922380" lon="20.392690"><ele>0.3</ele><time>2026-07-23T08:49:52Z</time></trkpt>
			<trkpt lat="54.922730" lon="20.392680"><ele>0.2</ele><time>2026-07-23T08:49:58Z</time></trkpt>
			<trkpt lat="54.923140" lon="20.392780"><ele>0.1</ele><time>2026-07-23T08:50:03Z</time></trkpt>
			<trkpt lat="54.923260" lon="20.392960"><ele>0.1</ele><time>2026-07-23T08:50:08Z</time></trkpt>
			<trkpt lat="54.923290" lon="20.393150"><ele>0.1</ele><time>2026-07-23T08:50:13Z</time></trkpt>
			<trkpt lat="54.923320" lon="20.393870"><ele>-0.1</ele><time>2026-07-23T08:50:18Z</time></trkpt>
			<trkpt lat="54.923210" lon="20.395640"><ele>-0.7</ele><time>2026-07-23T08:50:23Z</time></trkpt>
			<trkpt lat="54.923040" lon="20.397980"><ele>-0.9</ele><time>2026-07-23T08:50:28Z</time></trkpt>
			<trkpt lat="54.922950" lon="20.398760"><ele>-0.8</ele><time>2026-07-23T08:50:33Z</time></trkpt>
			<trkpt lat="54.922770" lon="20.400400"><ele>-0.6</ele><time>2026-07-23T08:50:38Z</time></trkpt>
			<trkpt lat="54.922420" lon="20.402800"><ele>0.0</ele><time>2026-07-23T08:50:43Z</time></trkpt>
			<trkpt lat="54.921870" lon="20.405800"><ele>0.0</ele><time>2026-07-23T08:50:48Z</time></trkpt>
			<trkpt lat="54.921700" lon="20.406670"><ele>0.6</ele><time>2026-07-23T08:50:53Z</time></trkpt>
			<trkpt lat="54.921510" lon="20.407510"><ele>1.1</ele><time>2026-07-23T08:50:58Z</time></trkpt>
			<trkpt lat="54.920400" lon="20.412280"><ele>4.0</ele><time>2026-07-23T08:51:03Z</time></trkpt>
			<trkpt lat="54.920200" lon="20.413210"><ele>4.0</ele><time>2026-07-23T08:51:09Z</time></trkpt>
			<trkpt lat="54.919630" lon="20.416270"><ele>4.4</ele><time>2026-07-23T08:51:14Z</time></trkpt>
			<trkpt lat="54.919350" lon="20.418210"><ele>4.7</ele><time>2026-07-23T08:51:19Z</time></trkpt>
			<trkpt lat="54.919160" lon="20.419710"><ele>4.8</ele><time>2026-07-23T08:51:24Z</time></trkpt>
			<trkpt lat="54.919040" lon="20.420750"><ele>4.9</ele><time>2026-07-23T08:51:29Z</time></trkpt>
			<trkpt lat="54.918810" lon="20.423280"><ele>5.3</ele><time>2026-07-23T08:51:34Z</time></trkpt>
			<trkpt lat="54.918690" lon="20.425380"><ele>4.6</ele><time>2026-07-23T08:51:39Z</time></trkpt>
			<trkpt lat="54.918620" lon="20.427150"><ele>3.9</ele><time>2026-07-23T08:51:44Z</time></trkpt>
			<trkpt lat="54.918600" lon="20.428570"><ele>3.9</ele><time>2026-07-23T08:51:49Z</time></trkpt>
			<trkpt lat="54.918590" lon="20.429920"><ele>4.0</ele><time>2026-07-23T08:51:54Z</time></trkpt>
			<trkpt lat="54.918620" lon="20.431760"><ele>4.0</ele><time>2026-07-23T08:51:59Z</time></trkpt>
			<trkpt lat="54.918720" lon="20.433970"><ele>4.2</ele><time>2026-07-23T08:52:04Z</time></trkpt>
			<trkpt lat="54.918850" lon="20.435980"><ele>4.7</ele><time>2026-07-23T08:52:09Z</time></trkpt>
			<trkpt lat="54.919980" lon="20.448500"><ele>3.6</ele><time>2026-07-23T08:52:14Z</time></trkpt>
			<trkpt lat="54.920110" lon="20.450180"><ele>3.1</ele><time>2026-07-23T08:52:20Z</time></trkpt>
			<trkpt lat="54.920170" lon="20.451010"><ele>3.0</ele><time>2026-07-23T08:52:25Z</time></trkpt>
			<trkpt lat="54.920270" lon="20.452860"><ele>3.0</ele><time>2026-07-23T08:52:30Z</time></trkpt>
			<trkpt lat="54.920310" lon="20.454430"><ele>3.3</ele><time>2026-07-23T08:52:35Z</time></trkpt>
			<trkpt lat="54.920320" lon="20.455740"><ele>3.5</ele><time>2026-07-23T08:52:40Z</time></trkpt>
			<trkpt lat="54.920300" lon="20.457620"><ele>3.9</ele><time>2026-07-23T08:52:45Z</time></trkpt>
			<trkpt lat="54.920170" lon="20.460420"><ele>4.2</ele><time>2026-07-23T08:52:50Z</time></trkpt>
			<trkpt lat="54.920070" lon="20.461970"><ele>4.6</ele><time>2026-07-23T08:52:55Z</time></trkpt>
			<trkpt lat="54.919950" lon="20.463330"><ele>5.2</ele><time>2026-07-23T08:53:00Z</time></trkpt>
			<trkpt lat="54.919740" lon="20.465400"><ele>6.0</ele><time>2026-07-23T08:53:05Z</time></trkpt>
			<trkpt lat="54.919600" lon="20.466600"><ele>6.4</ele><time>2026-07-23T08:53:10Z</time></trkpt>
			<trkpt lat="54.919410" lon="20.467880"><ele>6.6</ele><time>2026-07-23T08:53:15Z</time></trkpt>
			<trkpt lat="54.919280" lon="20.469140"><ele>6.4</ele><time>2026-07-23T08:53:20Z</time></trkpt>
			<trkpt lat="54.918780" lon="20.471980"><ele>5.6</ele><time>2026-07-23T08:53:25Z</time></trkpt>
			<trkpt lat="54.918340" lon="20.474120"><ele>5.0</ele><time>2026-07-23T08:53:31Z</time></trkpt>
			<trkpt lat="54.917580" lon="20.478120"><ele>4.5</ele><time>2026-07-23T08:53:36Z</time></trkpt>
			<trkpt lat="54.917230" lon="20.479680"><ele>4.1</ele><time>2026-07-23T08:53:41Z</time></trkpt>
			<trkpt lat="54.916850" lon="20.481230"><ele>4.6</ele><time>2026-07-23T08:53:46Z</time></trkpt>
			<trkpt lat="54.916600" lon="20.482170"><ele>4.9</ele><time>2026-07-23T08:53:51Z</time></trkpt>
			<trkpt lat="54.916600" lon="20.482170"><ele>4.9</ele><time>2026-07-23T08:53:55Z</time></trkpt>
			<trkpt lat="54.916170" lon="20.483690"><ele>4.9</ele><time>2026-07-23T08:54:00Z</time></trkpt>
			<trkpt lat="54.915510" lon="20.485770"><ele>4.7</ele><time>2026-07-23T08:54:05Z</time></trkpt>
			<trkpt lat="54.914940" lon="20.487430"><ele>4.1</ele><time>2026-07-23T08:54:09Z</time></trkpt>
			<trkpt lat="54.914360" lon="20.488920"><ele>3.7</ele><time>2026-07-23T08:54:14Z</time></trkpt>
			<trkpt lat="54.913800" lon="20.490080"><ele>3.4</ele><time>2026-07-23T08:54:18Z</time></trkpt>
			<trkpt lat="54.912780" lon="20.492280"><ele>1.4</ele><time>2026-07-23T08:54:23Z</time></trkpt>
			<trkpt lat="54.912530" lon="20.492810"><ele>0.9</ele><time>2026-07-23T08:54:27Z</time></trkpt>
			<trkpt lat="54.911870" lon="20.494120"><ele>0.5</ele><time>2026-07-23T08:54:32Z</time></trkpt>
			<trkpt lat="54.911130" lon="20.495440"><ele>0.6</ele><time>2026-07-23T08:54:37Z</time></trkpt>
			<trkpt lat="54.910440" lon="20.496590"><ele>2.0</ele><time>2026-07-23T08:54:41Z</time></trkpt>
			<trkpt lat="54.909900" lon="20.497460"><ele>2.8</ele><time>2026-07-23T08:54:46Z</time></trkpt>
			<trkpt lat="54.909050" lon="20.498840"><ele>3.0</ele><time>2026-07-23T08:54:50Z</time></trkpt>
			<trkpt lat="54.908770" lon="20.499230"><ele>3.1</ele><time>2026-07-23T08:54:55Z</time></trkpt>
			<trkpt lat="54.908420" lon="20.499560"><ele>2.7</ele><time>2026-07-23T08:54:59Z</time></trkpt>
			<trkpt lat="54.908250" lon="20.499650"><ele>2.4</ele><time>2026-07-23T08:55:04Z</time></trkpt>
			<trkpt lat="54.908060" lon="20.499660"><ele>2.1</ele><time>2026-07-23T08:55:09Z</time></trkpt>
			<trkpt lat="54.907890" lon="20.499580"><ele>1.9</ele><time>2026-07-23T08:55:13Z</time></trkpt>
			<trkpt lat="54.907730" lon="20.499380"><ele>1.6</ele><time>2026-07-23T08:55:18Z</time></trkpt>
			<trkpt lat="54.907620" lon="20.499120"><ele>1.3</ele><time>2026-07-23T08:55:22Z</time></trkpt>
			<trkpt lat="54.907550" lon="20.498830"><ele>1.0</ele><time>2026-07-23T08:55:27Z</time></trkpt>
			<trkpt lat="54.907540" lon="20.498610"><ele>0.8</ele><time>2026-07-23T08:55:31Z</time></trkpt>
			<trkpt lat="54.907550" lon="20.498350"><ele>0.6</ele><time>2026-07-23T08:55:36Z</time></trkpt>
			<trkpt lat="54.907640" lon="20.498010"><ele>0.4</ele><time>2026-07-23T08:55:41Z</time></trkpt>
			<trkpt lat="54.907770" lon="20.497740"><ele>0.7</ele><time>2026-07-23T08:55:45Z</time></trkpt>
			<trkpt lat="54.907910" lon="20.497590"><ele>0.9</ele><time>2026-07-23T08:55:50Z</time></trkpt>
			<trkpt lat="54.908100" lon="20.497490"><ele>1.1</ele><time>2026-07-23T08:55:54Z</time></trkpt>
			<trkpt lat="54.908360" lon="20.497470"><ele>1.4</ele><time>2026-07-23T08:55:59Z</time></trkpt>
			<trkpt lat="54.908630" lon="20.497660"><ele>1.8</ele><time>2026-07-23T08:56:03Z</time></trkpt>
			<trkpt lat="54.909140" lon="20.498080"><ele>2.5</ele><time>2026-07-23T08:56:08Z</time></trkpt>
			<trkpt lat="54.910040" lon="20.498880"><ele>4.3</ele><time>2026-07-23T08:56:13Z</time></trkpt>
			<trkpt lat="54.912190" lon="20.500750"><ele>8.4</ele><time>2026-07-23T08:56:17Z</time></trkpt>
			<trkpt lat="54.912240" lon="20.500800"><ele>8.5</ele><time>2026-07-23T08:56:22Z</time></trkpt>
			<trkpt lat="54.913830" lon="20.502170"><ele>6.6</ele><time>2026-07-23T08:56:26Z</time></trkpt>
			<trkpt lat="54.914140" lon="20.502430"><ele>6.0</ele><time>2026-07-23T08:56:31Z</time></trkpt>
			<trkpt lat="54.915520" lon="20.503660"><ele>2.9</ele><time>2026-07-23T08:56:35Z</time></trkpt>
			<trkpt lat="54.916210" lon="20.504220"><ele>2.3</ele><time>2026-07-23T08:56:40Z</time></trkpt>
			<trkpt lat="54.916410" lon="20.504400"><ele>2.1</ele><time>2026-07-23T08:56:45Z</time></trkpt>
			<trkpt lat="54.918810" lon="20.506490"><ele>1.9</ele><time>2026-07-23T08:56:49Z</time></trkpt>
			<trkpt lat="54.919400" lon="20.507000"><ele>3.0</ele><time>2026-07-23T08:56:54Z</time></trkpt>
			<trkpt lat="54.919970" lon="20.507420"><ele>4.2</ele><time>2026-07-23T08:56:58Z</time></trkpt>
			<trkpt lat="54.921260" lon="20.508100"><ele>6.1</ele><time>2026-07-23T08:57:03Z</time></trkpt>
			<trkpt lat="54.921810" lon="20.508310"><ele>6.6</ele><time>2026-07-23T08:57:07Z</time></trkpt>
			<trkpt lat="54.922520" lon="20.508510"><ele>7.1</ele><time>2026-07-23T08:57:12Z</time></trkpt>
			<trkpt lat="54.923030" lon="20.508620"><ele>7.2</ele><time>2026-07-23T08:57:17Z</time></trkpt>
			<trkpt lat="54.925140" lon="20.508980"><ele>5.9</ele><time>2026-07-23T08:57:21Z</time></trkpt>
			<trkpt lat="54.929490" lon="20.509740"><ele>1.8</ele><time>2026-07-23T08:57:26Z</time></trkpt>
			<trkpt lat="54.931470" lon="20.510080"><ele>2.4</ele><time>2026-07-23T08:57:30Z</time></trkpt>
			<trkpt lat="54.934380" lon="20.510590"><ele>5.7</ele><time>2026-07-23T08:57:35Z</time></trkpt>
			<trkpt lat="54.935660" lon="20.510800"><ele>4.0</ele><time>2026-07-23T08:57:39Z</time></trkpt>
			<trkpt lat="54.936420" lon="20.510930"><ele>2.5</ele><time>2026-07-23T08:57:44Z</time></trkpt>
			<trkpt lat="54.937650" lon="20.511110"><ele>0.8</ele><time>2026-07-23T08:57:49Z</time></trkpt>
			<trkpt lat="54.937880" lon="20.511120"><ele>0.5</ele><time>2026-07-23T08:57:53Z</time></trkpt>
			<trkpt lat="54.938290" lon="20.511090"><ele>0.1</ele><time>2026-07-23T08:57:58Z</time></trkpt>
			<trkpt lat="54.938590" lon="20.510950"><ele>-0.2</ele><time>2026-07-23T08:58:02Z</time></trkpt>
			<trkpt lat="54.938780" lon="20.510820"><ele>-0.4</ele><time>2026-07-23T08:58:07Z</time></trkpt>
			<trkpt lat="54.939000" lon="20.510620"><ele>-0.5</ele><time>2026-07-23T08:58:11Z</time></trkpt>
			<trkpt lat="54.940340" lon="20.509240"><ele>-1.2</ele><time>2026-07-23T08:58:16Z</time></trkpt>
			<trkpt lat="54.940900" lon="20.508670"><ele>-1.4</ele><time>2026-07-23T08:58:21Z</time></trkpt>
			<trkpt lat="54.941230" lon="20.508340"><ele>-1.4</ele><time>2026-07-23T08:58:25Z</time></trkpt>
			<trkpt lat="54.941840" lon="20.507730"><ele>-1.6</ele><time>2026-07-23T08:58:30Z</time></trkpt>
			<trkpt lat="54.942340" lon="20.507230"><ele>-1.9</ele><time>2026-07-23T08:58:34Z</time></trkpt>
			<trkpt lat="54.942700" lon="20.506820"><ele>-2.2</ele><time>2026-07-23T08:58:39Z</time></trkpt>
			<trkpt lat="54.943710" lon="20.505770"><ele>-1.4</ele><time>2026-07-23T08:58:43Z</time></trkpt>
			<trkpt lat="54.943710" lon="20.505770"><ele>-1.4</ele><time>2026-07-23T08:58:46Z</time></trkpt>
			<trkpt lat="54.945470" lon="20.503930"><ele>-0.5</ele><time>2026-07-23T08:58:49Z</time></trkpt>
			<trkpt lat="54.946680" lon="20.502690"><ele>-1.9</ele><time>2026-07-23T08:58:52Z</time></trkpt>
			<trkpt lat="54.946980" lon="20.502340"><ele>-1.9</ele><time>2026-07-23T08:58:54Z</time></trkpt>
			<trkpt lat="54.947160" lon="20.502070"><ele>-1.9</ele><time>2026-07-23T08:58:57Z</time></trkpt>
			<trkpt lat="54.947340" lon="20.501740"><ele>-2.0</ele><time>2026-07-23T08:59:00Z</time></trkpt>
			<trkpt lat="54.947490" lon="20.501420"><ele>-2.0</ele><time>2026-07-23T08:59:03Z</time></trkpt>
			<trkpt lat="54.947690" lon="20.500800"><ele>-2.0</ele><time>2026-07-23T08:59:05Z</time></trkpt>
			<trkpt lat="54.947770" lon="20.500550"><ele>-2.0</ele><time>2026-07-23T08:59:08Z</time></trkpt>
			<trkpt lat="54.948180" lon="20.499120"><ele>-2.0</ele><time>2026-07-23T08:59:11Z</time></trkpt>
			<trkpt lat="54.948340" lon="20.498540"><ele>-2.0</ele><time>2026-07-23T08:59:13Z</time></trkpt>
			<trkpt lat="54.949570" lon="20.494250"><ele>-0.2</ele><time>2026-07-23T08:59:16Z</time></trkpt>
			<trkpt lat="54.950330" lon="20.491660"><ele>0.9</ele><time>2026-07-23T08:59:19Z</time></trkpt>
			<trkpt lat="54.950660" lon="20.490530"><ele>0.8</ele><time>2026-07-23T08:59:22Z</time></trkpt>
			<trkpt lat="54.951190" lon="20.488900"><ele>0.3</ele><time>2026-07-23T08:59:24Z</time></trkpt>
			<trkpt lat="54.951590" lon="20.487670"><ele>-0.3</ele><time>2026-07-23T08:59:27Z</time></trkpt>
			<trkpt lat="54.951930" lon="20.486460"><ele>-0.2</ele><time>2026-07-23T08:59:30Z</time></trkpt>
			<trkpt lat="54.952140" lon="20.485650"><ele>0.4</ele><time>2026-07-23T08:59:33Z</time></trkpt>
			<trkpt lat="54.952300" lon="20.485100"><ele>0.7</ele><time>2026-07-23T08:59:35Z</time></trkpt>
			<trkpt lat="54.952410" lon="20.484830"><ele>0.9</ele><time>2026-07-23T08:59:38Z</time></trkpt>
			<trkpt lat="54.952720" lon="20.484250"><ele>1.3</ele><time>2026-07-23T08:59:41Z</time></trkpt>
			<trkpt lat="54.953640" lon="20.482670"><ele>0.1</ele><time>2026-07-23T08:59:44Z</time></trkpt>
			<trkpt lat="54.954100" lon="20.481880"><ele>-0.4</ele><time>2026-07-23T08:59:46Z</time></trkpt>
			<trkpt lat="54.954350" lon="20.481450"><ele>-0.5</ele><time>2026-07-23T08:59:49Z</time></trkpt>
			<trkpt lat="54.954500" lon="20.481350"><ele>-0.6</ele><time>2026-07-23T08:59:52Z</time></trkpt>
			<trkpt lat="54.954600" lon="20.481380"><ele>-0.6</ele><time>2026-07-23T08:59:55Z</time></trkpt>
			<trkpt lat="54.954710" lon="20.481320"><ele>-0.7</ele><time>2026-07-23T08:59:57Z</time></trkpt>
			<trkpt lat="54.954780" lon="20.481240"><ele>-0.7</ele><time>2026-07-23T09:00:00Z</time></trkpt>
			<trkpt lat="54.954830" lon="20.481090"><ele>-0.8</ele><time>2026-07-23T09:00:03Z</time></trkpt>
			<trkpt lat="54.954850" lon="20.480920"><ele>-0.8</ele><time>2026-07-23T09:00:05Z</time></trkpt>
			<trkpt lat="54.954830" lon="20.480740"><ele>-0.9</ele><time>2026-07-23T09:00:08Z</time></trkpt>
			<trkpt lat="54.954780" lon="20.480620"><ele>-0.9</ele><time>2026-07-23T09:00:11Z</time></trkpt>
			<trkpt lat="54.954950" lon="20.480370"><ele>-1.0</ele><time>2026-07-23T09:00:14Z</time></trkpt>
			<trkpt lat="54.955230" lon="20.479900"><ele>-0.7</ele><time>2026-07-23T09:00:16Z</time></trkpt>
			<trkpt lat="54.955840" lon="20.478830"><ele>0.7</ele><time>2026-07-23T09:00:19Z</time></trkpt>
			<trkpt lat="54.955940" lon="20.478680"><ele>1.0</ele><time>2026-07-23T09:00:22Z</time></trkpt>
			<trkpt lat="54.956430" lon="20.477840"><ele>2.0</ele><time>2026-07-23T09:00:25Z</time></trkpt>
			<trkpt lat="54.956720" lon="20.477360"><ele>2.2</ele><time>2026-07-23T09:00:27Z</time></trkpt>
			<trkpt lat="54.956980" lon="20.477000"><ele>2.3</ele><time>2026-07-23T09:00:30Z</time></trkpt>
			<trkpt lat="54.957220" lon="20.476760"><ele>2.4</ele><time>2026-07-23T09:00:33Z</time></trkpt>
			<trkpt lat="54.957720" lon="20.476390"><ele>2.6</ele><time>2026-07-23T09:00:36Z</time></trkpt>
			<trkpt lat="54.958160" lon="20.476120"><ele>2.8</ele><time>2026-07-23T09:00:38Z</time></trkpt>
			<trkpt lat="54.958520" lon="20.475890"><ele>3.0</ele><time>2026-07-23T09:00:41Z</time></trkpt>
			<trkpt lat="54.958750" lon="20.475740"><ele>3.1</ele><time>2026-07-23T09:00:44Z</time></trkpt>
			<trkpt lat="54.959040" lon="20.475570"><ele>3.2</ele><time>2026-07-23T09:00:47Z</time></trkpt>
			<trkpt lat="54.959320" lon="20.475420"><ele>3.4</ele><time>2026-07-23T09:00:49Z</time></trkpt>
			<trkpt lat="54.959860" lon="20.475080"><ele>3.7</ele><time>2026-07-23T09:00:52Z</time></trkpt>
			<trkpt lat="54.959630" lon="20.473810"><ele>4.4</ele><time>2026-07-23T09:00:55Z</time></trkpt>
			<trkpt lat="54.959570" lon="20.473620"><ele>4.5</ele><time>2026-07-23T09:00:57Z</time></trkpt>
			<trkpt lat="54.959400" lon="20.473270"><ele>4.7</ele><time>2026-07-23T09:01:00Z</time></trkpt>
			<trkpt lat="54.959110" lon="20.472860"><ele>5.0</ele><time>2026-07-23T09:01:03Z</time></trkpt>
			<trkpt lat="54.958890" lon="20.472480"><ele>5.2</ele><time>2026-07-23T09:01:06Z</time></trkpt>
			<trkpt lat="54.958740" lon="20.472310"><ele>5.3</ele><time>2026-07-23T09:01:08Z</time></trkpt>
			<trkpt lat="54.958600" lon="20.472070"><ele>5.4</ele><time>2026-07-23T09:01:11Z</time></trkpt>
			<trkpt lat="54.958600" lon="20.472060"><ele>5.4</ele><time>2026-07-23T09:01:15Z</time></trkpt>
			<trkpt lat="54.958550" lon="20.471980"><ele>5.4</ele><time>2026-07-23T09:01:19Z</time></trkpt>
			<trkpt lat="54.958510" lon="20.471850"><ele>5.5</ele><time>2026-07-23T09:01:22Z</time></trkpt>
			<trkpt lat="54.958480" lon="20.471770"><ele>5.5</ele><time>2026-07-23T09:01:26Z</time></trkpt>
			<trkpt lat="54.958230" lon="20.471630"><ele>5.7</ele><time>2026-07-23T09:01:30Z</time></trkpt>
			<trkpt lat="54.957850" lon="20.471560"><ele>5.9</ele><time>2026-07-23T09:01:34Z</time></trkpt>
			<trkpt lat="54.955940" lon="20.471190"><ele>3.8</ele><time>2026-07-23T09:01:37Z</time></trkpt>
			<trkpt lat="54.955530" lon="20.471100"><ele>3.4</ele><time>2026-07-23T09:01:41Z</time></trkpt>
			<trkpt lat="54.954300" lon="20.470860"><ele>2.8</ele><time>2026-07-23T09:01:45Z</time></trkpt>
			<trkpt lat="54.953470" lon="20.470690"><ele>1.6</ele><time>2026-07-23T09:01:48Z</time></trkpt>
			<trkpt lat="54.952710" lon="20.470550"><ele>0.1</ele><time>2026-07-23T09:01:52Z</time></trkpt>
			<trkpt lat="54.952030" lon="20.470420"><ele>-0.9</ele><time>2026-07-23T09:01:56Z</time></trkpt>
			<trkpt lat="54.950600" lon="20.470150"><ele>-1.0</ele><time>2026-07-23T09:02:00Z</time></trkpt>
			<trkpt lat="54.949880" lon="20.470000"><ele>-1.1</ele><time>2026-07-23T09:02:03Z</time></trkpt>
			<trkpt lat="54.949150" lon="20.469870"><ele>-1.3</ele><time>2026-07-23T09:02:07Z</time></trkpt>
			<trkpt lat="54.948940" lon="20.469770"><ele>-1.3</ele><time>2026-07-23T09:02:11Z</time></trkpt>
			<trkpt lat="54.948690" lon="20.469600"><ele>-1.4</ele><time>2026-07-23T09:02:15Z</time></trkpt>
			<trkpt lat="54.948310" lon="20.469340"><ele>-1.3</ele><time>2026-07-23T09:02:18Z</time></trkpt>
			<trkpt lat="54.948190" lon="20.469270"><ele>-1.2</ele><time>2026-07-23T09:02:22Z</time></trkpt>
			<trkpt lat="54.946330" lon="20.468040"><ele>-0.3</ele><time>2026-07-23T09:02:26Z</time></trkpt>
			<trkpt lat="54.945580" lon="20.467580"><ele>0.2</ele><time>2026-07-23T09:02:30Z</time></trkpt>
			<trkpt lat="54.945410" lon="20.468550"><ele>0.4</ele><time>2026-07-23T09:02:33Z</time></trkpt>
			<trkpt lat="54.945240" lon="20.469680"><ele>0.2</ele><time>2026-07-23T09:02:37Z</time></trkpt>
			<trkpt lat="54.945140" lon="20.470230"><ele>0.1</ele><time>2026-07-23T09:02:41Z</time></trkpt>
			<trkpt lat="54.945030" lon="20.470520"><ele>0.1</ele><time>2026-07-23T09:02:45Z</time></trkpt>
			<trkpt lat="54.944870" lon="20.470780"><ele>0.0</ele><time>2026-07-23T09:02:48Z</time></trkpt>
			<trkpt lat="54.944660" lon="20.470900"><ele>-0.1</ele><time>2026-07-23T09:02:52Z</time></trkpt>
			<trkpt lat="54.944120" lon="20.471220"><ele>-0.8</ele><time>2026-07-23T09:02:56Z</time></trkpt>
			<trkpt lat="54.943410" lon="20.471580"><ele>-1.7</ele><time>2026-07-23T09:02:59Z</time></trkpt>
			<trkpt lat="54.943270" lon="20.471650"><ele>-1.9</ele><time>2026-07-23T09:03:03Z</time></trkpt>
			<trkpt lat="54.943040" lon="20.471760"><ele>-2.2</ele><time>2026-07-23T09:03:07Z</time></trkpt>
			<trkpt lat="54.942510" lon="20.472030"><ele>-1.9</ele><time>2026-07-23T09:03:11Z</time></trkpt>
			<trkpt lat="54.942300" lon="20.472130"><ele>-1.7</ele><time>2026-07-23T09:03:14Z</time></trkpt>
			<trkpt lat="54.941720" lon="20.472420"><ele>-1.3</ele><time>2026-07-23T09:03:18Z</time></trkpt>
			<trkpt lat="54.941050" lon="20.472770"><ele>-0.6</ele><time>2026-07-23T09:03:22Z</time></trkpt>
			<trkpt lat="54.941050" lon="20.472770"><ele>-0.6</ele><time>2026-07-23T09:03:28Z</time></trkpt>
			<trkpt lat="54.937730" lon="20.474470"><ele>4.9</ele><time>2026-07-23T09:03:35Z</time></trkpt>
			<trkpt lat="54.934610" lon="20.475930"><ele>7.6</ele><time>2026-07-23T09:03:41Z</time></trkpt>
			<trkpt lat="54.933360" lon="20.476680"><ele>9.9</ele><time>2026-07-23T09:03:48Z</time></trkpt>
			<trkpt lat="54.933280" lon="20.476760"><ele>10.1</ele><time>2026-07-23T09:03:54Z</time></trkpt>
			<trkpt lat="54.932930" lon="20.477200"><ele>10.9</ele><time>2026-07-23T09:04:01Z</time></trkpt>
			<trkpt lat="54.932630" lon="20.477690"><ele>10.9</ele><time>2026-07-23T09:04:07Z</time></trkpt>
			<trkpt lat="54.932400" lon="20.478250"><ele>9.7</ele><time>2026-07-23T09:04:13Z</time></trkpt>
			<trkpt lat="54.932190" lon="20.478850"><ele>8.4</ele><time>2026-07-23T09:04:20Z</time></trkpt>
			<trkpt lat="54.932040" lon="20.479630"><ele>6.9</ele><time>2026-07-23T09:04:26Z</time></trkpt>
			<trkpt lat="54.931920" lon="20.480430"><ele>5.6</ele><time>2026-07-23T09:04:33Z</time></trkpt>
			<trkpt lat="54.931900" lon="20.481340"><ele>5.1</ele><time>2026-07-23T09:04:39Z</time></trkpt>
			<trkpt lat="54.931960" lon="20.482370"><ele>4.4</ele><time>2026-07-23T09:04:46Z</time></trkpt>
			<trkpt lat="54.932330" lon="20.484190"><ele>3.7</ele><time>2026-07-23T09:04:52Z</time></trkpt>
			<trkpt lat="54.932740" lon="20.486570"><ele>3.1</ele><time>2026-07-23T09:04:59Z</time></trkpt>
			<trkpt lat="54.933260" lon="20.489290"><ele>0.2</ele><time>2026-07-23T09:05:05Z</time></trkpt>
			<trkpt lat="54.934030" lon="20.493260"><ele>-4.0</ele><time>2026-07-23T09:05:12Z</time></trkpt>
			<trkpt lat="54.934450" lon="20.495150"><ele>-4.8</ele><time>2026-07-23T09:05:18Z</time></trkpt>
			<trkpt lat="54.936110" lon="20.503820"><ele>-3.5</ele><time>2026-07-23T09:05:24Z</time></trkpt>
			<trkpt lat="54.936140" lon="20.503970"><ele>-3.4</ele><time>2026-07-23T09:05:31Z</time></trkpt>
			<trkpt lat="54.936210" lon="20.504370"><ele>-3.0</ele><time>2026-07-23T09:05:37Z</time></trkpt>
			<trkpt lat="54.936270" lon="20.504650"><ele>-2.4</ele><time>2026-07-23T09:05:44Z</time></trkpt>
			<trkpt lat="54.936430" lon="20.505500"><ele>-0.7</ele><time>2026-07-23T09:05:50Z</time></trkpt>
			<trkpt lat="54.936620" lon="20.506500"><ele>1.3</ele><time>2026-07-23T09:05:57Z</time></trkpt>
			<trkpt lat="54.936650" lon="20.506760"><ele>1.8</ele><time>2026-07-23T09:06:03Z</time></trkpt>
			<trkpt lat="54.936670" lon="20.506910"><ele>2.1</ele><time>2026-07-23T09:06:10Z</time></trkpt>
			<trkpt lat="54.936670" lon="20.507330"><ele>2.7</ele><time>2026-07-23T09:06:16Z</time></trkpt>
			<trkpt lat="54.936660" lon="20.507770"><ele>2.7</ele><time>2026-07-23T09:06:23Z</time></trkpt>
			<trkpt lat="54.936630" lon="20.508260"><ele>2.7</ele><time>2026-07-23T09:06:29Z</time></trkpt>
			<trkpt lat="54.936620" lon="20.508460"><ele>2.7</ele><time>2026-07-23T09:06:35Z</time></trkpt>
			<trkpt lat="54.936540" lon="20.509360"><ele>2.8</ele><time>2026-07-23T09:06:42Z</time></trkpt>
			<trkpt lat="54.936500" lon="20.509860"><ele>2.8</ele><time>2026-07-23T09:06:48Z</time></trkpt>
			<trkpt lat="54.936500" lon="20.509860"><ele>2.8</ele><time>2026-07-23T09:06:55Z</time></trkpt>
			<trkpt lat="54.936430" lon="20.510740"><ele>3.3</ele><time>2026-07-23T09:07:02Z</time></trkpt>
			<trkpt lat="54.932560" lon="20.510080"><ele>5.6</ele><time>2026-07-23T09:07:08Z</time></trkpt>
			<trkpt lat="54.931420" lon="20.509880"><ele>2.3</ele><time>2026-07-23T09:07:15Z</time></trkpt>
			<trkpt lat="54.930790" lon="20.509770"><ele>1.8</ele><time>2026-07-23T09:07:22Z</time></trkpt>
			<trkpt lat="54.930210" lon="20.509670"><ele>1.7</ele><time>2026-07-23T09:07:28Z</time></trkpt>
			<trkpt lat="54.929550" lon="20.509560"><ele>1.7</ele><time>2026-07-23T09:07:35Z</time></trkpt>
			<trkpt lat="54.927810" lon="20.509260"><ele>5.2</ele><time>2026-07-23T09:07:42Z</time></trkpt>
			<trkpt lat="54.927250" lon="20.509160"><ele>5.3</ele><time>2026-07-23T09:07:48Z</time></trkpt>
			<trkpt lat="54.925160" lon="20.508800"><ele>5.6</ele><time>2026-07-23T09:07:55Z</time></trkpt>
			<trkpt lat="54.923140" lon="20.508460"><ele>6.9</ele><time>2026-07-23T09:08:02Z</time></trkpt>
			<trkpt lat="54.923000" lon="20.508430"><ele>6.9</ele><time>2026-07-23T09:08:08Z</time></trkpt>
			<trkpt lat="54.922510" lon="20.508340"><ele>6.9</ele><time>2026-07-23T09:08:15Z</time></trkpt>
			<trkpt lat="54.921920" lon="20.508170"><ele>6.6</ele><time>2026-07-23T09:08:22Z</time></trkpt>
			<trkpt lat="54.921060" lon="20.507770"><ele>5.8</ele><time>2026-07-23T09:08:28Z</time></trkpt>
			<trkpt lat="54.920420" lon="20.507430"><ele>5.1</ele><time>2026-07-23T09:08:35Z</time></trkpt>
			<trkpt lat="54.919460" lon="20.506800"><ele>3.1</ele><time>2026-07-23T09:08:42Z</time></trkpt>
			<trkpt lat="54.917480" lon="20.505060"><ele>1.6</ele><time>2026-07-23T09:08:48Z</time></trkpt>
			<trkpt lat="54.916490" lon="20.504200"><ele>2.2</ele><time>2026-07-23T09:08:55Z</time></trkpt>
			<trkpt lat="54.916300" lon="20.504030"><ele>2.4</ele><time>2026-07-23T09:09:02Z</time></trkpt>
			<trkpt lat="54.915720" lon="20.503590"><ele>2.9</ele><time>2026-07-23T09:09:08Z</time></trkpt>
			<trkpt lat="54.915050" lon="20.503000"><ele>4.3</ele><time>2026-07-23T09:09:15Z</time></trkpt>
			<trkpt lat="54.913780" lon="20.501890"><ele>6.9</ele><time>2026-07-23T09:09:22Z</time></trkpt>
			<trkpt lat="54.910440" lon="20.499010"><ele>5.1</ele><time>2026-07-23T09:09:28Z</time></trkpt>
			<trkpt lat="54.908830" lon="20.497610"><ele>1.8</ele><time>2026-07-23T09:09:35Z</time></trkpt>
			<trkpt lat="54.908440" lon="20.497150"><ele>1.6</ele><time>2026-07-23T09:09:42Z</time></trkpt>
			<trkpt lat="54.908350" lon="20.496880"><ele>1.5</ele><time>2026-07-23T09:09:49Z</time></trkpt>
			<trkpt lat="54.908300" lon="20.496460"><ele>1.4</ele><time>2026-07-23T09:09:55Z</time></trkpt>
			<trkpt lat="54.908360" lon="20.496010"><ele>1.2</ele><time>2026-07-23T09:10:02Z</time></trkpt>
			<trkpt lat="54.908590" lon="20.495520"><ele>1.1</ele><time>2026-07-23T09:10:09Z</time></trkpt>
			<trkpt lat="54.908830" lon="20.495320"><ele>0.9</ele><time>2026-07-23T09:10:15Z</time></trkpt>
			<trkpt lat="54.909210" lon="20.495220"><ele>0.8</ele><time>2026-07-23T09:10:22Z</time></trkpt>
			<trkpt lat="54.909570" lon="20.495200"><ele>0.6</ele><time>2026-07-23T09:10:29Z</time></trkpt>
			<trkpt lat="54.909820" lon="20.495280"><ele>0.5</ele><time>2026-07-23T09:10:35Z</time></trkpt>
			<trkpt lat="54.910030" lon="20.495540"><ele>0.4</ele><time>2026-07-23T09:10:42Z</time></trkpt>
			<trkpt lat="54.910180" lon="20.495950"><ele>0.5</ele><time>2026-07-23T09:10:49Z</time></trkpt>
			<trkpt lat="54.910210" lon="20.496410"><ele>0.9</ele><time>2026-07-23T09:10:55Z</time></trkpt>
			<trkpt lat="54.910130" lon="20.496900"><ele>1.4</ele><time>2026-07-23T09:11:02Z</time></trkpt>
			<trkpt lat="54.909900" lon="20.497460"><ele>2.0</ele><time>2026-07-23T09:11:09Z</time></trkpt>
			<trkpt lat="54.909050" lon="20.498840"><ele>3.9</ele><time>2026-07-23T09:11:15Z</time></trkpt>
			<trkpt lat="54.908770" lon="20.499230"><ele>4.5</ele><time>2026-07-23T09:11:22Z</time></trkpt>
			<trkpt lat="54.907730" lon="20.500930"><ele>7.4</ele><time>2026-07-23T09:11:29Z</time></trkpt>
			<trkpt lat="54.906790" lon="20.502510"><ele>11.6</ele><time>2026-07-23T09:11:35Z</time></trkpt>
			<trkpt lat="54.905120" lon="20.505210"><ele>10.7</ele><time>2026-07-23T09:11:42Z</time></trkpt>
			<trkpt lat="54.900060" lon="20.513430"><ele>5.8</ele><time>2026-07-23T09:11:49Z</time></trkpt>
			<trkpt lat="54.896960" lon="20.518490"><ele>5.5</ele><time>2026-07-23T09:11:55Z</time></trkpt>
			<trkpt lat="54.896010" lon="20.519830"><ele>6.2</ele><time>2026-07-23T09:12:02Z</time></trkpt>
			<trkpt lat="54.893200" lon="20.523280"><ele>8.2</ele><time>2026-07-23T09:12:09Z</time></trkpt>
			<trkpt lat="54.890170" lon="20.526050"><ele>6.7</ele><time>2026-07-23T09:12:15Z</time></trkpt>
			<trkpt lat="54.882440" lon="20.532120"><ele>14.1</ele><time>2026-07-23T09:12:22Z</time></trkpt>
			<trkpt lat="54.882440" lon="20.532130"><ele>14.1</ele><time>2026-07-23T09:12:26Z</time></trkpt>
			<trkpt lat="54.879300" lon="20.534590"><ele>15.0</ele><time>2026-07-23T09:12:29Z</time></trkpt>
			<trkpt lat="54.872520" lon="20.539820"><ele>17.7</ele><time>2026-07-23T09:12:33Z</time></trkpt>
			<trkpt lat="54.868790" lon="20.542790"><ele>11.4</ele><time>2026-07-23T09:12:37Z</time></trkpt>
			<trkpt lat="54.868490" lon="20.543030"><ele>11.3</ele><time>2026-07-23T09:12:40Z</time></trkpt>
			<trkpt lat="54.865020" lon="20.545770"><ele>13.3</ele><time>2026-07-23T09:12:44Z</time></trkpt>
			<trkpt lat="54.858130" lon="20.551130"><ele>16.6</ele><time>2026-07-23T09:12:48Z</time></trkpt>
			<trkpt lat="54.857040" lon="20.552040"><ele>17.9</ele><time>2026-07-23T09:12:51Z</time></trkpt>
			<trkpt lat="54.856270" lon="20.552660"><ele>17.8</ele><time>2026-07-23T09:12:55Z</time></trkpt>
			<trkpt lat="54.852770" lon="20.555420"><ele>20.1</ele><time>2026-07-23T09:12:59Z</time></trkpt>
			<trkpt lat="54.851720" lon="20.556340"><ele>20.7</ele><time>2026-07-23T09:13:02Z</time></trkpt>
			<trkpt lat="54.850400" lon="20.557640"><ele>20.2</ele><time>2026-07-23T09:13:06Z</time></trkpt>
			<trkpt lat="54.846580" lon="20.562460"><ele>20.4</ele><time>2026-07-23T09:13:10Z</time></trkpt>
			<trkpt lat="54.846260" lon="20.562790"><ele>20.1</ele><time>2026-07-23T09:13:13Z</time></trkpt>
			<trkpt lat="54.845420" lon="20.563780"><ele>20.0</ele><time>2026-07-23T09:13:17Z</time></trkpt>
			<trkpt lat="54.845280" lon="20.563910"><ele>19.9</ele><time>2026-07-23T09:13:21Z</time></trkpt>
			<trkpt lat="54.845150" lon="20.563980"><ele>19.9</ele><time>2026-07-23T09:13:25Z</time></trkpt>
			<trkpt lat="54.845060" lon="20.564010"><ele>19.9</ele><time>2026-07-23T09:13:28Z</time></trkpt>
			<trkpt lat="54.844950" lon="20.564010"><ele>19.9</ele><time>2026-07-23T09:13:32Z</time></trkpt>
			<trkpt lat="54.844840" lon="20.563960"><ele>19.9</ele><time>2026-07-23T09:13:36Z</time></trkpt>
			<trkpt lat="54.844670" lon="20.563820"><ele>19.9</ele><time>2026-07-23T09:13:39Z</time></trkpt>
			<trkpt lat="54.844520" lon="20.563560"><ele>19.9</ele><time>2026-07-23T09:13:43Z</time></trkpt>
			<trkpt lat="54.844460" lon="20.563380"><ele>19.9</ele><time>2026-07-23T09:13:47Z</time></trkpt>
			<trkpt lat="54.844430" lon="20.563200"><ele>19.8</ele><time>2026-07-23T09:13:50Z</time></trkpt>
			<trkpt lat="54.844410" lon="20.563000"><ele>19.8</ele><time>2026-07-23T09:13:54Z</time></trkpt>
			<trkpt lat="54.844420" lon="20.562810"><ele>19.7</ele><time>2026-07-23T09:13:58Z</time></trkpt>
			<trkpt lat="54.844450" lon="20.562600"><ele>19.7</ele><time>2026-07-23T09:14:01Z</time></trkpt>
			<trkpt lat="54.844500" lon="20.562400"><ele>19.7</ele><time>2026-07-23T09:14:05Z</time></trkpt>
			<trkpt lat="54.844590" lon="20.562230"><ele>19.6</ele><time>2026-07-23T09:14:09Z</time></trkpt>
			<trkpt lat="54.844660" lon="20.562110"><ele>19.6</ele><time>2026-07-23T09:14:12Z</time></trkpt>
			<trkpt lat="54.844740" lon="20.562030"><ele>19.6</ele><time>2026-07-23T09:14:16Z</time></trkpt>
			<trkpt lat="54.844900" lon="20.561920"><ele>19.5</ele><time>2026-07-23T09:14:20Z</time></trkpt>
			<trkpt lat="54.845060" lon="20.561900"><ele>19.4</ele><time>2026-07-23T09:14:23Z</time></trkpt>
			<trkpt lat="54.845190" lon="20.561940"><ele>19.4</ele><time>2026-07-23T09:14:27Z</time></trkpt>
			<trkpt lat="54.845430" lon="20.562130"><ele>19.3</ele><time>2026-07-23T09:14:31Z</time></trkpt>
			<trkpt lat="54.845820" lon="20.562620"><ele>19.5</ele><time>2026-07-23T09:14:34Z</time></trkpt>
			<trkpt lat="54.846560" lon="20.563560"><ele>19.9</ele><time>2026-07-23T09:14:38Z</time></trkpt>
			<trkpt lat="54.847500" lon="20.564760"><ele>21.6</ele><time>2026-07-23T09:14:42Z</time></trkpt>
			<trkpt lat="54.848430" lon="20.565770"><ele>23.9</ele><time>2026-07-23T09:14:45Z</time></trkpt>
			<trkpt lat="54.849290" lon="20.566490"><ele>22.1</ele><time>2026-07-23T09:14:49Z</time></trkpt>
			<trkpt lat="54.849700" lon="20.566770"><ele>21.3</ele><time>2026-07-23T09:14:53Z</time></trkpt>
			<trkpt lat="54.850100" lon="20.567000"><ele>20.5</ele><time>2026-07-23T09:14:56Z</time></trkpt>
			<trkpt lat="54.850940" lon="20.567430"><ele>20.8</ele><time>2026-07-23T09:15:00Z</time></trkpt>
			<trkpt lat="54.851450" lon="20.567620"><ele>20.9</ele><time>2026-07-23T09:15:04Z</time></trkpt>
			<trkpt lat="54.851990" lon="20.567780"><ele>21.0</ele><time>2026-07-23T09:15:07Z</time></trkpt>
			<trkpt lat="54.852320" lon="20.567910"><ele>21.0</ele><time>2026-07-23T09:15:11Z</time></trkpt>
			<trkpt lat="54.852640" lon="20.567990"><ele>21.0</ele><time>2026-07-23T09:15:15Z</time></trkpt>
			<trkpt lat="54.853110" lon="20.568060"><ele>21.0</ele><time>2026-07-23T09:15:18Z</time></trkpt>
			<trkpt lat="54.853170" lon="20.568090"><ele>21.0</ele><time>2026-07-23T09:15:22Z</time></trkpt>
			<trkpt lat="54.853270" lon="20.568200"><ele>21.0</ele><time>2026-07-23T09:15:26Z</time></trkpt>
			<trkpt lat="54.853300" lon="20.568280"><ele>21.0</ele><time>2026-07-23T09:15:30Z</time></trkpt>
			<trkpt lat="54.853320" lon="20.568400"><ele>21.0</ele><time>2026-07-23T09:15:33Z</time></trkpt>
			<trkpt lat="54.853370" lon="20.568910"><ele>21.0</ele><time>2026-07-23T09:15:37Z</time></trkpt>
			<trkpt lat="54.853410" lon="20.569180"><ele>20.9</ele><time>2026-07-23T09:15:41Z</time></trkpt>
			<trkpt lat="54.853480" lon="20.569300"><ele>20.9</ele><time>2026-07-23T09:15:44Z</time></trkpt>
			<trkpt lat="54.853550" lon="20.569370"><ele>20.9</ele><time>2026-07-23T09:15:48Z</time></trkpt>
			<trkpt lat="54.853640" lon="20.569420"><ele>20.9</ele><time>2026-07-23T09:15:52Z</time></trkpt>
			<trkpt lat="54.853760" lon="20.569430"><ele>20.9</ele><time>2026-07-23T09:15:55Z</time></trkpt>
			<trkpt lat="54.854000" lon="20.569420"><ele>20.9</ele><time>2026-07-23T09:15:59Z</time></trkpt>
			<trkpt lat="54.854840" lon="20.569360"><ele>20.7</ele><time>2026-07-23T09:16:03Z</time></trkpt>
			<trkpt lat="54.855180" lon="20.569300"><ele>20.5</ele><time>2026-07-23T09:16:06Z</time></trkpt>
			<trkpt lat="54.855510" lon="20.569210"><ele>20.3</ele><time>2026-07-23T09:16:10Z</time></trkpt>
			<trkpt lat="54.855970" lon="20.569050"><ele>20.0</ele><time>2026-07-23T09:16:14Z</time></trkpt>
			<trkpt lat="54.857030" lon="20.568650"><ele>19.2</ele><time>2026-07-23T09:16:17Z</time></trkpt>
			<trkpt lat="54.857140" lon="20.569010"><ele>19.0</ele><time>2026-07-23T09:16:21Z</time></trkpt>
			<trkpt lat="54.857190" lon="20.569270"><ele>18.9</ele><time>2026-07-23T09:16:25Z</time></trkpt>
			<trkpt lat="54.857190" lon="20.569260"><ele>18.9</ele><time>2026-07-23T09:16:29Z</time></trkpt>
			<trkpt lat="54.857420" lon="20.570430"><ele>18.3</ele><time>2026-07-23T09:16:32Z</time></trkpt>
			<trkpt lat="54.857950" lon="20.573570"><ele>19.3</ele><time>2026-07-23T09:16:36Z</time></trkpt>
			<trkpt lat="54.858020" lon="20.573930"><ele>19.5</ele><time>2026-07-23T09:16:40Z</time></trkpt>
			<trkpt lat="54.858120" lon="20.574280"><ele>19.7</ele><time>2026-07-23T09:16:44Z</time></trkpt>
			<trkpt lat="54.858610" lon="20.575500"><ele>20.2</ele><time>2026-07-23T09:16:48Z</time></trkpt>
			<trkpt lat="54.858690" lon="20.575680"><ele>20.3</ele><time>2026-07-23T09:16:52Z</time></trkpt>
			<trkpt lat="54.859010" lon="20.576240"><ele>20.6</ele><time>2026-07-23T09:16:55Z</time></trkpt>
			<trkpt lat="54.859440" lon="20.576720"><ele>20.6</ele><time>2026-07-23T09:16:59Z</time></trkpt>
			<trkpt lat="54.859840" lon="20.577170"><ele>20.4</ele><time>2026-07-23T09:17:03Z</time></trkpt>
			<trkpt lat="54.860950" lon="20.578380"><ele>20.2</ele><time>2026-07-23T09:17:07Z</time></trkpt>
			<trkpt lat="54.860890" lon="20.578520"><ele>20.3</ele><time>2026-07-23T09:17:11Z</time></trkpt>
			<trkpt lat="54.860520" lon="20.579390"><ele>20.7</ele><time>2026-07-23T09:17:15Z</time></trkpt>
			<trkpt lat="54.859330" lon="20.582090"><ele>22.0</ele><time>2026-07-23T09:17:18Z</time></trkpt>
			<trkpt lat="54.859170" lon="20.582520"><ele>22.2</ele><time>2026-07-23T09:17:22Z</time></trkpt>
			<trkpt lat="54.858800" lon="20.583370"><ele>22.2</ele><time>2026-07-23T09:17:26Z</time></trkpt>
			<trkpt lat="54.858720" lon="20.583590"><ele>22.0</ele><time>2026-07-23T09:17:30Z</time></trkpt>
			<trkpt lat="54.858670" lon="20.583810"><ele>21.9</ele><time>2026-07-23T09:17:34Z</time></trkpt>
			<trkpt lat="54.858630" lon="20.584170"><ele>21.7</ele><time>2026-07-23T09:17:38Z</time></trkpt>
			<trkpt lat="54.858620" lon="20.584700"><ele>21.3</ele><time>2026-07-23T09:17:41Z</time></trkpt>
			<trkpt lat="54.858740" lon="20.586730"><ele>19.9</ele><time>2026-07-23T09:17:45Z</time></trkpt>
			<trkpt lat="54.858820" lon="20.587320"><ele>19.3</ele><time>2026-07-23T09:17:49Z</time></trkpt>
			<trkpt lat="54.858960" lon="20.587540"><ele>19.0</ele><time>2026-07-23T09:17:53Z</time></trkpt>
			<trkpt lat="54.859060" lon="20.587620"><ele>18.8</ele><time>2026-07-23T09:17:57Z</time></trkpt>
			<trkpt lat="54.859550" lon="20.587850"><ele>18.0</ele><time>2026-07-23T09:18:01Z</time></trkpt>
			<trkpt lat="54.859640" lon="20.587930"><ele>17.9</ele><time>2026-07-23T09:18:04Z</time></trkpt>
			<trkpt lat="54.859710" lon="20.588030"><ele>17.7</ele><time>2026-07-23T09:18:08Z</time></trkpt>
			<trkpt lat="54.860060" lon="20.588910"><ele>17.0</ele><time>2026-07-23T09:18:12Z</time></trkpt>
			<trkpt lat="54.860120" lon="20.589120"><ele>16.9</ele><time>2026-07-23T09:18:16Z</time></trkpt>
			<trkpt lat="54.860140" lon="20.589550"><ele>16.6</ele><time>2026-07-23T09:18:20Z</time></trkpt>
			<trkpt lat="54.860110" lon="20.590630"><ele>16.0</ele><time>2026-07-23T09:18:24Z</time></trkpt>
			<trkpt lat="54.860050" lon="20.591090"><ele>15.7</ele><time>2026-07-23T09:18:28Z</time></trkpt>
			<trkpt lat="54.859680" lon="20.592570"><ele>16.3</ele><time>2026-07-23T09:18:31Z</time></trkpt>
			<trkpt lat="54.859370" lon="20.593670"><ele>16.8</ele><time>2026-07-23T09:18:35Z</time></trkpt>
			<trkpt lat="54.859320" lon="20.594120"><ele>16.9</ele><time>2026-07-23T09:18:39Z</time></trkpt>
			<trkpt lat="54.859340" lon="20.594330"><ele>17.0</ele><time>2026-07-23T09:18:43Z</time></trkpt>
			<trkpt lat="54.859400" lon="20.594630"><ele>17.1</ele><time>2026-07-23T09:18:47Z</time></trkpt>
			<trkpt lat="54.859510" lon="20.595040"><ele>17.2</ele><time>2026-07-23T09:18:51Z</time></trkpt>
			<trkpt lat="54.859870" lon="20.595930"><ele>17.5</ele><time>2026-07-23T09:18:54Z</time></trkpt>
			<trkpt lat="54.860360" lon="20.597140"><ele>17.7</ele><time>2026-07-23T09:18:58Z</time></trkpt>
			<trkpt lat="54.860940" lon="20.598590"><ele>17.4</ele><time>2026-07-23T09:19:02Z</time></trkpt>
			<trkpt lat="54.861120" lon="20.598890"><ele>17.4</ele><time>2026-07-23T09:19:06Z</time></trkpt>
			<trkpt lat="54.861670" lon="20.599630"><ele>17.2</ele><time>2026-07-23T09:19:10Z</time></trkpt>
			<trkpt lat="54.862710" lon="20.600640"><ele>17.0</ele><time>2026-07-23T09:19:14Z</time></trkpt>
			<trkpt lat="54.864480" lon="20.602330"><ele>16.6</ele><time>2026-07-23T09:19:17Z</time></trkpt>
			<trkpt lat="54.864750" lon="20.602590"><ele>16.5</ele><time>2026-07-23T09:19:21Z</time></trkpt>
			<trkpt lat="54.866400" lon="20.604230"><ele>16.2</ele><time>2026-07-23T09:19:25Z</time></trkpt>
			<trkpt lat="54.866600" lon="20.604470"><ele>16.2</ele><time>2026-07-23T09:19:29Z</time></trkpt>
			<trkpt lat="54.866670" lon="20.604650"><ele>16.3</ele><time>2026-07-23T09:19:33Z</time></trkpt>
			<trkpt lat="54.866760" lon="20.605120"><ele>16.4</ele><time>2026-07-23T09:19:37Z</time></trkpt>
			<trkpt lat="54.866560" lon="20.608930"><ele>17.5</ele><time>2026-07-23T09:19:40Z</time></trkpt>
			<trkpt lat="54.866460" lon="20.609790"><ele>17.5</ele><time>2026-07-23T09:19:44Z</time></trkpt>
			<trkpt lat="54.865440" lon="20.615030"><ele>17.5</ele><time>2026-07-23T09:19:48Z</time></trkpt>
			<trkpt lat="54.865400" lon="20.615440"><ele>17.4</ele><time>2026-07-23T09:19:52Z</time></trkpt>
			<trkpt lat="54.865370" lon="20.616050"><ele>17.2</ele><time>2026-07-23T09:19:56Z</time></trkpt>
			<trkpt lat="54.865550" lon="20.623330"><ele>16.1</ele><time>2026-07-23T09:20:00Z</time></trkpt>
			<trkpt lat="54.865590" lon="20.623990"><ele>16.0</ele><time>2026-07-23T09:20:04Z</time></trkpt>
			<trkpt lat="54.865590" lon="20.623980"><ele>16.0</ele><time>2026-07-23T09:20:16Z</time></trkpt>
			<trkpt lat="54.865720" lon="20.626770"><ele>16.3</ele><time>2026-07-23T09:20:29Z</time></trkpt>
			<trkpt lat="54.866020" lon="20.632470"><ele>11.3</ele><time>2026-07-23T09:20:41Z</time></trkpt>
			<trkpt lat="54.866050" lon="20.635160"><ele>12.1</ele><time>2026-07-23T09:20:54Z</time></trkpt>
			<trkpt lat="54.866120" lon="20.638440"><ele>14.4</ele><time>2026-07-23T09:21:06Z</time></trkpt>
			<trkpt lat="54.867120" lon="20.647050"><ele>14.5</ele><time>2026-07-23T09:21:19Z</time></trkpt>
			<trkpt lat="54.867240" lon="20.648140"><ele>14.5</ele><time>2026-07-23T09:21:31Z</time></trkpt>
			<trkpt lat="54.867270" lon="20.649110"><ele>14.5</ele><time>2026-07-23T09:21:44Z</time></trkpt>
			<trkpt lat="54.867210" lon="20.649750"><ele>14.3</ele><time>2026-07-23T09:21:56Z</time></trkpt>
			<trkpt lat="54.867110" lon="20.650470"><ele>13.7</ele><time>2026-07-23T09:22:09Z</time></trkpt>
			<trkpt lat="54.866880" lon="20.651400"><ele>12.9</ele><time>2026-07-23T09:22:21Z</time></trkpt>
			<trkpt lat="54.865490" lon="20.656030"><ele>11.5</ele><time>2026-07-23T09:22:34Z</time></trkpt>
			<trkpt lat="54.871010" lon="20.663330"><ele>8.5</ele><time>2026-07-23T09:22:46Z</time></trkpt>
			<trkpt lat="54.872150" lon="20.664440"><ele>7.2</ele><time>2026-07-23T09:22:59Z</time></trkpt>
			<trkpt lat="54.872320" lon="20.664600"><ele>7.1</ele><time>2026-07-23T09:23:11Z</time></trkpt>
			<trkpt lat="54.872360" lon="20.664620"><ele>7.0</ele><time>2026-07-23T09:23:24Z</time></trkpt>
			<trkpt lat="54.878060" lon="20.670160"><ele>6.9</ele><time>2026-07-23T09:23:36Z</time></trkpt>
			<trkpt lat="54.883400" lon="20.675290"><ele>5.5</ele><time>2026-07-23T09:23:49Z</time></trkpt>
			<trkpt lat="54.883360" lon="20.677710"><ele>7.1</ele><time>2026-07-23T09:24:01Z</time></trkpt>
			<trkpt lat="54.883290" lon="20.681640"><ele>8.0</ele><time>2026-07-23T09:24:14Z</time></trkpt>
			<trkpt lat="54.883250" lon="20.683660"><ele>6.7</ele><time>2026-07-23T09:24:26Z</time></trkpt>
			<trkpt lat="54.883200" lon="20.684010"><ele>6.5</ele><time>2026-07-23T09:24:39Z</time></trkpt>
			<trkpt lat="54.882190" lon="20.689810"><ele>6.9</ele><time>2026-07-23T09:24:51Z</time></trkpt>
			<trkpt lat="54.882120" lon="20.690400"><ele>6.6</ele><time>2026-07-23T09:25:04Z</time></trkpt>
			<trkpt lat="54.882060" lon="20.692700"><ele>5.2</ele><time>2026-07-23T09:25:16Z</time></trkpt>
			<trkpt lat="54.881990" lon="20.694130"><ele>4.4</ele><time>2026-07-23T09:25:29Z</time></trkpt>
			<trkpt lat="54.881450" lon="20.698260"><ele>4.6</ele><time>2026-07-23T09:25:41Z</time></trkpt>
			<trkpt lat="54.881270" lon="20.699370"><ele>4.6</ele><time>2026-07-23T09:25:54Z</time></trkpt>
			<trkpt lat="54.880760" lon="20.703030"><ele>4.3</ele><time>2026-07-23T09:26:06Z</time></trkpt>
			<trkpt lat="54.879980" lon="20.708630"><ele>4.0</ele><time>2026-07-23T09:26:19Z</time></trkpt>
			<trkpt lat="54.879380" lon="20.712840"><ele>4.3</ele><time>2026-07-23T09:26:31Z</time></trkpt>
			<trkpt lat="54.879380" lon="20.712840"><ele>4.3</ele><time>2026-07-23T09:26:40Z</time></trkpt>
			<trkpt lat="54.878880" lon="20.716750"><ele>3.7</ele><time>2026-07-23T09:26:48Z</time></trkpt>
			<trkpt lat="54.878500" lon="20.719950"><ele>4.2</ele><time>2026-07-23T09:26:57Z</time></trkpt>
			<trkpt lat="54.878070" lon="20.723110"><ele>5.1</ele><time>2026-07-23T09:27:06Z</time></trkpt>
			<trkpt lat="54.877330" lon="20.729440"><ele>4.8</ele><time>2026-07-23T09:27:15Z</time></trkpt>
			<trkpt lat="54.877220" lon="20.730350"><ele>4.7</ele><time>2026-07-23T09:27:23Z</time></trkpt>
			<trkpt lat="54.877150" lon="20.731050"><ele>4.9</ele><time>2026-07-23T09:27:32Z</time></trkpt>
			<trkpt lat="54.877130" lon="20.731380"><ele>5.2</ele><time>2026-07-23T09:27:41Z</time></trkpt>
			<trkpt lat="54.877170" lon="20.733580"><ele>6.7</ele><time>2026-07-23T09:27:49Z</time></trkpt>
			<trkpt lat="54.877220" lon="20.735970"><ele>7.8</ele><time>2026-07-23T09:27:58Z</time></trkpt>
			<trkpt lat="54.877190" lon="20.736710"><ele>8.1</ele><time>2026-07-23T09:28:07Z</time></trkpt>
			<trkpt lat="54.877150" lon="20.737060"><ele>8.2</ele><time>2026-07-23T09:28:16Z</time></trkpt>
			<trkpt lat="54.877010" lon="20.738270"><ele>8.1</ele><time>2026-07-23T09:28:24Z</time></trkpt>
			<trkpt lat="54.876970" lon="20.738840"><ele>8.1</ele><time>2026-07-23T09:28:33Z</time></trkpt>
			<trkpt lat="54.876910" lon="20.740770"><ele>7.8</ele><time>2026-07-23T09:28:42Z</time></trkpt>
			<trkpt lat="54.876870" lon="20.742810"><ele>7.1</ele><time>2026-07-23T09:28:50Z</time></trkpt>
			<trkpt lat="54.876770" lon="20.745090"><ele>7.3</ele><time>2026-07-23T09:28:59Z</time></trkpt>
			<trkpt lat="54.876530" lon="20.751400"><ele>6.0</ele><time>2026-07-23T09:29:08Z</time></trkpt>
			<trkpt lat="54.876500" lon="20.751980"><ele>6.0</ele><time>2026-07-23T09:29:17Z</time></trkpt>
			<trkpt lat="54.876400" lon="20.753590"><ele>5.5</ele><time>2026-07-23T09:29:25Z</time></trkpt>
			<trkpt lat="54.876270" lon="20.755200"><ele>4.8</ele><time>2026-07-23T09:29:34Z</time></trkpt>
			<trkpt lat="54.875790" lon="20.761240"><ele>4.4</ele><time>2026-07-23T09:29:43Z</time></trkpt>
			<trkpt lat="54.871540" lon="20.760270"><ele>3.9</ele><time>2026-07-23T09:29:51Z</time></trkpt>
			<trkpt lat="54.868570" lon="20.759640"><ele>5.2</ele><time>2026-07-23T09:30:00Z</time></trkpt>
			<trkpt lat="54.866040" lon="20.759160"><ele>5.6</ele><time>2026-07-23T09:30:09Z</time></trkpt>
			<trkpt lat="54.865930" lon="20.759130"><ele>5.6</ele><time>2026-07-23T09:30:18Z</time></trkpt>
			<trkpt lat="54.865430" lon="20.758970"><ele>5.6</ele><time>2026-07-23T09:30:26Z</time></trkpt>
			<trkpt lat="54.865140" lon="20.758990"><ele>5.6</ele><time>2026-07-23T09:30:35Z</time></trkpt>
			<trkpt lat="54.864850" lon="20.759050"><ele>5.6</ele><time>2026-07-23T09:30:44Z</time></trkpt>
			<trkpt lat="54.864480" lon="20.759290"><ele>5.7</ele><time>2026-07-23T09:30:52Z</time></trkpt>
			<trkpt lat="54.864280" lon="20.759550"><ele>5.9</ele><time>2026-07-23T09:31:01Z</time></trkpt>
			<trkpt lat="54.864070" lon="20.759860"><ele>6.1</ele><time>2026-07-23T09:31:10Z</time></trkpt>
			<trkpt lat="54.863530" lon="20.760920"><ele>6.8</ele><time>2026-07-23T09:31:19Z</time></trkpt>
			<trkpt lat="54.862570" lon="20.763180"><ele>6.7</ele><time>2026-07-23T09:31:27Z</time></trkpt>
			<trkpt lat="54.861820" lon="20.764860"><ele>6.4</ele><time>2026-07-23T09:31:36Z</time></trkpt>
			<trkpt lat="54.861620" lon="20.765140"><ele>6.3</ele><time>2026-07-23T09:31:45Z</time></trkpt>
			<trkpt lat="54.861240" lon="20.765490"><ele>6.1</ele><time>2026-07-23T09:31:53Z</time></trkpt>
			<trkpt lat="54.860980" lon="20.765750"><ele>6.0</ele><time>2026-07-23T09:32:02Z</time></trkpt>
			<trkpt lat="54.860760" lon="20.766030"><ele>6.0</ele><time>2026-07-23T09:32:11Z</time></trkpt>
			<trkpt lat="54.860220" lon="20.766980"><ele>6.0</ele><time>2026-07-23T09:32:20Z</time></trkpt>
			<trkpt lat="54.859980" lon="20.767470"><ele>6.0</ele><time>2026-07-23T09:32:28Z</time></trkpt>
			<trkpt lat="54.859840" lon="20.767840"><ele>6.0</ele><time>2026-07-23T09:32:37Z</time></trkpt>
			<trkpt lat="54.859730" lon="20.768190"><ele>6.0</ele><time>2026-07-23T09:32:46Z</time></trkpt>
			<trkpt lat="54.859650" lon="20.768560"><ele>5.7</ele><time>2026-07-23T09:32:55Z</time></trkpt>
			<trkpt lat="54.859580" lon="20.769110"><ele>5.3</ele><time>2026-07-23T09:33:03Z</time></trkpt>
			<trkpt lat="54.859220" lon="20.773500"><ele>4.0</ele><time>2026-07-23T09:33:12Z</time></trkpt>
			<trkpt lat="54.858890" lon="20.777210"><ele>4.0</ele><time>2026-07-23T09:33:21Z</time></trkpt>
			<trkpt lat="54.858660" lon="20.779950"><ele>4.3</ele><time>2026-07-23T09:33:29Z</time></trkpt>
			<trkpt lat="54.858610" lon="20.780870"><ele>4.4</ele><time>2026-07-23T09:33:38Z</time></trkpt>
			<trkpt lat="54.858620" lon="20.781450"><ele>4.4</ele><time>2026-07-23T09:33:47Z</time></trkpt>
			<trkpt lat="54.858930" lon="20.783290"><ele>4.5</ele><time>2026-07-23T09:33:56Z</time></trkpt>
			<trkpt lat="54.858970" lon="20.784100"><ele>4.6</ele><time>2026-07-23T09:34:04Z</time></trkpt>
			<trkpt lat="54.858960" lon="20.784830"><ele>4.7</ele><time>2026-07-23T09:34:13Z</time></trkpt>
			<trkpt lat="54.858850" lon="20.789300"><ele>4.8</ele><time>2026-07-23T09:34:22Z</time></trkpt>
			<trkpt lat="54.858840" lon="20.790820"><ele>4.9</ele><time>2026-07-23T09:34:30Z</time></trkpt>
			<trkpt lat="54.858850" lon="20.791790"><ele>5.0</ele><time>2026-07-23T09:34:39Z</time></trkpt>
			<trkpt lat="54.858940" lon="20.792480"><ele>5.0</ele><time>2026-07-23T09:34:48Z</time></trkpt>
			<trkpt lat="54.859130" lon="20.793610"><ele>4.7</ele><time>2026-07-23T09:34:57Z</time></trkpt>
			<trkpt lat="54.859330" lon="20.795280"><ele>3.7</ele><time>2026-07-23T09:35:05Z</time></trkpt>
			<trkpt lat="54.859320" lon="20.795490"><ele>3.6</ele><time>2026-07-23T09:35:14Z</time></trkpt>
			<trkpt lat="54.859280" lon="20.795610"><ele>3.5</ele><time>2026-07-23T09:35:23Z</time></trkpt>
			<trkpt lat="54.857570" lon="20.797130"><ele>5.8</ele><time>2026-07-23T09:35:31Z</time></trkpt>
			<trkpt lat="54.854970" lon="20.799410"><ele>6.6</ele><time>2026-07-23T09:35:40Z</time></trkpt>
			<trkpt lat="54.854860" lon="20.799450"><ele>6.5</ele><time>2026-07-23T09:35:49Z</time></trkpt>
			<trkpt lat="54.854300" lon="20.799530"><ele>6.1</ele><time>2026-07-23T09:35:58Z</time></trkpt>
			<trkpt lat="54.854190" lon="20.799570"><ele>6.0</ele><time>2026-07-23T09:36:06Z</time></trkpt>
			<trkpt lat="54.854090" lon="20.799700"><ele>6.0</ele><time>2026-07-23T09:36:15Z</time></trkpt>
			<trkpt lat="54.854030" lon="20.799830"><ele>6.0</ele><time>2026-07-23T09:36:24Z</time></trkpt>
			<trkpt lat="54.854020" lon="20.800050"><ele>6.1</ele><time>2026-07-23T09:36:32Z</time></trkpt>
			<trkpt lat="54.854000" lon="20.802830"><ele>6.4</ele><time>2026-07-23T09:36:41Z</time></trkpt>
			<trkpt lat="54.853980" lon="20.804270"><ele>6.3</ele><time>2026-07-23T09:36:50Z</time></trkpt>
			<trkpt lat="54.853960" lon="20.804490"><ele>6.3</ele><time>2026-07-23T09:36:59Z</time></trkpt>
			<trkpt lat="54.853820" lon="20.805210"><ele>6.2</ele><time>2026-07-23T09:37:07Z</time></trkpt>
			<trkpt lat="54.853660" lon="20.805870"><ele>6.1</ele><time>2026-07-23T09:37:16Z</time></trkpt>
			<trkpt lat="54.849450" lon="20.822650"><ele>7.0</ele><time>2026-07-23T09:37:25Z</time></trkpt>
			<trkpt lat="54.844470" lon="20.842850"><ele>6.8</ele><time>2026-07-23T09:37:33Z</time></trkpt>
			<trkpt lat="54.843850" lon="20.845210"><ele>5.9</ele><time>2026-07-23T09:37:42Z</time></trkpt>
			<trkpt lat="54.843350" lon="20.847260"><ele>6.9</ele><time>2026-07-23T09:37:51Z</time></trkpt>
			<trkpt lat="54.843290" lon="20.847460"><ele>7.1</ele><time>2026-07-23T09:38:00Z</time></trkpt>
			<trkpt lat="54.843240" lon="20.847530"><ele>7.2</ele><time>2026-07-23T09:38:08Z</time></trkpt>
			<trkpt lat="54.843090" lon="20.847540"><ele>7.5</ele><time>2026-07-23T09:38:17Z</time></trkpt>
			<trkpt lat="54.840820" lon="20.846530"><ele>8.9</ele><time>2026-07-23T09:38:26Z</time></trkpt>
			<trkpt lat="54.839660" lon="20.846050"><ele>8.8</ele><time>2026-07-23T09:38:34Z</time></trkpt>
			<trkpt lat="54.838940" lon="20.845870"><ele>8.7</ele><time>2026-07-23T09:38:43Z</time></trkpt>
			<trkpt lat="54.838780" lon="20.845870"><ele>8.7</ele><time>2026-07-23T09:38:52Z</time></trkpt>
			<trkpt lat="54.838680" lon="20.846010"><ele>8.6</ele><time>2026-07-23T09:39:01Z</time></trkpt>
			<trkpt lat="54.838300" lon="20.846630"><ele>8.4</ele><time>2026-07-23T09:39:09Z</time></trkpt>
			<trkpt lat="54.837640" lon="20.847400"><ele>8.1</ele><time>2026-07-23T09:39:18Z</time></trkpt>
			<trkpt lat="54.837020" lon="20.848130"><ele>8.2</ele><time>2026-07-23T09:39:27Z</time></trkpt>
			<trkpt lat="54.832670" lon="20.853310"><ele>8.2</ele><time>2026-07-23T09:39:35Z</time></trkpt>
			<trkpt lat="54.830540" lon="20.856040"><ele>8.3</ele><time>2026-07-23T09:39:44Z</time></trkpt>
			<trkpt lat="54.830280" lon="20.856440"><ele>8.2</ele><time>2026-07-23T09:39:53Z</time></trkpt>
			<trkpt lat="54.830160" lon="20.856670"><ele>8.2</ele><time>2026-07-23T09:40:02Z</time></trkpt>
			<trkpt lat="54.830090" lon="20.856910"><ele>8.1</ele><time>2026-07-23T09:40:10Z</time></trkpt>
			<trkpt lat="54.829140" lon="20.863910"><ele>6.4</ele><time>2026-07-23T09:40:19Z</time></trkpt>
			<trkpt lat="54.828560" lon="20.867850"><ele>5.5</ele><time>2026-07-23T09:40:28Z</time></trkpt>
			<trkpt lat="54.828560" lon="20.867850"><ele>5.5</ele><time>2026-07-23T09:40:34Z</time></trkpt>
			<trkpt lat="54.827320" lon="20.876350"><ele>2.4</ele><time>2026-07-23T09:40:41Z</time></trkpt>
			<trkpt lat="54.827120" lon="20.877850"><ele>1.8</ele><time>2026-07-23T09:40:47Z</time></trkpt>
			<trkpt lat="54.827080" lon="20.877980"><ele>1.8</ele><time>2026-07-23T09:40:53Z</time></trkpt>
			<trkpt lat="54.826990" lon="20.878050"><ele>1.7</ele><time>2026-07-23T09:41:00Z</time></trkpt>
			<trkpt lat="54.826910" lon="20.878060"><ele>1.8</ele><time>2026-07-23T09:41:06Z</time></trkpt>
			<trkpt lat="54.825140" lon="20.877920"><ele>2.8</ele><time>2026-07-23T09:41:13Z</time></trkpt>
			<trkpt lat="54.823200" lon="20.877790"><ele>3.2</ele><time>2026-07-23T09:41:19Z</time></trkpt>
			<trkpt lat="54.822450" lon="20.877700"><ele>4.0</ele><time>2026-07-23T09:41:26Z</time></trkpt>
			<trkpt lat="54.822290" lon="20.877590"><ele>4.2</ele><time>2026-07-23T09:41:32Z</time></trkpt>
			<trkpt lat="54.822060" lon="20.877310"><ele>4.5</ele><time>2026-07-23T09:41:38Z</time></trkpt>
			<trkpt lat="54.821940" lon="20.877160"><ele>4.6</ele><time>2026-07-23T09:41:45Z</time></trkpt>
			<trkpt lat="54.821210" lon="20.876110"><ele>5.3</ele><time>2026-07-23T09:41:51Z</time></trkpt>
			<trkpt lat="54.820380" lon="20.874870"><ele>6.0</ele><time>2026-07-23T09:41:58Z</time></trkpt>
			<trkpt lat="54.820240" lon="20.874760"><ele>6.2</ele><time>2026-07-23T09:42:04Z</time></trkpt>
			<trkpt lat="54.820050" lon="20.874650"><ele>6.4</ele><time>2026-07-23T09:42:11Z</time></trkpt>
			<trkpt lat="54.816980" lon="20.873770"><ele>8.2</ele><time>2026-07-23T09:42:17Z</time></trkpt>
			<trkpt lat="54.813940" lon="20.872900"><ele>11.1</ele><time>2026-07-23T09:42:24Z</time></trkpt>
			<trkpt lat="54.813100" lon="20.872760"><ele>11.8</ele><time>2026-07-23T09:42:30Z</time></trkpt>
			<trkpt lat="54.813070" lon="20.871810"><ele>11.3</ele><time>2026-07-23T09:42:36Z</time></trkpt>
			<trkpt lat="54.810970" lon="20.871440"><ele>9.2</ele><time>2026-07-23T09:42:43Z</time></trkpt>
			<trkpt lat="54.808770" lon="20.871150"><ele>8.8</ele><time>2026-07-23T09:42:49Z</time></trkpt>
			<trkpt lat="54.806480" lon="20.870800"><ele>6.8</ele><time>2026-07-23T09:42:56Z</time></trkpt>
			<trkpt lat="54.805890" lon="20.870870"><ele>6.6</ele><time>2026-07-23T09:43:02Z</time></trkpt>
			<trkpt lat="54.805460" lon="20.871040"><ele>6.4</ele><time>2026-07-23T09:43:09Z</time></trkpt>
			<trkpt lat="54.804990" lon="20.871100"><ele>6.2</ele><time>2026-07-23T09:43:15Z</time></trkpt>
			<trkpt lat="54.804810" lon="20.871030"><ele>6.1</ele><time>2026-07-23T09:43:21Z</time></trkpt>
			<trkpt lat="54.804400" lon="20.870860"><ele>6.6</ele><time>2026-07-23T09:43:28Z</time></trkpt>
			<trkpt lat="54.802880" lon="20.869830"><ele>8.2</ele><time>2026-07-23T09:43:34Z</time></trkpt>
			<trkpt lat="54.802690" lon="20.869990"><ele>8.2</ele><time>2026-07-23T09:43:41Z</time></trkpt>
			<trkpt lat="54.802470" lon="20.870280"><ele>8.2</ele><time>2026-07-23T09:43:47Z</time></trkpt>
			<trkpt lat="54.800290" lon="20.874060"><ele>8.6</ele><time>2026-07-23T09:43:54Z</time></trkpt>
			<trkpt lat="54.799400" lon="20.875900"><ele>9.4</ele><time>2026-07-23T09:44:00Z</time></trkpt>
			<trkpt lat="54.799260" lon="20.876270"><ele>9.5</ele><time>2026-07-23T09:44:06Z</time></trkpt>
			<trkpt lat="54.799150" lon="20.876600"><ele>9.4</ele><time>2026-07-23T09:44:13Z</time></trkpt>
			<trkpt lat="54.799080" lon="20.877020"><ele>9.4</ele><time>2026-07-23T09:44:19Z</time></trkpt>
			<trkpt lat="54.799030" lon="20.877410"><ele>9.3</ele><time>2026-07-23T09:44:26Z</time></trkpt>
			<trkpt lat="54.799040" lon="20.877810"><ele>9.3</ele><time>2026-07-23T09:44:32Z</time></trkpt>
			<trkpt lat="54.799140" lon="20.878970"><ele>9.1</ele><time>2026-07-23T09:44:39Z</time></trkpt>
			<trkpt lat="54.799100" lon="20.879320"><ele>9.1</ele><time>2026-07-23T09:44:45Z</time></trkpt>
			<trkpt lat="54.798490" lon="20.879370"><ele>10.1</ele><time>2026-07-23T09:44:51Z</time></trkpt>
			<trkpt lat="54.797500" lon="20.879350"><ele>11.9</ele><time>2026-07-23T09:44:58Z</time></trkpt>
			<trkpt lat="54.796120" lon="20.879280"><ele>11.6</ele><time>2026-07-23T09:45:04Z</time></trkpt>
			<trkpt lat="54.793200" lon="20.879070"><ele>12.3</ele><time>2026-07-23T09:45:11Z</time></trkpt>
			<trkpt lat="54.792500" lon="20.879060"><ele>12.4</ele><time>2026-07-23T09:45:17Z</time></trkpt>
			<trkpt lat="54.792080" lon="20.879100"><ele>12.5</ele><time>2026-07-23T09:45:24Z</time></trkpt>
			<trkpt lat="54.791820" lon="20.879230"><ele>12.4</ele><time>2026-07-23T09:45:30Z</time></trkpt>
			<trkpt lat="54.791060" lon="20.879870"><ele>11.3</ele><time>2026-07-23T09:45:37Z</time></trkpt>
			<trkpt lat="54.789320" lon="20.881500"><ele>9.5</ele><time>2026-07-23T09:45:43Z</time></trkpt>
			<trkpt lat="54.789050" lon="20.881790"><ele>9.4</ele><time>2026-07-23T09:45:49Z</time></trkpt>
			<trkpt lat="54.788790" lon="20.882160"><ele>9.2</ele><time>2026-07-23T09:45:56Z</time></trkpt>
			<trkpt lat="54.788370" lon="20.882970"><ele>8.8</ele><time>2026-07-23T09:46:02Z</time></trkpt>
			<trkpt lat="54.787980" lon="20.883720"><ele>8.4</ele><time>2026-07-23T09:46:09Z</time></trkpt>
			<trkpt lat="54.787060" lon="20.885220"><ele>8.3</ele><time>2026-07-23T09:46:15Z</time></trkpt>
			<trkpt lat="54.786940" lon="20.884570"><ele>8.5</ele><time>2026-07-23T09:46:22Z</time></trkpt>
			<trkpt lat="54.786750" lon="20.883680"><ele>8.8</ele><time>2026-07-23T09:46:28Z</time></trkpt>
			<trkpt lat="54.786470" lon="20.882660"><ele>8.6</ele><time>2026-07-23T09:46:34Z</time></trkpt>
			<trkpt lat="54.786230" lon="20.881850"><ele>8.2</ele><time>2026-07-23T09:46:41Z</time></trkpt>
			<trkpt lat="54.786000" lon="20.881050"><ele>7.7</ele><time>2026-07-23T09:46:47Z</time></trkpt>
			<trkpt lat="54.785090" lon="20.877910"><ele>9.8</ele><time>2026-07-23T09:46:54Z</time></trkpt>
			<trkpt lat="54.783170" lon="20.871500"><ele>9.5</ele><time>2026-07-23T09:47:00Z</time></trkpt>
			<trkpt lat="54.783170" lon="20.871490"><ele>9.5</ele><time>2026-07-23T09:47:08Z</time></trkpt>
			<trkpt lat="54.781120" lon="20.865540"><ele>10.1</ele><time>2026-07-23T09:47:16Z</time></trkpt>
			<trkpt lat="54.780570" lon="20.863860"><ele>8.8</ele><time>2026-07-23T09:47:24Z</time></trkpt>
			<trkpt lat="54.780150" lon="20.862290"><ele>8.5</ele><time>2026-07-23T09:47:32Z</time></trkpt>
			<trkpt lat="54.779090" lon="20.856430"><ele>9.6</ele><time>2026-07-23T09:47:40Z</time></trkpt>
			<trkpt lat="54.778820" lon="20.854610"><ele>9.6</ele><time>2026-07-23T09:47:48Z</time></trkpt>
			<trkpt lat="54.778090" lon="20.848040"><ele>8.8</ele><time>2026-07-23T09:47:56Z</time></trkpt>
			<trkpt lat="54.776860" lon="20.837740"><ele>8.2</ele><time>2026-07-23T09:48:04Z</time></trkpt>
			<trkpt lat="54.776760" lon="20.836900"><ele>8.8</ele><time>2026-07-23T09:48:12Z</time></trkpt>
			<trkpt lat="54.776670" lon="20.836310"><ele>8.9</ele><time>2026-07-23T09:48:20Z</time></trkpt>
			<trkpt lat="54.776520" lon="20.835770"><ele>8.9</ele><time>2026-07-23T09:48:27Z</time></trkpt>
			<trkpt lat="54.776410" lon="20.835560"><ele>9.0</ele><time>2026-07-23T09:48:35Z</time></trkpt>
			<trkpt lat="54.775980" lon="20.834900"><ele>9.0</ele><time>2026-07-23T09:48:43Z</time></trkpt>
			<trkpt lat="54.775540" lon="20.834290"><ele>9.0</ele><time>2026-07-23T09:48:51Z</time></trkpt>
			<trkpt lat="54.774550" lon="20.833280"><ele>8.3</ele><time>2026-07-23T09:48:59Z</time></trkpt>
			<trkpt lat="54.774350" lon="20.833010"><ele>8.2</ele><time>2026-07-23T09:49:07Z</time></trkpt>
			<trkpt lat="54.774130" lon="20.832060"><ele>8.1</ele><time>2026-07-23T09:49:15Z</time></trkpt>
			<trkpt lat="54.773650" lon="20.826100"><ele>9.3</ele><time>2026-07-23T09:49:23Z</time></trkpt>
			<trkpt lat="54.773430" lon="20.824950"><ele>10.0</ele><time>2026-07-23T09:49:31Z</time></trkpt>
			<trkpt lat="54.771580" lon="20.818910"><ele>10.9</ele><time>2026-07-23T09:49:39Z</time></trkpt>
			<trkpt lat="54.770210" lon="20.814460"><ele>12.2</ele><time>2026-07-23T09:49:47Z</time></trkpt>
			<trkpt lat="54.769950" lon="20.813450"><ele>12.4</ele><time>2026-07-23T09:49:55Z</time></trkpt>
			<trkpt lat="54.769850" lon="20.812820"><ele>12.6</ele><time>2026-07-23T09:50:03Z</time></trkpt>
			<trkpt lat="54.769590" lon="20.811490"><ele>12.6</ele><time>2026-07-23T09:50:11Z</time></trkpt>
			<trkpt lat="54.769210" lon="20.809070"><ele>12.3</ele><time>2026-07-23T09:50:19Z</time></trkpt>
			<trkpt lat="54.769070" lon="20.808530"><ele>12.5</ele><time>2026-07-23T09:50:27Z</time></trkpt>
			<trkpt lat="54.768920" lon="20.808230"><ele>12.6</ele><time>2026-07-23T09:50:34Z</time></trkpt>
			<trkpt lat="54.768760" lon="20.808060"><ele>12.7</ele><time>2026-07-23T09:50:42Z</time></trkpt>
			<trkpt lat="54.765610" lon="20.804220"><ele>13.9</ele><time>2026-07-23T09:50:50Z</time></trkpt>
			<trkpt lat="54.762900" lon="20.800900"><ele>14.3</ele><time>2026-07-23T09:50:58Z</time></trkpt>
			<trkpt lat="54.761910" lon="20.799760"><ele>16.3</ele><time>2026-07-23T09:51:06Z</time></trkpt>
			<trkpt lat="54.761520" lon="20.799360"><ele>16.9</ele><time>2026-07-23T09:51:14Z</time></trkpt>
			<trkpt lat="54.761200" lon="20.799170"><ele>17.3</ele><time>2026-07-23T09:51:22Z</time></trkpt>
			<trkpt lat="54.759240" lon="20.799120"><ele>20.3</ele><time>2026-07-23T09:51:30Z</time></trkpt>
			<trkpt lat="54.756520" lon="20.799150"><ele>24.1</ele><time>2026-07-23T09:51:38Z</time></trkpt>
			<trkpt lat="54.755770" lon="20.799120"><ele>24.5</ele><time>2026-07-23T09:51:46Z</time></trkpt>
			<trkpt lat="54.755200" lon="20.798840"><ele>24.9</ele><time>2026-07-23T09:51:54Z</time></trkpt>
			<trkpt lat="54.754810" lon="20.798500"><ele>24.8</ele><time>2026-07-23T09:52:02Z</time></trkpt>
			<trkpt lat="54.754570" lon="20.798170"><ele>24.5</ele><time>2026-07-23T09:52:10Z</time></trkpt>
			<trkpt lat="54.753940" lon="20.797000"><ele>23.6</ele><time>2026-07-23T09:52:18Z</time></trkpt>
			<trkpt lat="54.749210" lon="20.788000"><ele>18.9</ele><time>2026-07-23T09:52:26Z</time></trkpt>
			<trkpt lat="54.748990" lon="20.787390"><ele>17.6</ele><time>2026-07-23T09:52:34Z</time></trkpt>
			<trkpt lat="54.748780" lon="20.781330"><ele>12.6</ele><time>2026-07-23T09:52:41Z</time></trkpt>
			<trkpt lat="54.748760" lon="20.778480"><ele>11.8</ele><time>2026-07-23T09:52:49Z</time></trkpt>
			<trkpt lat="54.748790" lon="20.773910"><ele>14.4</ele><time>2026-07-23T09:52:57Z</time></trkpt>
			<trkpt lat="54.748910" lon="20.771230"><ele>14.5</ele><time>2026-07-23T09:53:05Z</time></trkpt>
			<trkpt lat="54.749150" lon="20.766750"><ele>14.9</ele><time>2026-07-23T09:53:13Z</time></trkpt>
			<trkpt lat="54.749450" lon="20.760660"><ele>15.7</ele><time>2026-07-23T09:53:21Z</time></trkpt>
			<trkpt lat="54.749400" lon="20.759260"><ele>16.8</ele><time>2026-07-23T09:53:29Z</time></trkpt>
			<trkpt lat="54.749280" lon="20.758560"><ele>16.8</ele><time>2026-07-23T09:53:37Z</time></trkpt>
			<trkpt lat="54.748740" lon="20.756560"><ele>16.0</ele><time>2026-07-23T09:53:45Z</time></trkpt>
			<trkpt lat="54.748140" lon="20.754770"><ele>15.2</ele><time>2026-07-23T09:53:53Z</time></trkpt>
			<trkpt lat="54.747090" lon="20.751620"><ele>15.6</ele><time>2026-07-23T09:54:01Z</time></trkpt>
			<trkpt lat="54.746450" lon="20.749590"><ele>15.1</ele><time>2026-07-23T09:54:09Z</time></trkpt>
			<trkpt lat="54.746230" lon="20.748810"><ele>14.5</ele><time>2026-07-23T09:54:17Z</time></trkpt>
			<trkpt lat="54.746110" lon="20.747440"><ele>13.8</ele><time>2026-07-23T09:54:25Z</time></trkpt>
			<trkpt lat="54.745990" lon="20.742440"><ele>13.2</ele><time>2026-07-23T09:54:33Z</time></trkpt>
			<trkpt lat="54.745980" lon="20.741980"><ele>13.1</ele><time>2026-07-23T09:54:41Z</time></trkpt>
			<trkpt lat="54.745860" lon="20.741080"><ele>12.9</ele><time>2026-07-23T09:54:49Z</time></trkpt>
			<trkpt lat="54.744670" lon="20.734950"><ele>16.9</ele><time>2026-07-23T09:54:56Z</time></trkpt>
			<trkpt lat="54.741590" lon="20.735750"><ele>13.1</ele><time>2026-07-23T09:55:04Z</time></trkpt>
			<trkpt lat="54.740910" lon="20.735930"><ele>13.9</ele><time>2026-07-23T09:55:12Z</time></trkpt>
			<trkpt lat="54.740400" lon="20.736060"><ele>14.6</ele><time>2026-07-23T09:55:20Z</time></trkpt>
			<trkpt lat="54.739200" lon="20.736190"><ele>15.7</ele><time>2026-07-23T09:55:28Z</time></trkpt>
			<trkpt lat="54.738540" lon="20.736160"><ele>16.0</ele><time>2026-07-23T09:55:36Z</time></trkpt>
			<trkpt lat="54.732770" lon="20.733830"><ele>13.1</ele><time>2026-07-23T09:55:44Z</time></trkpt>
			<trkpt lat="54.732310" lon="20.733680"><ele>12.7</ele><time>2026-07-23T09:55:52Z</time></trkpt>
			<trkpt lat="54.732030" lon="20.733660"><ele>12.3</ele><time>2026-07-23T09:56:00Z</time></trkpt>
			<trkpt lat="54.731780" lon="20.733730"><ele>12.0</ele><time>2026-07-23T09:56:08Z</time></trkpt>
			<trkpt lat="54.731090" lon="20.734260"><ele>11.1</ele><time>2026-07-23T09:56:16Z</time></trkpt>
			<trkpt lat="54.728620" lon="20.737190"><ele>11.0</ele><time>2026-07-23T09:56:24Z</time></trkpt>
			<trkpt lat="54.727720" lon="20.738020"><ele>11.8</ele><time>2026-07-23T09:56:32Z</time></trkpt>
			<trkpt lat="54.727630" lon="20.738100"><ele>11.9</ele><time>2026-07-23T09:56:40Z</time></trkpt>
			<trkpt lat="54.727180" lon="20.738530"><ele>12.5</ele><time>2026-07-23T09:56:48Z</time></trkpt>
			<trkpt lat="54.725840" lon="20.739650"><ele>13.0</ele><time>2026-07-23T09:56:56Z</time></trkpt>
			<trkpt lat="54.725250" lon="20.739970"><ele>12.5</ele><time>2026-07-23T09:57:03Z</time></trkpt>
			<trkpt lat="54.724470" lon="20.740230"><ele>11.9</ele><time>2026-07-23T09:57:11Z</time></trkpt>
			<trkpt lat="54.724070" lon="20.740240"><ele>11.8</ele><time>2026-07-23T09:57:19Z</time></trkpt>
			<trkpt lat="54.723970" lon="20.740210"><ele>11.8</ele><time>2026-07-23T09:57:27Z</time></trkpt>
			<trkpt lat="54.721030" lon="20.738170"><ele>13.1</ele><time>2026-07-23T09:57:35Z</time></trkpt>
			<trkpt lat="54.718410" lon="20.736350"><ele>13.4</ele><time>2026-07-23T09:57:43Z</time></trkpt>
			<trkpt lat="54.718070" lon="20.736260"><ele>13.3</ele><time>2026-07-23T09:57:51Z</time></trkpt>
			<trkpt lat="54.717940" lon="20.736290"><ele>13.2</ele><time>2026-07-23T09:57:59Z</time></trkpt>
			<trkpt lat="54.717720" lon="20.736500"><ele>13.1</ele><time>2026-07-23T09:58:07Z</time></trkpt>
			<trkpt lat="54.717230" lon="20.737640"><ele>12.3</ele><time>2026-07-23T09:58:15Z</time></trkpt>
			<trkpt lat="54.716240" lon="20.738890"><ele>11.0</ele><time>2026-07-23T09:58:23Z</time></trkpt>
			<trkpt lat="54.715440" lon="20.739820"><ele>9.8</ele><time>2026-07-23T09:58:31Z</time></trkpt>
			<trkpt lat="54.714500" lon="20.740850"><ele>9.5</ele><time>2026-07-23T09:58:39Z</time></trkpt>
			<trkpt lat="54.714180" lon="20.741090"><ele>9.7</ele><time>2026-07-23T09:58:47Z</time></trkpt>
			<trkpt lat="54.713860" lon="20.741240"><ele>9.9</ele><time>2026-07-23T09:58:55Z</time></trkpt>
			<trkpt lat="54.713180" lon="20.741350"><ele>9.9</ele><time>2026-07-23T09:59:03Z</time></trkpt>
			<trkpt lat="54.712650" lon="20.741450"><ele>9.3</ele><time>2026-07-23T09:59:10Z</time></trkpt>
			<trkpt lat="54.711680" lon="20.741440"><ele>8.1</ele><time>2026-07-23T09:59:18Z</time></trkpt>
			<trkpt lat="54.710500" lon="20.741430"><ele>7.1</ele><time>2026-07-23T09:59:26Z</time></trkpt>
			<trkpt lat="54.709540" lon="20.741450"><ele>6.2</ele><time>2026-07-23T09:59:34Z</time></trkpt>
			<trkpt lat="54.708740" lon="20.741320"><ele>5.2</ele><time>2026-07-23T09:59:42Z</time></trkpt>
			<trkpt lat="54.707570" lon="20.740860"><ele>5.1</ele><time>2026-07-23T09:59:50Z</time></trkpt>
			<trkpt lat="54.707440" lon="20.740790"><ele>5.5</ele><time>2026-07-23T09:59:58Z</time></trkpt>
			<trkpt lat="54.707440" lon="20.740780"><ele>5.5</ele><time>2026-07-23T10:00:05Z</time></trkpt>
			<trkpt lat="54.706850" lon="20.740440"><ele>6.9</ele><time>2026-07-23T10:00:11Z</time></trkpt>
			<trkpt lat="54.706220" lon="20.739800"><ele>8.8</ele><time>2026-07-23T10:00:17Z</time></trkpt>
			<trkpt lat="54.705410" lon="20.738760"><ele>12.2</ele><time>2026-07-23T10:00:24Z</time></trkpt>
			<trkpt lat="54.705330" lon="20.738670"><ele>12.5</ele><time>2026-07-23T10:00:30Z</time></trkpt>
			<trkpt lat="54.704960" lon="20.738440"><ele>13.8</ele><time>2026-07-23T10:00:37Z</time></trkpt>
			<trkpt lat="54.704180" lon="20.738250"><ele>15.6</ele><time>2026-07-23T10:00:43Z</time></trkpt>
			<trkpt lat="54.703660" lon="20.738120"><ele>16.6</ele><time>2026-07-23T10:00:50Z</time></trkpt>
			<trkpt lat="54.702990" lon="20.738000"><ele>17.8</ele><time>2026-07-23T10:00:56Z</time></trkpt>
			<trkpt lat="54.701840" lon="20.737850"><ele>14.3</ele><time>2026-07-23T10:01:03Z</time></trkpt>
			<trkpt lat="54.701840" lon="20.737740"><ele>14.1</ele><time>2026-07-23T10:01:09Z</time></trkpt>
			<trkpt lat="54.701800" lon="20.735160"><ele>12.0</ele><time>2026-07-23T10:01:16Z</time></trkpt>
			<trkpt lat="54.701800" lon="20.734740"><ele>12.0</ele><time>2026-07-23T10:01:22Z</time></trkpt>
			<trkpt lat="54.701780" lon="20.732910"><ele>11.8</ele><time>2026-07-23T10:01:28Z</time></trkpt>
			<trkpt lat="54.701770" lon="20.732320"><ele>11.7</ele><time>2026-07-23T10:01:35Z</time></trkpt>
			<trkpt lat="54.701760" lon="20.731840"><ele>11.7</ele><time>2026-07-23T10:01:41Z</time></trkpt>
			<trkpt lat="54.701620" lon="20.721180"><ele>14.0</ele><time>2026-07-23T10:01:48Z</time></trkpt>
			<trkpt lat="54.701640" lon="20.719810"><ele>13.4</ele><time>2026-07-23T10:01:54Z</time></trkpt>
			<trkpt lat="54.701480" lon="20.710720"><ele>11.4</ele><time>2026-07-23T10:02:01Z</time></trkpt>
			<trkpt lat="54.701460" lon="20.707260"><ele>10.1</ele><time>2026-07-23T10:02:07Z</time></trkpt>
			<trkpt lat="54.701430" lon="20.705660"><ele>8.7</ele><time>2026-07-23T10:02:14Z</time></trkpt>
			<trkpt lat="54.701430" lon="20.704700"><ele>8.4</ele><time>2026-07-23T10:02:20Z</time></trkpt>
			<trkpt lat="54.701440" lon="20.702790"><ele>8.2</ele><time>2026-07-23T10:02:27Z</time></trkpt>
			<trkpt lat="54.701440" lon="20.702050"><ele>8.2</ele><time>2026-07-23T10:02:33Z</time></trkpt>
			<trkpt lat="54.701430" lon="20.701450"><ele>8.1</ele><time>2026-07-23T10:02:39Z</time></trkpt>
			<trkpt lat="54.701440" lon="20.700760"><ele>8.1</ele><time>2026-07-23T10:02:46Z</time></trkpt>
			<trkpt lat="54.702140" lon="20.693560"><ele>11.7</ele><time>2026-07-23T10:02:52Z</time></trkpt>
			<trkpt lat="54.702930" lon="20.686500"><ele>20.3</ele><time>2026-07-23T10:02:59Z</time></trkpt>
			<trkpt lat="54.703200" lon="20.684350"><ele>22.5</ele><time>2026-07-23T10:03:05Z</time></trkpt>
			<trkpt lat="54.703800" lon="20.678370"><ele>17.6</ele><time>2026-07-23T10:03:12Z</time></trkpt>
			<trkpt lat="54.703820" lon="20.678220"><ele>17.3</ele><time>2026-07-23T10:03:18Z</time></trkpt>
			<trkpt lat="54.703830" lon="20.678060"><ele>17.1</ele><time>2026-07-23T10:03:25Z</time></trkpt>
			<trkpt lat="54.703890" lon="20.677520"><ele>16.5</ele><time>2026-07-23T10:03:31Z</time></trkpt>
			<trkpt lat="54.703920" lon="20.676650"><ele>16.9</ele><time>2026-07-23T10:03:38Z</time></trkpt>
			<trkpt lat="54.703930" lon="20.675750"><ele>17.2</ele><time>2026-07-23T10:03:44Z</time></trkpt>
			<trkpt lat="54.703960" lon="20.674700"><ele>17.6</ele><time>2026-07-23T10:03:50Z</time></trkpt>
			<trkpt lat="54.703980" lon="20.673810"><ele>17.4</ele><time>2026-07-23T10:03:57Z</time></trkpt>
			<trkpt lat="54.703930" lon="20.673260"><ele>17.3</ele><time>2026-07-23T10:04:03Z</time></trkpt>
			<trkpt lat="54.703780" lon="20.672170"><ele>17.0</ele><time>2026-07-23T10:04:10Z</time></trkpt>
			<trkpt lat="54.703590" lon="20.671460"><ele>16.8</ele><time>2026-07-23T10:04:16Z</time></trkpt>
			<trkpt lat="54.703320" lon="20.670570"><ele>16.7</ele><time>2026-07-23T10:04:23Z</time></trkpt>
			<trkpt lat="54.703290" lon="20.670460"><ele>16.6</ele><time>2026-07-23T10:04:29Z</time></trkpt>
			<trkpt lat="54.702940" lon="20.669280"><ele>16.4</ele><time>2026-07-23T10:04:36Z</time></trkpt>
			<trkpt lat="54.702910" lon="20.669160"><ele>16.4</ele><time>2026-07-23T10:04:42Z</time></trkpt>
			<trkpt lat="54.702470" lon="20.667610"><ele>14.3</ele><time>2026-07-23T10:04:48Z</time></trkpt>
			<trkpt lat="54.702370" lon="20.667110"><ele>13.4</ele><time>2026-07-23T10:04:55Z</time></trkpt>
			<trkpt lat="54.702300" lon="20.666750"><ele>12.8</ele><time>2026-07-23T10:05:01Z</time></trkpt>
			<trkpt lat="54.702270" lon="20.666610"><ele>12.6</ele><time>2026-07-23T10:05:08Z</time></trkpt>
			<trkpt lat="54.702210" lon="20.666280"><ele>12.1</ele><time>2026-07-23T10:05:14Z</time></trkpt>
			<trkpt lat="54.702100" lon="20.665690"><ele>11.3</ele><time>2026-07-23T10:05:21Z</time></trkpt>
			<trkpt lat="54.702060" lon="20.665140"><ele>11.2</ele><time>2026-07-23T10:05:27Z</time></trkpt>
			<trkpt lat="54.702010" lon="20.664150"><ele>11.1</ele><time>2026-07-23T10:05:34Z</time></trkpt>
			<trkpt lat="54.702080" lon="20.663260"><ele>11.0</ele><time>2026-07-23T10:05:40Z</time></trkpt>
			<trkpt lat="54.702480" lon="20.658600"><ele>13.7</ele><time>2026-07-23T10:05:47Z</time></trkpt>
			<trkpt lat="54.702570" lon="20.657690"><ele>15.3</ele><time>2026-07-23T10:05:53Z</time></trkpt>
			<trkpt lat="54.702690" lon="20.656790"><ele>16.8</ele><time>2026-07-23T10:05:59Z</time></trkpt>
			<trkpt lat="54.702860" lon="20.655770"><ele>17.1</ele><time>2026-07-23T10:06:06Z</time></trkpt>
			<trkpt lat="54.704060" lon="20.649210"><ele>15.3</ele><time>2026-07-23T10:06:12Z</time></trkpt>
			<trkpt lat="54.704540" lon="20.646570"><ele>13.1</ele><time>2026-07-23T10:06:19Z</time></trkpt>
			<trkpt lat="54.704700" lon="20.645670"><ele>12.3</ele><time>2026-07-23T10:06:25Z</time></trkpt>
			<trkpt lat="54.705440" lon="20.641630"><ele>8.0</ele><time>2026-07-23T10:06:32Z</time></trkpt>
			<trkpt lat="54.705760" lon="20.639870"><ele>8.8</ele><time>2026-07-23T10:06:38Z</time></trkpt>
			<trkpt lat="54.705980" lon="20.638630"><ele>9.3</ele><time>2026-07-23T10:06:45Z</time></trkpt>
			<trkpt lat="54.706930" lon="20.633390"><ele>8.6</ele><time>2026-07-23T10:06:51Z</time></trkpt>
			<trkpt lat="54.707040" lon="20.632650"><ele>8.3</ele><time>2026-07-23T10:06:58Z</time></trkpt>
			<trkpt lat="54.707170" lon="20.631580"><ele>8.8</ele><time>2026-07-23T10:07:04Z</time></trkpt>
			<trkpt lat="54.707240" lon="20.630750"><ele>9.2</ele><time>2026-07-23T10:07:10Z</time></trkpt>
			<trkpt lat="54.707300" lon="20.629900"><ele>9.6</ele><time>2026-07-23T10:07:17Z</time></trkpt>
			<trkpt lat="54.707360" lon="20.628450"><ele>9.2</ele><time>2026-07-23T10:07:23Z</time></trkpt>
			<trkpt lat="54.707390" lon="20.627730"><ele>8.9</ele><time>2026-07-23T10:07:30Z</time></trkpt>
			<trkpt lat="54.707430" lon="20.626800"><ele>8.5</ele><time>2026-07-23T10:07:36Z</time></trkpt>
			<trkpt lat="54.707440" lon="20.626070"><ele>7.6</ele><time>2026-07-23T10:07:43Z</time></trkpt>
			<trkpt lat="54.707420" lon="20.624840"><ele>5.5</ele><time>2026-07-23T10:07:49Z</time></trkpt>
			<trkpt lat="54.707320" lon="20.622800"><ele>2.7</ele><time>2026-07-23T10:07:56Z</time></trkpt>
			<trkpt lat="54.707280" lon="20.622310"><ele>2.5</ele><time>2026-07-23T10:08:02Z</time></trkpt>
			<trkpt lat="54.707220" lon="20.621520"><ele>2.2</ele><time>2026-07-23T10:08:09Z</time></trkpt>
			<trkpt lat="54.707220" lon="20.621520"><ele>2.2</ele><time>2026-07-23T10:08:15Z</time></trkpt>
			<trkpt lat="54.707190" lon="20.621180"><ele>2.0</ele><time>2026-07-23T10:08:22Z</time></trkpt>
			<trkpt lat="54.706960" lon="20.619390"><ele>2.7</ele><time>2026-07-23T10:08:29Z</time></trkpt>
			<trkpt lat="54.706810" lon="20.618350"><ele>3.9</ele><time>2026-07-23T10:08:36Z</time></trkpt>
			<trkpt lat="54.706620" lon="20.617110"><ele>5.1</ele><time>2026-07-23T10:08:43Z</time></trkpt>
			<trkpt lat="54.706250" lon="20.614270"><ele>3.0</ele><time>2026-07-23T10:08:50Z</time></trkpt>
			<trkpt lat="54.706040" lon="20.613000"><ele>2.8</ele><time>2026-07-23T10:08:56Z</time></trkpt>
			<trkpt lat="54.705900" lon="20.612330"><ele>2.7</ele><time>2026-07-23T10:09:03Z</time></trkpt>
			<trkpt lat="54.705620" lon="20.611080"><ele>2.6</ele><time>2026-07-23T10:09:10Z</time></trkpt>
			<trkpt lat="54.704770" lon="20.607750"><ele>4.2</ele><time>2026-07-23T10:09:17Z</time></trkpt>
			<trkpt lat="54.704460" lon="20.606430"><ele>5.1</ele><time>2026-07-23T10:09:24Z</time></trkpt>
			<trkpt lat="54.704290" lon="20.605400"><ele>5.6</ele><time>2026-07-23T10:09:31Z</time></trkpt>
			<trkpt lat="54.704190" lon="20.604630"><ele>4.4</ele><time>2026-07-23T10:09:38Z</time></trkpt>
			<trkpt lat="54.704120" lon="20.603900"><ele>3.3</ele><time>2026-07-23T10:09:44Z</time></trkpt>
			<trkpt lat="54.704060" lon="20.603100"><ele>2.1</ele><time>2026-07-23T10:09:51Z</time></trkpt>
			<trkpt lat="54.704020" lon="20.602240"><ele>1.0</ele><time>2026-07-23T10:09:58Z</time></trkpt>
			<trkpt lat="54.704020" lon="20.601080"><ele>1.3</ele><time>2026-07-23T10:10:05Z</time></trkpt>
			<trkpt lat="54.704080" lon="20.599690"><ele>1.7</ele><time>2026-07-23T10:10:12Z</time></trkpt>
			<trkpt lat="54.704200" lon="20.598470"><ele>1.8</ele><time>2026-07-23T10:10:19Z</time></trkpt>
			<trkpt lat="54.704370" lon="20.596910"><ele>1.8</ele><time>2026-07-23T10:10:25Z</time></trkpt>
			<trkpt lat="54.704660" lon="20.594300"><ele>3.3</ele><time>2026-07-23T10:10:32Z</time></trkpt>
			<trkpt lat="54.704850" lon="20.592930"><ele>4.3</ele><time>2026-07-23T10:10:39Z</time></trkpt>
			<trkpt lat="54.704940" lon="20.592380"><ele>4.3</ele><time>2026-07-23T10:10:46Z</time></trkpt>
			<trkpt lat="54.705200" lon="20.591150"><ele>4.2</ele><time>2026-07-23T10:10:53Z</time></trkpt>
			<trkpt lat="54.705320" lon="20.590550"><ele>4.1</ele><time>2026-07-23T10:11:00Z</time></trkpt>
			<trkpt lat="54.705700" lon="20.589140"><ele>4.4</ele><time>2026-07-23T10:11:07Z</time></trkpt>
			<trkpt lat="54.706030" lon="20.588040"><ele>4.7</ele><time>2026-07-23T10:11:13Z</time></trkpt>
			<trkpt lat="54.706290" lon="20.587140"><ele>5.2</ele><time>2026-07-23T10:11:20Z</time></trkpt>
			<trkpt lat="54.706330" lon="20.587010"><ele>5.3</ele><time>2026-07-23T10:11:27Z</time></trkpt>
			<trkpt lat="54.706410" lon="20.586760"><ele>5.6</ele><time>2026-07-23T10:11:34Z</time></trkpt>
			<trkpt lat="54.706520" lon="20.586370"><ele>6.1</ele><time>2026-07-23T10:11:41Z</time></trkpt>
			<trkpt lat="54.706740" lon="20.585560"><ele>7.0</ele><time>2026-07-23T10:11:48Z</time></trkpt>
			<trkpt lat="54.706890" lon="20.584810"><ele>7.8</ele><time>2026-07-23T10:11:54Z</time></trkpt>
			<trkpt lat="54.706990" lon="20.584140"><ele>8.0</ele><time>2026-07-23T10:12:01Z</time></trkpt>
			<trkpt lat="54.707060" lon="20.583700"><ele>7.9</ele><time>2026-07-23T10:12:08Z</time></trkpt>
			<trkpt lat="54.707130" lon="20.583150"><ele>7.8</ele><time>2026-07-23T10:12:15Z</time></trkpt>
			<trkpt lat="54.707310" lon="20.581760"><ele>7.4</ele><time>2026-07-23T10:12:22Z</time></trkpt>
			<trkpt lat="54.707380" lon="20.581190"><ele>7.5</ele><time>2026-07-23T10:12:29Z</time></trkpt>
			<trkpt lat="54.707810" lon="20.577660"><ele>8.7</ele><time>2026-07-23T10:12:36Z</time></trkpt>
			<trkpt lat="54.708080" lon="20.575390"><ele>8.1</ele><time>2026-07-23T10:12:42Z</time></trkpt>
			<trkpt lat="54.708110" lon="20.575150"><ele>8.1</ele><time>2026-07-23T10:12:49Z</time></trkpt>
			<trkpt lat="54.708250" lon="20.573770"><ele>8.0</ele><time>2026-07-23T10:12:56Z</time></trkpt>
			<trkpt lat="54.708430" lon="20.572340"><ele>7.9</ele><time>2026-07-23T10:13:03Z</time></trkpt>
			<trkpt lat="54.708590" lon="20.570920"><ele>8.0</ele><time>2026-07-23T10:13:10Z</time></trkpt>
			<trkpt lat="54.708610" lon="20.570810"><ele>8.0</ele><time>2026-07-23T10:13:17Z</time></trkpt>
			<trkpt lat="54.708710" lon="20.569990"><ele>8.0</ele><time>2026-07-23T10:13:23Z</time></trkpt>
			<trkpt lat="54.708800" lon="20.569080"><ele>8.1</ele><time>2026-07-23T10:13:30Z</time></trkpt>
			<trkpt lat="54.708840" lon="20.568780"><ele>8.0</ele><time>2026-07-23T10:13:37Z</time></trkpt>
			<trkpt lat="54.708840" lon="20.568330"><ele>8.0</ele><time>2026-07-23T10:13:44Z</time></trkpt>
			<trkpt lat="54.708860" lon="20.567600"><ele>7.9</ele><time>2026-07-23T10:13:51Z</time></trkpt>
			<trkpt lat="54.708870" lon="20.567370"><ele>7.9</ele><time>2026-07-23T10:13:58Z</time></trkpt>
			<trkpt lat="54.708900" lon="20.566500"><ele>7.7</ele><time>2026-07-23T10:14:05Z</time></trkpt>
			<trkpt lat="54.708930" lon="20.564920"><ele>7.5</ele><time>2026-07-23T10:14:11Z</time></trkpt>
			<trkpt lat="54.709000" lon="20.563220"><ele>7.2</ele><time>2026-07-23T10:14:18Z</time></trkpt>
			<trkpt lat="54.709070" lon="20.561820"><ele>7.5</ele><time>2026-07-23T10:14:25Z</time></trkpt>
			<trkpt lat="54.709180" lon="20.559880"><ele>8.0</ele><time>2026-07-23T10:14:32Z</time></trkpt>
			<trkpt lat="54.709260" lon="20.558180"><ele>6.7</ele><time>2026-07-23T10:14:39Z</time></trkpt>
			<trkpt lat="54.709330" lon="20.557150"><ele>5.9</ele><time>2026-07-23T10:14:46Z</time></trkpt>
			<trkpt lat="54.709430" lon="20.555820"><ele>6.0</ele><time>2026-07-23T10:14:52Z</time></trkpt>
			<trkpt lat="54.709500" lon="20.554650"><ele>6.5</ele><time>2026-07-23T10:14:59Z</time></trkpt>
			<trkpt lat="54.709560" lon="20.553520"><ele>6.9</ele><time>2026-07-23T10:15:06Z</time></trkpt>
			<trkpt lat="54.709670" lon="20.551140"><ele>6.0</ele><time>2026-07-23T10:15:13Z</time></trkpt>
			<trkpt lat="54.709710" lon="20.550150"><ele>5.7</ele><time>2026-07-23T10:15:20Z</time></trkpt>
			<trkpt lat="54.709780" lon="20.549170"><ele>5.7</ele><time>2026-07-23T10:15:27Z</time></trkpt>
			<trkpt lat="54.709800" lon="20.548660"><ele>5.7</ele><time>2026-07-23T10:15:34Z</time></trkpt>
			<trkpt lat="54.709852" lon="20.546651"><ele>6.3</ele><time>2026-07-23T10:15:40Z</time></trkpt>
			<trkpt lat="54.709852" lon="20.546651"><ele>6.3</ele><time>2026-07-23T10:15:44Z</time></trkpt>
			<trkpt lat="54.709880" lon="20.545560"><ele>7.0</ele><time>2026-07-23T10:15:48Z</time></trkpt>
			<trkpt lat="54.709890" lon="20.545190"><ele>7.3</ele><time>2026-07-23T10:15:51Z</time></trkpt>
			<trkpt lat="54.710000" lon="20.545010"><ele>7.5</ele><time>2026-07-23T10:15:55Z</time></trkpt>
			<trkpt lat="54.710220" lon="20.545030"><ele>7.8</ele><time>2026-07-23T10:15:58Z</time></trkpt>
			<trkpt lat="54.710810" lon="20.545070"><ele>7.9</ele><time>2026-07-23T10:16:02Z</time></trkpt>
			<trkpt lat="54.710960" lon="20.545060"><ele>7.9</ele><time>2026-07-23T10:16:05Z</time></trkpt>
			<trkpt lat="54.711020" lon="20.544130"><ele>7.9</ele><time>2026-07-23T10:16:09Z</time></trkpt>
			<trkpt lat="54.711069" lon="20.542957"><ele>8.0</ele><time>2026-07-23T10:17:43Z</time></trkpt>
		</trkseg>
	</trk>
</gpx>